Provisional Data: Hunts Run near Cameron, PA


Please select a monitoring station.
Please select start date.
Please select start date.

Toggle Unit: C/F Toggle Unit: C/F
Sample Time Temperature (C) Temperature (F) Specific Conductivity (mS/cm) pH   Turbidity (NTU+) DO (mg/L)
6/3/2022 12:00:00 AM 15.95 60.71 0.038 7.18 1.32 9.18
6/3/2022 12:15:00 AM 15.9 60.62 0.038 7.17 1.34 9.19
6/3/2022 12:30:00 AM 15.86 60.548 0.038 7.18 1.34 9.2
6/3/2022 12:45:00 AM 15.81 60.458 0.038 7.17 1.32 9.21
6/3/2022 1:00:00 AM 15.77 60.386 0.038 7.18 1.4 9.22
6/3/2022 1:15:00 AM 15.72 60.296 0.038 7.18 1.37 9.24
6/3/2022 1:30:00 AM 15.68 60.224 0.037 7.18 1.25 9.25
6/3/2022 1:45:00 AM 15.62 60.116 0.038 7.17 1.33 9.26
6/3/2022 2:00:00 AM 15.58 60.044 0.037 7.17 1.41 9.27
6/3/2022 2:15:00 AM 15.52 59.936 0.037 7.17 2.02 9.27
6/3/2022 2:30:00 AM 15.46 59.828 0.037 7.17 1.39 9.28
6/3/2022 2:45:00 AM 15.4 59.72 0.037 7.16 1.5 9.3
6/3/2022 3:00:00 AM 15.33 59.594 0.038 7.16 1.33 9.32
6/3/2022 3:15:00 AM 15.26 59.468 0.037 7.16 1.27 9.31
6/3/2022 3:30:00 AM 15.18 59.324 0.037 7.16 1.47 9.34
6/3/2022 3:45:00 AM 15.1 59.18 0.037 7.16 1.34 9.35
6/3/2022 4:00:00 AM 15.02 59.036 0.037 7.15 1.36 9.38
6/3/2022 4:15:00 AM 14.94 58.892 0.037 7.16 1.33 9.39
6/3/2022 4:30:00 AM 14.87 58.766 0.037 7.16 1.38 9.4
6/3/2022 4:45:00 AM 14.81 58.658 0.037 7.16 1.27 9.42
6/3/2022 5:00:00 AM 14.74 58.532 0.037 7.15 1.33 9.43
6/3/2022 5:15:00 AM 14.68 58.424 0.037 7.16 1.36 9.44
6/3/2022 5:30:00 AM 14.63 58.334 0.037 7.16 1.37 9.47
6/3/2022 5:45:00 AM 14.58 58.244 0.037 7.16 1.39 9.48
6/3/2022 6:00:00 AM 14.53 58.154 0.037 7.17 1.29 9.52
6/3/2022 6:15:00 AM 14.48 58.064 0.037 7.17 1.38 9.54
6/3/2022 6:30:00 AM 14.43 57.974 0.037 7.19 1.31 9.57
6/3/2022 6:45:00 AM 14.38 57.884 0.037 7.19 1.33 9.62
6/3/2022 7:00:00 AM 14.34 57.812 0.037 7.18 1.33 9.65
6/3/2022 7:15:00 AM 14.3 57.74 0.037 7.2 1.4 9.68
6/3/2022 7:30:00 AM 14.26 57.668 0.037 7.2 1.26 9.7
6/3/2022 7:45:00 AM 14.23 57.614 0.037 7.2 1.36 9.72
6/3/2022 8:00:00 AM 14.22 57.596 0.037 7.21 1.3 9.75
6/3/2022 8:15:00 AM 14.21 57.578 0.037 7.21 1.31 9.75
6/3/2022 8:30:00 AM 14.21 57.578 0.037 7.22 1.24 9.77
6/3/2022 8:45:00 AM 14.23 57.614 0.037 7.23 1.93 9.79
6/3/2022 9:00:00 AM 14.25 57.65 0.037 7.25 1.22 9.79
6/3/2022 9:15:00 AM 14.28 57.704 0.037 7.25 1.27 9.8
6/3/2022 9:30:00 AM 14.33 57.794 0.037 7.23 1.33 9.79
6/3/2022 9:45:00 AM 14.41 57.938 0.037 7.24 1.35 9.8
6/3/2022 10:00:00 AM 14.53 58.154 0.037 7.25 1.26 9.81
6/3/2022 10:15:00 AM 14.65 58.37 0.037 7.28 1.26 9.82
6/3/2022 10:30:00 AM 14.76 58.568 0.037 7.28 1.34 9.82
6/3/2022 10:45:00 AM 14.88 58.784 0.037 7.28 1.33 9.81
6/3/2022 11:00:00 AM 15.01 59.018 0.037 7.29 1.34 9.78
6/3/2022 11:15:00 AM 15.14 59.252 0.037 7.29 1.46 9.78
6/3/2022 11:30:00 AM 15.3 59.54 0.037 7.3 1.22 9.75
6/3/2022 11:45:00 AM 15.46 59.828 0.037 7.32 1.37 9.75
6/3/2022 12:00:00 PM 15.61 60.098 0.037 7.32 1.35 9.73
6/3/2022 12:15:00 PM 15.73 60.314 0.037 7.32 1.31 9.72
6/3/2022 12:30:00 PM 16.05 60.89 0.037 7.32 1.3 9.7
6/3/2022 12:45:00 PM 16.31 61.358 0.037 7.34 1.22 9.67
6/3/2022 1:00:00 PM 16.36 61.448 0.037 7.34 1.36 9.63
6/3/2022 1:15:00 PM 16.55 61.79 0.037 7.33 1.18 9.61
6/3/2022 1:30:00 PM 16.6 61.88 0.038 7.31 1.18 9.58
6/3/2022 1:45:00 PM 16.55 61.79 0.037 7.31 1.26 9.56
6/3/2022 2:00:00 PM 16.71 62.078 0.037 7.32 1.21 9.54
6/3/2022 2:15:00 PM 16.91 62.438 0.037 7.32 1.26 9.54
6/3/2022 2:30:00 PM 16.95 62.51 0.037 7.34 1.34 9.52
6/3/2022 2:45:00 PM 17.03 62.654 0.037 7.33 1.18 9.51
6/3/2022 3:00:00 PM 16.99 62.582 0.037 7.34 1.19 9.48
6/3/2022 3:15:00 PM 17.1 62.78 0.037 7.33 1.22 9.47
6/3/2022 3:30:00 PM 17.12 62.816 0.037 7.33 1.29 9.45
6/3/2022 3:45:00 PM 17.16 62.888 0.037 7.31 1.22 9.42
6/3/2022 4:00:00 PM 17.11 62.798 0.037 7.32 1.26 9.4
6/3/2022 4:15:00 PM 17.12 62.816 0.037 7.32 1.21 9.4
6/3/2022 4:30:00 PM 17.07 62.726 0.038 7.31 1.32 9.37
6/3/2022 4:45:00 PM 17.05 62.69 0.038 7.3 1.19 9.38
6/3/2022 5:00:00 PM 17.1 62.78 0.037 7.32 1.29 9.39
6/3/2022 5:15:00 PM 17.02 62.636 0.038 7.3 1.25 9.35
6/3/2022 5:30:00 PM 16.96 62.528 0.038 7.3 1.24 9.31
6/3/2022 5:45:00 PM 16.9 62.42 0.038 7.28 1.2 9.28
6/3/2022 6:00:00 PM 16.85 62.33 0.038 7.26 1.28 9.24
6/3/2022 6:15:00 PM 16.8 62.24 0.038 7.27 1.29 9.23
6/3/2022 6:30:00 PM 16.75 62.15 0.038 7.25 1.27 9.22
6/3/2022 6:45:00 PM 16.69 62.042 0.038 7.24 1.32 9.22
6/3/2022 7:00:00 PM 16.65 61.97 0.038 7.23 1.27 9.21
6/3/2022 7:15:00 PM 16.59 61.862 0.038 7.22 1.15 9.19
6/3/2022 7:30:00 PM 16.52 61.736 0.038 7.23 1.29 9.18
6/3/2022 7:45:00 PM 16.45 61.61 0.038 7.21 1.2 9.17
6/3/2022 8:00:00 PM 16.37 61.466 0.038 7.21 1.27 9.17
6/3/2022 8:15:00 PM 16.28 61.304 0.038 7.21 1.35 9.17
6/3/2022 8:30:00 PM 16.19 61.142 0.038 7.2 1.22 9.17
6/3/2022 8:45:00 PM 16.1 60.98 0.038 7.18 1.26 9.16
6/3/2022 9:00:00 PM 16.01 60.818 0.038 7.19 1.29 9.17
6/3/2022 9:15:00 PM 15.92 60.656 0.039 7.17 1.27 9.17
6/3/2022 9:30:00 PM 15.83 60.494 0.038 7.15 1.42 9.2
6/3/2022 9:45:00 PM 15.73 60.314 0.038 7.16 1.35 9.21
6/3/2022 10:00:00 PM 15.63 60.134 0.038 7.17 1.23 9.23
6/3/2022 10:15:00 PM 15.53 59.954 0.038 7.16 1.29 9.26
6/3/2022 10:30:00 PM 15.42 59.756 0.038 7.15 1.28 9.28
6/3/2022 10:45:00 PM 15.32 59.576 0.038 7.18 1.29 9.31
6/3/2022 11:00:00 PM 15.22 59.396 0.038 7.11 1.29 9.33
6/3/2022 11:15:00 PM 15.12 59.216 0.038 7.13 1.33 9.35
6/3/2022 11:30:00 PM 15.02 59.036 0.038 7.12 1.44 9.37
6/3/2022 11:45:00 PM 14.92 58.856 0.038 7.14 1.43 9.39
6/4/2022 12:00:00 AM 14.82 58.676 0.038 7.14 1.4 9.42
6/4/2022 12:15:00 AM 14.74 58.532 0.038 7.14 1.34 9.42
6/4/2022 12:30:00 AM 14.64 58.352 0.038 7.17 1.3 9.46
6/4/2022 12:45:00 AM 14.55 58.19 0.038 7.14 1.41 9.46
6/4/2022 1:00:00 AM 14.46 58.028 0.038 7.16 1.31 9.51
6/4/2022 1:15:00 AM 14.39 57.902 0.038 7.16 1.25 9.51
6/4/2022 1:30:00 AM 14.3 57.74 0.038 7.11 1.27 9.55
6/4/2022 1:45:00 AM 14.22 57.596 0.038 7.14 1.55 9.55
6/4/2022 2:00:00 AM 14.15 57.47 0.038 7.11 1.42 9.57
6/4/2022 2:15:00 AM 14.07 57.326 0.038 7.11 1.59 9.56
6/4/2022 2:30:00 AM 13.99 57.182 0.038 7.1 1.47 9.61
6/4/2022 2:45:00 AM 13.91 57.038 0.038 7.11 1.5 9.62
6/4/2022 3:00:00 AM 13.83 56.894 0.038 7.12 4.34 9.63
6/4/2022 3:15:00 AM 13.75 56.75 0.038 7.16 1.32 9.67
6/4/2022 3:30:00 AM 13.66 56.588 0.038 7.12 1.4 9.69
6/4/2022 3:45:00 AM 13.59 56.462 0.038 7.11 1.36 9.7
6/4/2022 4:00:00 AM 13.51 56.318 0.038 7.14 1.17 9.71
6/4/2022 4:15:00 AM 13.43 56.174 0.038 7.12 1.27 9.74
6/4/2022 4:30:00 AM 13.35 56.03 0.038 7.12 1.26 9.76
6/4/2022 4:45:00 AM 13.28 55.904 0.038 7.12 1.68 9.78
6/4/2022 5:00:00 AM 13.2 55.76 0.038 7.12 1.35 9.8
6/4/2022 5:15:00 AM 13.13 55.634 0.038 7.1 1.26 9.81
6/4/2022 5:30:00 AM 13.07 55.526 0.038 7.13 1.26 9.83
6/4/2022 5:45:00 AM 12.99 55.382 0.038 7.14 1.31 9.85
6/4/2022 6:00:00 AM 12.91 55.238 0.037 7.12 1.26 9.88
6/4/2022 6:15:00 AM 12.85 55.13 0.038 7.13 1.21 9.92
6/4/2022 6:30:00 AM 12.8 55.04 0.037 7.13 1.19 9.96
6/4/2022 6:45:00 AM 12.77 54.986 0.037 7.11 1.22 10
6/4/2022 7:00:00 AM 12.74 54.932 0.037 7.14 1.38 10.04
6/4/2022 7:15:00 AM 12.71 54.878 0.037 7.15 1.22 10.08
6/4/2022 7:30:00 AM 12.68 54.824 0.037 7.17 1.24 10.1
6/4/2022 7:45:00 AM 12.67 54.806 0.037 7.16 1.27 10.13
6/4/2022 8:00:00 AM 12.65 54.77 0.037 7.16 1.16 10.15
6/4/2022 8:15:00 AM 12.63 54.734 0.037 7.19 1.2 10.15
6/4/2022 8:30:00 AM 12.63 54.734 0.037 7.21 1.18 10.16
6/4/2022 8:45:00 AM 12.65 54.77 0.037 7.2 1.21 10.17
6/4/2022 9:00:00 AM 12.69 54.842 0.037 7.21 1.12 10.18
6/4/2022 9:15:00 AM 12.76 54.968 0.037 7.2 1.15 10.18
6/4/2022 9:30:00 AM 12.84 55.112 0.037 7.21 1.15 10.17
6/4/2022 9:45:00 AM 12.96 55.328 0.037 7.25 1.14 10.17
6/4/2022 10:00:00 AM 13.12 55.616 0.037 7.22 1.17 10.18
6/4/2022 10:15:00 AM 13.26 55.868 0.037 7.27 1.09 10.17
6/4/2022 10:30:00 AM 13.38 56.084 0.037 7.24 1.19 10.16
6/4/2022 10:45:00 AM 13.51 56.318 0.037 7.26 1.14 10.14
6/4/2022 11:00:00 AM 13.64 56.552 0.037 7.26 1.24 10.12
6/4/2022 11:15:00 AM 13.78 56.804 0.037 7.27 1.23 10.11
6/4/2022 11:30:00 AM 13.93 57.074 0.037 7.29 1.17 10.09
6/4/2022 11:45:00 AM 14.11 57.398 0.037 7.28 1.19 10.07
6/4/2022 12:00:00 PM 14.31 57.758 0.037 7.3 1.14 10.03
6/4/2022 12:15:00 PM 14.52 58.136 0.037 7.31 1.2 10
6/4/2022 12:30:00 PM 14.77 58.586 0.037 7.29 1.16 9.97
6/4/2022 12:45:00 PM 15.05 59.09 0.037 7.32 1.14 9.92
6/4/2022 1:00:00 PM 15.31 59.558 0.037 7.29 1.15 9.88
6/4/2022 1:15:00 PM 15.59 60.062 0.037 7.3 1.19 9.83
6/4/2022 1:30:00 PM 15.86 60.548 0.037 7.31 1.04 9.8
6/4/2022 1:45:00 PM 16.12 61.016 0.037 7.32 1.14 9.75
6/4/2022 2:00:00 PM 16.4 61.52 0.037 7.31 1.2 9.73
6/4/2022 2:15:00 PM 16.61 61.898 0.037 7.32 1.24 9.69
6/4/2022 2:30:00 PM 16.8 62.24 0.037 7.31 1.14 9.65
6/4/2022 2:45:00 PM 16.97 62.546 0.038 7.35 1.11 9.62
6/4/2022 3:00:00 PM 17.06 62.708 0.039 7.32 1.09 9.6
6/4/2022 3:15:00 PM 17.09 62.762 0.038 7.32 1.05 9.56
6/4/2022 3:30:00 PM 16.98 62.564 0.038 7.32 1.13 9.53
6/4/2022 3:45:00 PM 16.84 62.312 0.039 7.32 1.13 9.51
6/4/2022 4:00:00 PM 16.73 62.114 0.038 7.32 1.11 9.5
6/4/2022 4:15:00 PM 16.65 61.97 0.038 7.3 1.12 9.49
6/4/2022 4:30:00 PM 16.53 61.754 0.038 7.28 1.31 9.48
6/4/2022 4:45:00 PM 16.41 61.538 0.038 7.3 1.11 9.49
6/4/2022 5:00:00 PM 16.35 61.43 0.038 7.31 1.1 9.5
6/4/2022 5:15:00 PM 16.18 61.124 0.038 7.28 1.12 9.46
6/4/2022 5:30:00 PM 16.05 60.89 0.037 7.28 1.06 9.48
6/4/2022 5:45:00 PM 15.96 60.728 0.037 7.26 1.18 9.44
6/4/2022 6:00:00 PM 15.86 60.548 0.037 7.26 1.19 9.43
6/4/2022 6:15:00 PM 15.79 60.422 0.038 7.25 1.18 9.43
6/4/2022 6:30:00 PM 15.74 60.332 0.038 7.23 1.28 9.42
6/4/2022 6:45:00 PM 15.69 60.242 0.038 7.22 1.16 9.41
6/4/2022 7:00:00 PM 15.65 60.17 0.038 7.22 1.17 9.43
6/4/2022 7:15:00 PM 15.58 60.044 0.038 7.22 1.19 9.41
6/4/2022 7:30:00 PM 15.49 59.882 0.038 7.2 1.19 9.41
6/4/2022 7:45:00 PM 15.38 59.684 0.038 7.19 1.12 9.39
6/4/2022 8:00:00 PM 15.28 59.504 0.038 7.21 1.17 9.41
6/4/2022 8:15:00 PM 15.17 59.306 0.038 7.16 1.12 9.42
6/4/2022 8:30:00 PM 15.05 59.09 0.038 7.2 1.31 9.42
6/4/2022 8:45:00 PM 14.95 58.91 0.038 7.19 1.08 9.43
6/4/2022 9:00:00 PM 14.85 58.73 0.038 7.18 1.11 9.44
6/4/2022 9:15:00 PM 14.75 58.55 0.038 7.14 1.23 9.44
6/4/2022 9:30:00 PM 14.65 58.37 0.038 7.14 1.23 9.45
6/4/2022 9:45:00 PM 14.54 58.172 0.038 7.16 1.36 9.48
6/4/2022 10:00:00 PM 14.43 57.974 0.038 7.15 1.26 9.5
6/4/2022 10:15:00 PM 14.31 57.758 0.038 7.15 1.2 9.53
6/4/2022 10:30:00 PM 14.2 57.56 0.038 7.14 1.2 9.54
6/4/2022 10:45:00 PM 14.09 57.362 0.038 7.15 1.24 9.57
6/4/2022 11:00:00 PM 13.98 57.164 0.038 7.11 1.29 9.62
6/4/2022 11:15:00 PM 13.89 57.002 0.038 7.13 1.29 9.63
6/4/2022 11:30:00 PM 13.79 56.822 0.038 7.14 1.21 9.67
6/4/2022 11:45:00 PM 13.69 56.642 0.038 7.15 1.24 9.7
6/5/2022 12:00:00 AM 13.6 56.48 0.038 7.1 1.16 9.71
6/5/2022 12:15:00 AM 13.5 56.3 0.038 7.1 1.26 9.73
6/5/2022 12:30:00 AM 13.4 56.12 0.038 7.11 1.35 9.76
6/5/2022 12:45:00 AM 13.32 55.976 0.038 7.13 1.14 9.78
6/5/2022 1:00:00 AM 13.23 55.814 0.038 7.12 1.25 9.8
6/5/2022 1:15:00 AM 13.13 55.634 0.038 7.12 1.23 9.81
6/5/2022 1:30:00 AM 13.04 55.472 0.038 7.12 1.17 9.85
6/5/2022 1:45:00 AM 12.95 55.31 0.038 7.1 1.16 9.87
6/5/2022 2:00:00 AM 12.86 55.148 0.038 7.1 1.26 9.88
6/5/2022 2:15:00 AM 12.77 54.986 0.038 7.1 1.16 9.9
6/5/2022 2:30:00 AM 12.67 54.806 0.038 7.12 1.22 9.93
6/5/2022 2:45:00 AM 12.59 54.662 0.038 7.1 1.26 9.95
6/5/2022 3:00:00 AM 12.5 54.5 0.038 7.11 1.27 9.99
6/5/2022 3:15:00 AM 12.43 54.374 0.038 7.12 1.29 10
6/5/2022 3:30:00 AM 12.34 54.212 0.038 7.1 1.32 10.01
6/5/2022 3:45:00 AM 12.26 54.068 0.038 7.09 1.28 10.05
6/5/2022 4:00:00 AM 12.19 53.942 0.038 7.1 1.22 10.05
6/5/2022 4:15:00 AM 12.1 53.78 0.038 7.1 1.47 10.08
6/5/2022 4:30:00 AM 12.03 53.654 0.038 7.12 1.28 10.1
6/5/2022 4:45:00 AM 11.94 53.492 0.038 7.12 1.24 10.12
6/5/2022 5:00:00 AM 11.87 53.366 0.038 7.1 1.21 10.13
6/5/2022 5:15:00 AM 11.79 53.222 0.038 7.09 1.2 10.18
6/5/2022 5:30:00 AM 11.71 53.078 0.038 7.09 1.21 10.2
6/5/2022 5:45:00 AM 11.65 52.97 0.038 7.1 1.31 10.21
6/5/2022 6:00:00 AM 11.57 52.826 0.038 7.11 1.23 10.24
6/5/2022 6:15:00 AM 11.51 52.718 0.038 7.1 1.23 10.26
6/5/2022 6:30:00 AM 11.44 52.592 0.038 7.12 1.29 10.31
6/5/2022 6:45:00 AM 11.38 52.484 0.038 7.13 1.14 10.33
6/5/2022 7:00:00 AM 11.32 52.376 0.038 7.13 1.17 10.37
6/5/2022 7:15:00 AM 11.29 52.322 0.038 7.14 1.26 10.41
6/5/2022 7:30:00 AM 11.27 52.286 0.038 7.16 1.19 10.44
6/5/2022 7:45:00 AM 11.27 52.286 0.037 7.15 1.2 10.47
6/5/2022 8:00:00 AM 11.28 52.304 0.037 7.16 1.12 10.51
6/5/2022 8:15:00 AM 11.3 52.34 0.037 7.17 1.13 10.53
6/5/2022 8:30:00 AM 11.32 52.376 0.037 7.18 1.16 10.54
6/5/2022 8:45:00 AM 11.37 52.466 0.037 7.2 1.2 10.56
6/5/2022 9:00:00 AM 11.42 52.556 0.037 7.2 1.25 10.57
6/5/2022 9:15:00 AM 11.52 52.736 0.037 7.21 1.15 10.59
6/5/2022 9:30:00 AM 11.65 52.97 0.037 7.23 1.13 10.62
6/5/2022 9:45:00 AM 11.77 53.186 0.037 7.24 1.25 10.63
6/5/2022 10:00:00 AM 11.89 53.402 0.037 7.24 1.35 10.63
6/5/2022 10:15:00 AM 12.02 53.636 0.037 7.26 1.13 10.63
6/5/2022 10:30:00 AM 12.15 53.87 0.037 7.28 1.19 10.62
6/5/2022 10:45:00 AM 12.28 54.104 0.037 7.23 1.13 10.6
6/5/2022 11:00:00 AM 12.41 54.338 0.037 7.24 1.3 10.57
6/5/2022 11:15:00 AM 12.54 54.572 0.037 7.26 1.17 10.54
6/5/2022 11:30:00 AM 12.67 54.806 0.037 7.27 1.17 10.53
6/5/2022 11:45:00 AM 12.83 55.094 0.037 7.27 1.09 10.5
6/5/2022 12:00:00 PM 13.01 55.418 0.037 7.28 1.16 10.46
6/5/2022 12:15:00 PM 13.19 55.742 0.037 7.27 1.18 10.43
6/5/2022 12:30:00 PM 13.4 56.12 0.037 7.27 1.12 10.38
6/5/2022 12:45:00 PM 13.66 56.588 0.037 7.29 1.12 10.34
6/5/2022 1:00:00 PM 13.96 57.128 0.037 7.29 1.25 10.27
6/5/2022 1:15:00 PM 14.26 57.668 0.037 7.31 1.19 10.22
6/5/2022 1:30:00 PM 14.49 58.082 0.037 7.3 1.12 10.18
6/5/2022 1:45:00 PM 14.56 58.208 0.037 7.3 1.19 10.13
6/5/2022 2:00:00 PM 14.84 58.712 0.037 7.31 1.25 10.1
6/5/2022 2:15:00 PM 15.03 59.054 0.037 7.3 1.15 10.06
6/5/2022 2:30:00 PM 15.18 59.324 0.038 7.32 1.17 10.05
6/5/2022 2:45:00 PM 15.38 59.684 0.037 7.31 1.14 10.01
6/5/2022 3:00:00 PM 15.54 59.972 0.038 7.31 1.28 9.93
6/5/2022 3:15:00 PM 15.68 60.224 0.038 7.31 1.13 9.91
6/5/2022 3:30:00 PM 15.69 60.242 0.038 7.32 1.16 9.86
6/5/2022 3:45:00 PM 15.67 60.206 0.038 7.29 1.12 9.8
6/5/2022 4:00:00 PM 15.67 60.206 0.038 7.3 1.07 9.77
6/5/2022 4:15:00 PM 15.61 60.098 0.038 7.3 1.08 9.76
6/5/2022 4:30:00 PM 15.5 59.9 0.038 7.3 1.2 9.79
6/5/2022 4:45:00 PM 15.42 59.756 0.037 7.3 1.14 9.78
6/5/2022 5:00:00 PM 15.33 59.594 0.037 7.29 1.14 9.8
6/5/2022 5:15:00 PM 15.25 59.45 0.037 7.29 1.16 9.79
6/5/2022 5:30:00 PM 15.19 59.342 0.037 7.26 1.33 9.77
6/5/2022 5:45:00 PM 15.12 59.216 0.037 7.26 1.18 9.73
6/5/2022 6:00:00 PM 15.08 59.144 0.038 7.25 1.11 9.69
6/5/2022 6:15:00 PM 15.05 59.09 0.037 7.24 1.21 9.64
6/5/2022 6:30:00 PM 15.02 59.036 0.038 7.23 1.14 9.64
6/5/2022 6:45:00 PM 15 59 0.037 7.23 1.93 9.65
6/5/2022 7:00:00 PM 14.97 58.946 0.037 7.23 1.14 9.66
6/5/2022 7:15:00 PM 14.92 58.856 0.037 7.2 1.17 9.64
6/5/2022 7:30:00 PM 14.88 58.784 0.037 7.2 1.09 9.63
6/5/2022 7:45:00 PM 14.85 58.73 0.038 7.19 1.19 9.61
6/5/2022 8:00:00 PM 14.82 58.676 0.038 7.18 1.19 9.59
6/5/2022 8:15:00 PM 14.79 58.622 0.038 7.16 1.07 9.57
6/5/2022 8:30:00 PM 14.75 58.55 0.038 7.15 1.16 9.54
6/5/2022 8:45:00 PM 14.7 58.46 0.038 7.15 1.23 9.54
6/5/2022 9:00:00 PM 14.65 58.37 0.038 7.14 1.2 9.51
6/5/2022 9:15:00 PM 14.6 58.28 0.038 7.13 1.14 9.5
6/5/2022 9:30:00 PM 14.53 58.154 0.038 7.13 1.23 9.51
6/5/2022 9:45:00 PM 14.46 58.028 0.038 7.13 1.46 9.53
6/5/2022 10:00:00 PM 14.42 57.956 0.038 7.14 1.15 9.53
6/5/2022 10:15:00 PM 14.35 57.83 0.038 7.13 1.17 9.55
6/5/2022 10:30:00 PM 14.28 57.704 0.038 7.11 1.33 9.54
6/5/2022 10:45:00 PM 14.21 57.578 0.038 7.12 1.18 9.58
6/5/2022 11:00:00 PM 14.13 57.434 0.038 7.12 1.22 9.59
6/5/2022 11:15:00 PM 14.05 57.29 0.038 7.12 1.18 9.61
6/5/2022 11:30:00 PM 13.97 57.146 0.038 7.13 1.17 9.63
6/5/2022 11:45:00 PM 13.88 56.984 0.038 7.12 1.15 9.65
6/6/2022 12:00:00 AM 13.81 56.858 0.038 7.12 1.4 9.67
6/6/2022 12:15:00 AM 13.73 56.714 0.038 7.1 1.28 9.66
6/6/2022 12:30:00 AM 13.65 56.57 0.038 7.12 1.67 9.72
6/6/2022 12:45:00 AM 13.58 56.444 0.038 7.13 1.18 9.72
6/6/2022 1:00:00 AM 13.5 56.3 0.038 7.12 1.26 9.74
6/6/2022 1:15:00 AM 13.41 56.138 0.038 7.12 1.32 9.78
6/6/2022 1:30:00 AM 13.34 56.012 0.038 7.11 1.23 9.77
6/6/2022 1:45:00 AM 13.26 55.868 0.038 7.11 1.21 9.79
6/6/2022 2:00:00 AM 13.18 55.724 0.038 7.11 1.25 9.81
6/6/2022 2:15:00 AM 13.11 55.598 0.038 7.13 1.61 9.83
6/6/2022 2:30:00 AM 13.03 55.454 0.038 7.12 1.15 9.85
6/6/2022 2:45:00 AM 12.96 55.328 0.038 7.12 1.67 9.86
6/6/2022 3:00:00 AM 12.88 55.184 0.038 7.12 1.34 9.89
6/6/2022 3:15:00 AM 12.81 55.058 0.038 7.11 1.16 9.89
6/6/2022 3:30:00 AM 12.74 54.932 0.038 7.14 1.16 9.92
6/6/2022 3:45:00 AM 12.67 54.806 0.038 7.13 1.21 9.93
6/6/2022 4:00:00 AM 12.6 54.68 0.038 7.14 1.2 9.95
6/6/2022 4:15:00 AM 12.53 54.554 0.038 7.12 1.26 9.97
6/6/2022 4:30:00 AM 12.46 54.428 0.038 7.11 1.12 9.98
6/6/2022 4:45:00 AM 12.38 54.284 0.038 7.13 1.23 10.01
6/6/2022 5:00:00 AM 12.32 54.176 0.038 7.12 1.29 10.03
6/6/2022 5:15:00 AM 12.25 54.05 0.038 7.09 6.02 10.02
6/6/2022 5:30:00 AM 12.19 53.942 0.038 7.13 1.69 10.05
6/6/2022 5:45:00 AM 12.12 53.816 0.038 7.13 1.56 10.08
6/6/2022 6:00:00 AM 12.06 53.708 0.038 7.12 1.22 10.1
6/6/2022 6:15:00 AM 12.01 53.618 0.038 7.13 1.22 10.14
6/6/2022 6:30:00 AM 11.95 53.51 0.038 7.12 1.24 10.17
6/6/2022 6:45:00 AM 11.9 53.42 0.038 7.15 2.26 10.19
6/6/2022 7:00:00 AM 11.85 53.33 0.038 7.15 1.86 10.23
6/6/2022 7:15:00 AM 11.83 53.294 0.038 7.16 1.13 10.26
6/6/2022 7:30:00 AM 11.81 53.258 0.038 7.16 1.36 10.29
6/6/2022 7:45:00 AM 11.8 53.24 0.038 7.16 1.32 10.31
6/6/2022 8:00:00 AM 11.81 53.258 0.038 7.17 1.18 10.34
6/6/2022 8:15:00 AM 11.83 53.294 0.038 7.18 1.15 10.35
6/6/2022 8:30:00 AM 11.87 53.366 0.038 7.18 1.14 10.36
6/6/2022 8:45:00 AM 11.91 53.438 0.038 7.19 1.27 10.37
6/6/2022 9:00:00 AM 11.98 53.564 0.038 7.2 1.17 10.39
6/6/2022 9:15:00 AM 12.06 53.708 0.037 7.21 1.16 10.39
6/6/2022 9:30:00 AM 12.16 53.888 0.037 7.24 1.15 10.41
6/6/2022 9:45:00 AM 12.3 54.14 0.037 7.24 1.16 10.42
6/6/2022 10:00:00 AM 12.46 54.428 0.037 7.26 1.2 10.44
6/6/2022 10:15:00 AM 12.6 54.68 0.037 7.26 1.2 10.42
6/6/2022 10:30:00 AM 12.74 54.932 0.037 7.27 1.18 10.39
6/6/2022 10:45:00 AM 12.88 55.184 0.037 7.27 1.11 10.36
6/6/2022 11:00:00 AM 13.03 55.454 0.037 7.26 1.17 10.32
6/6/2022 11:15:00 AM 13.21 55.778 0.037 7.27 1.2 10.3
6/6/2022 11:30:00 AM 13.39 56.102 0.037 7.28 1.19 10.27
6/6/2022 11:45:00 AM 13.64 56.552 0.037 7.29 1.23 10.25
6/6/2022 12:00:00 PM 13.92 57.056 0.037 7.31 1.21 10.23
6/6/2022 12:15:00 PM 14.1 57.38 0.037 7.34 1.16 10.19
6/6/2022 12:30:00 PM 14.29 57.722 0.037 7.33 1.12 10.14
6/6/2022 12:45:00 PM 14.54 58.172 0.037 7.33 1.15 10.11
6/6/2022 1:00:00 PM 14.89 58.802 0.037 7.32 1.09 10.05
6/6/2022 1:15:00 PM 15.16 59.288 0.038 7.33 1.23 9.99
6/6/2022 1:30:00 PM 15.41 59.738 0.037 7.29 1.2 9.95
6/6/2022 1:45:00 PM 15.57 60.026 0.037 7.34 1.15 9.92
6/6/2022 2:00:00 PM 15.86 60.548 0.038 7.32 1.13 9.87
6/6/2022 2:15:00 PM 15.88 60.584 0.038 7.33 1.11 9.8
6/6/2022 2:30:00 PM 15.85 60.53 0.038 7.32 1.1 9.75
6/6/2022 2:45:00 PM 16.05 60.89 0.038 7.34 1.17 9.76
6/6/2022 3:00:00 PM 16.19 61.142 0.038 7.33 1.06 9.74
6/6/2022 3:15:00 PM 16.19 61.142 0.039 7.34 1.2 9.7
6/6/2022 3:30:00 PM 16.14 61.052 0.038 7.32 1.13 9.68
6/6/2022 3:45:00 PM 16.15 61.07 0.038 7.32 1.17 9.68
6/6/2022 4:00:00 PM 16.18 61.124 0.038 7.35 1.27 9.67
6/6/2022 4:15:00 PM 16.23 61.214 0.038 7.31 1.13 9.66
6/6/2022 4:30:00 PM 16.25 61.25 0.039 7.33 1.06 9.66
6/6/2022 4:45:00 PM 16.28 61.304 0.038 7.33 1.09 9.64
6/6/2022 5:00:00 PM 16.29 61.322 0.039 7.31 1.13 9.61
6/6/2022 5:15:00 PM 16.22 61.196 0.038 7.3 1.28 9.59
6/6/2022 5:30:00 PM 16.2 61.16 0.038 7.3 1.13 9.56
6/6/2022 5:45:00 PM 16.13 61.034 0.038 7.29 1.16 9.52
6/6/2022 6:00:00 PM 16.09 60.962 0.038 7.29 1.17 9.48
6/6/2022 6:15:00 PM 16.04 60.872 0.038 7.28 1.12 9.48
6/6/2022 6:30:00 PM 16.01 60.818 0.038 7.28 1.18 9.46
6/6/2022 6:45:00 PM 16 60.8 0.038 7.27 1.16 9.46
6/6/2022 7:00:00 PM 15.98 60.764 0.039 7.26 1.13 9.45
6/6/2022 7:15:00 PM 15.95 60.71 0.039 7.26 1.1 9.41
6/6/2022 7:30:00 PM 15.91 60.638 0.039 7.23 1.13 9.36
6/6/2022 7:45:00 PM 15.88 60.584 0.039 7.22 1.18 9.33
6/6/2022 8:00:00 PM 15.85 60.53 0.039 7.22 1.17 9.31
6/6/2022 8:15:00 PM 15.82 60.476 0.039 7.22 1.1 9.3
6/6/2022 8:30:00 PM 15.79 60.422 0.039 7.22 1.17 9.28
6/6/2022 8:45:00 PM 15.75 60.35 0.039 7.2 1.17 9.26
6/6/2022 9:00:00 PM 15.7 60.26 0.039 7.18 1.18 9.25
6/6/2022 9:15:00 PM 15.66 60.188 0.039 7.18 1.34 9.25
6/6/2022 9:30:00 PM 15.62 60.116 0.04 7.21 1.15 9.24
6/6/2022 9:45:00 PM 15.57 60.026 0.039 7.18 1.34 9.24
6/6/2022 10:00:00 PM 15.54 59.972 0.039 7.2 1.21 9.26
6/6/2022 10:15:00 PM 15.5 59.9 0.039 7.16 1.48 9.26
6/6/2022 10:30:00 PM 15.46 59.828 0.039 7.19 1.24 9.27
6/6/2022 10:45:00 PM 15.43 59.774 0.039 7.18 1.08 9.25
6/6/2022 11:00:00 PM 15.4 59.72 0.04 7.18 1.21 9.28
6/6/2022 11:15:00 PM 15.37 59.666 0.039 7.19 1.14 9.28
6/6/2022 11:30:00 PM 15.34 59.612 0.039 7.16 1.11 9.28
6/6/2022 11:45:00 PM 15.31 59.558 0.039 7.18 1.17 9.29
6/7/2022 12:00:00 AM 15.28 59.504 0.039 7.2 1.21 9.3
6/7/2022 12:15:00 AM 15.26 59.468 0.039 7.18 1.29 9.31
6/7/2022 12:30:00 AM 15.22 59.396 0.039 7.18 1.21 9.3
6/7/2022 12:45:00 AM 15.19 59.342 0.039 7.16 1.29 9.3
6/7/2022 1:00:00 AM 15.16 59.288 0.039 7.16 1.13 9.31
6/7/2022 1:15:00 AM 15.13 59.234 0.039 7.17 1.16 9.32
6/7/2022 1:30:00 AM 15.11 59.198 0.039 7.15 1.23 9.33
6/7/2022 1:45:00 AM 15.09 59.162 0.039 7.15 1.18 9.34
6/7/2022 2:00:00 AM 15.07 59.126 0.039 7.17 1.2 9.36
6/7/2022 2:15:00 AM 15.05 59.09 0.039 7.16 1.09 9.33
6/7/2022 2:30:00 AM 15.02 59.036 0.039 7.17 1.11 9.34
6/7/2022 2:45:00 AM 15 59 0.039 7.19 1.11 9.35
6/7/2022 3:00:00 AM 14.98 58.964 0.039 7.17 1.15 9.36
6/7/2022 3:15:00 AM 14.95 58.91 0.039 7.17 1.21 9.36
6/7/2022 3:30:00 AM 14.92 58.856 0.039 7.18 1.28 9.38
6/7/2022 3:45:00 AM 14.89 58.802 0.039 7.17 1.25 9.37
6/7/2022 4:00:00 AM 14.87 58.766 0.039 7.17 1.2 9.39
6/7/2022 4:15:00 AM 14.85 58.73 0.039 7.18 1.19 9.4
6/7/2022 4:30:00 AM 14.82 58.676 0.039 7.18 1.2 9.4
6/7/2022 4:45:00 AM 14.8 58.64 0.039 7.17 1.15 9.42
6/7/2022 5:00:00 AM 14.78 58.604 0.039 7.18 1.22 9.41
6/7/2022 5:15:00 AM 14.76 58.568 0.039 7.17 1.27 9.39
6/7/2022 5:30:00 AM 14.74 58.532 0.039 7.17 1.27 9.41
6/7/2022 5:45:00 AM 14.72 58.496 0.039 7.19 1.25 9.43
6/7/2022 6:00:00 AM 14.7 58.46 0.039 7.18 1.28 9.42
6/7/2022 6:15:00 AM 14.68 58.424 0.039 7.16 1.22 9.43
6/7/2022 6:30:00 AM 14.67 58.406 0.039 7.18 1.32 9.47
6/7/2022 6:45:00 AM 14.65 58.37 0.039 7.18 1.19 9.5
6/7/2022 7:00:00 AM 14.65 58.37 0.039 7.19 1.11 9.52
6/7/2022 7:15:00 AM 14.65 58.37 0.039 7.19 1.23 9.55
6/7/2022 7:30:00 AM 14.65 58.37 0.039 7.2 1.16 9.55
6/7/2022 7:45:00 AM 14.65 58.37 0.039 7.2 1.18 9.57
6/7/2022 8:00:00 AM 14.65 58.37 0.039 7.21 1.11 9.56
6/7/2022 8:15:00 AM 14.65 58.37 0.039 7.22 1.15 9.57
6/7/2022 8:30:00 AM 14.65 58.37 0.039 7.21 1.27 9.57
6/7/2022 8:45:00 AM 14.65 58.37 0.039 7.21 1.2 9.58
6/7/2022 9:00:00 AM 14.65 58.37 0.039 7.21 1.1 9.6
6/7/2022 9:15:00 AM 14.64 58.352 0.039 7.21 1.36 9.6
6/7/2022 9:30:00 AM 14.63 58.334 0.039 7.21 1.35 9.59
6/7/2022 9:45:00 AM 14.63 58.334 0.039 7.23 1.19 9.63
6/7/2022 10:00:00 AM 14.65 58.37 0.039 7.24 1.19 9.68
6/7/2022 10:15:00 AM 14.68 58.424 0.039 7.24 1.31 9.71
6/7/2022 10:30:00 AM 14.71 58.478 0.039 7.25 1.25 9.74
6/7/2022 10:45:00 AM 14.72 58.496 0.039 7.27 1.31 9.71
6/7/2022 11:00:00 AM 14.71 58.478 0.039 7.27 1.36 9.68
6/7/2022 11:15:00 AM 14.7 58.46 0.038 7.23 1.8 9.64
6/7/2022 11:30:00 AM 14.69 58.442 0.038 7.24 3.21 9.61
6/7/2022 11:45:00 AM 14.67 58.406 0.038 7.23 2.2 9.57
6/7/2022 12:00:00 PM 14.64 58.352 0.037 7.28 2.1 9.56
6/7/2022 12:15:00 PM 14.62 58.316 0.038 7.22 1.88 9.57
6/7/2022 12:30:00 PM 14.6 58.28 0.038 7.21 2.17 9.59
6/7/2022 12:45:00 PM 14.6 58.28 0.038 7.22 2.22 9.6
6/7/2022 1:00:00 PM 14.6 58.28 0.038 7.25 3.12 9.62
6/7/2022 1:15:00 PM 14.61 58.298 0.039 7.25 2.36 9.64
6/7/2022 1:30:00 PM 14.61 58.298 0.038 7.23 2.31 9.65
6/7/2022 1:45:00 PM 14.61 58.298 0.038 7.25 2.76 9.64
6/7/2022 2:00:00 PM 14.61 58.298 0.038 7.22 4.11 9.64
6/7/2022 2:15:00 PM 14.61 58.298 0.038 7.25 4.99 9.64
6/7/2022 2:30:00 PM 14.61 58.298 0.039 7.28 6.67 9.64
6/7/2022 2:45:00 PM 14.61 58.298 0.039 7.33 8.11 9.64
6/7/2022 3:00:00 PM 14.62 58.316 0.039 7.26 8.65 9.65
6/7/2022 3:15:00 PM 14.63 58.334 0.039 7.28 6.76 9.65
6/7/2022 3:30:00 PM 14.62 58.316 0.038 7.28 5.89 9.62
6/7/2022 3:45:00 PM 14.62 58.316 0.038 7.27 5.23 9.62
6/7/2022 4:00:00 PM 14.62 58.316 0.038 7.3 5.29 9.62
6/7/2022 4:15:00 PM 14.62 58.316 0.039 7.3 6.1 9.62
6/7/2022 4:30:00 PM 14.62 58.316 0.039 7.28 7.21 9.63
6/7/2022 4:45:00 PM 14.63 58.334 0.039 7.27 8.31 9.64
6/7/2022 5:00:00 PM 14.65 58.37 0.039 7.32 10.07 9.66
6/7/2022 5:15:00 PM 14.66 58.388 0.039 7.29 8.92 9.66
6/7/2022 5:30:00 PM 14.66 58.388 0.039 7.32 8.26 9.65
6/7/2022 5:45:00 PM 14.64 58.352 0.039 7.29 6.68 9.62
6/7/2022 6:00:00 PM 14.62 58.316 0.039 7.2 5.67 9.6
6/7/2022 6:15:00 PM 14.6 58.28 0.038 7.25 4.81 9.61
6/7/2022 6:30:00 PM 14.6 58.28 0.038 7.21 4.41 9.61
6/7/2022 6:45:00 PM 14.59 58.262 0.038 7.23 4.07 9.61
6/7/2022 7:00:00 PM 14.59 58.262 0.038 7.26 3.89 9.6
6/7/2022 7:15:00 PM 14.58 58.244 0.038 7.25 3.36 9.59
6/7/2022 7:30:00 PM 14.58 58.244 0.038 7.24 3.1 9.61
6/7/2022 7:45:00 PM 14.59 58.262 0.038 7.2 2.87 9.63
6/7/2022 8:00:00 PM 14.58 58.244 0.037 7.17 2.9 9.62
6/7/2022 8:15:00 PM 14.57 58.226 0.037 7.23 2.87 9.6
6/7/2022 8:30:00 PM 14.55 58.19 0.037 7.14 2.85 9.58
6/7/2022 8:45:00 PM 14.54 58.172 0.037 7.2 3.08 9.57
6/7/2022 9:00:00 PM 14.53 58.154 0.037 7.11 3.01 9.55
6/7/2022 9:15:00 PM 14.51 58.118 0.037 7.12 3.14 9.55
6/7/2022 9:30:00 PM 14.5 58.1 0.037 7.1 3.06 9.55
6/7/2022 9:45:00 PM 14.49 58.082 0.038 7.1 2.99 9.55
6/7/2022 10:00:00 PM 14.48 58.064 0.037 7.09 3.02 9.55
6/7/2022 10:15:00 PM 14.47 58.046 0.037 7.09 3.11 9.57
6/7/2022 10:30:00 PM 14.45 58.01 0.038 7.08 3.19 9.57
6/7/2022 10:45:00 PM 14.44 57.992 0.038 7.08 3.17 9.57
6/7/2022 11:00:00 PM 14.43 57.974 0.038 7.07 2.92 9.57
6/7/2022 11:15:00 PM 14.42 57.956 0.038 7.09 2.97 9.57
6/7/2022 11:30:00 PM 14.41 57.938 0.038 7.06 3.03 9.58
6/7/2022 11:45:00 PM 14.4 57.92 0.038 7.06 2.91 9.58
6/8/2022 12:00:00 AM 14.39 57.902 0.038 7.07 2.71 9.59
6/8/2022 12:15:00 AM 14.38 57.884 0.038 7.08 2.59 9.6
6/8/2022 12:30:00 AM 14.36 57.848 0.038 7.08 2.87 9.59
6/8/2022 12:45:00 AM 14.35 57.83 0.038 7.09 2.38 9.6
6/8/2022 1:00:00 AM 14.32 57.776 0.038 7.09 2.28 9.61
6/8/2022 1:15:00 AM 14.31 57.758 0.038 7.1 2.33 9.61
6/8/2022 1:30:00 AM 14.29 57.722 0.038 7.11 2.27 9.62
6/8/2022 1:45:00 AM 14.26 57.668 0.037 7.13 2.04 9.63
6/8/2022 2:00:00 AM 14.23 57.614 0.037 7.15 2.04 9.63
6/8/2022 2:15:00 AM 14.2 57.56 0.037 7.16 1.94 9.64
6/8/2022 2:30:00 AM 14.16 57.488 0.037 7.18 1.9 9.66
6/8/2022 2:45:00 AM 14.13 57.434 0.037 7.19 1.82 9.66
6/8/2022 3:00:00 AM 14.09 57.362 0.037 7.17 1.98 9.67
6/8/2022 3:15:00 AM 14.05 57.29 0.037 7.18 2.03 9.68
6/8/2022 3:30:00 AM 14.02 57.236 0.037 7.21 1.8 9.69
6/8/2022 3:45:00 AM 13.99 57.182 0.037 7.18 1.98 9.7
6/8/2022 4:00:00 AM 13.96 57.128 0.037 7.18 1.76 9.7
6/8/2022 4:15:00 AM 13.93 57.074 0.037 7.18 1.84 9.7
6/8/2022 4:30:00 AM 13.9 57.02 0.037 7.18 1.82 9.72
6/8/2022 4:45:00 AM 13.87 56.966 0.037 7.18 1.92 9.72
6/8/2022 5:00:00 AM 13.84 56.912 0.037 7.19 1.77 9.74
6/8/2022 5:15:00 AM 13.81 56.858 0.037 7.18 1.81 9.75
6/8/2022 5:30:00 AM 13.78 56.804 0.037 7.19 1.69 9.75
6/8/2022 5:45:00 AM 13.76 56.768 0.037 7.18 1.68 9.76
6/8/2022 6:00:00 AM 13.73 56.714 0.037 7.19 1.65 9.78
6/8/2022 6:15:00 AM 13.7 56.66 0.037 7.18 1.63 9.79
6/8/2022 6:30:00 AM 13.68 56.624 0.037 7.2 1.61 9.81
6/8/2022 6:45:00 AM 13.66 56.588 0.037 7.19 2.25 9.83
6/8/2022 7:00:00 AM 13.64 56.552 0.036 7.21 1.83 9.86
6/8/2022 7:15:00 AM 13.64 56.552 0.036 7.31 1.66 9.9
6/8/2022 7:30:00 AM 13.63 56.534 0.036 7.3 1.62 9.93
6/8/2022 7:45:00 AM 13.62 56.516 0.036 7.21 1.59 9.95
6/8/2022 8:00:00 AM 13.61 56.498 0.036 7.24 1.7 9.96
6/8/2022 8:15:00 AM 13.62 56.516 0.036 7.23 1.49 9.96
6/8/2022 8:30:00 AM 13.66 56.588 0.036 7.27 1.69 9.98
6/8/2022 8:45:00 AM 13.7 56.66 0.036 7.27 1.67 10.01
6/8/2022 9:00:00 AM 13.74 56.732 0.036 7.32 1.53 10.02
6/8/2022 9:15:00 AM 13.78 56.804 0.036 7.35 1.46 10.04
6/8/2022 9:30:00 AM 13.86 56.948 0.036 7.39 1.54 10.04
6/8/2022 9:45:00 AM 13.94 57.092 0.036 7.4 2.71 10.05
6/8/2022 10:00:00 AM 14.03 57.254 0.036 7.39 1.56 10.03
6/8/2022 10:15:00 AM 14.13 57.434 0.036 7.39 1.54 10.05
6/8/2022 10:30:00 AM 14.23 57.614 0.036 7.4 1.44 10.04
6/8/2022 10:45:00 AM 14.35 57.83 0.036 7.4 1.59 10.05
6/8/2022 11:00:00 AM 14.4 57.92 0.036 7.37 1.5 10.02
6/8/2022 11:15:00 AM 14.48 58.064 0.036 7.34 1.5 10.02
6/8/2022 11:30:00 AM 14.57 58.226 0.036 7.34 1.46 10.02
6/8/2022 11:45:00 AM 14.66 58.388 0.036 7.35 1.54 10
6/8/2022 12:00:00 PM 14.74 58.532 0.036 7.4 1.42 9.99
6/8/2022 12:15:00 PM 14.98 58.964 0.036 7.36 1.55 9.96
6/8/2022 12:30:00 PM 15.07 59.126 0.037 7.35 1.41 9.94
6/8/2022 12:45:00 PM 15.35 59.63 0.037 7.33 1.44 9.91
6/8/2022 1:00:00 PM 15.62 60.116 0.037 7.35 1.51 9.87
6/8/2022 1:15:00 PM 15.74 60.332 0.037 7.35 1.43 9.84
6/8/2022 1:30:00 PM 15.91 60.638 0.037 7.37 1.42 9.79
6/8/2022 1:45:00 PM 16.15 61.07 0.037 7.39 1.38 9.77
6/8/2022 2:00:00 PM 16.26 61.268 0.037 7.37 1.37 9.73
6/8/2022 2:15:00 PM 16.5 61.7 0.038 7.37 1.36 9.69
6/8/2022 2:30:00 PM 16.74 62.132 0.038 7.38 1.35 9.65
6/8/2022 2:45:00 PM 16.91 62.438 0.039 7.36 1.39 9.6
6/8/2022 3:00:00 PM 17.02 62.636 0.039 7.38 1.37 9.56
6/8/2022 3:15:00 PM 17.07 62.726 0.039 7.4 1.37 9.53
6/8/2022 3:30:00 PM 17.03 62.654 0.039 7.38 1.38 9.5
6/8/2022 3:45:00 PM 16.97 62.546 0.039 7.45 1.32 9.46
6/8/2022 4:00:00 PM 16.92 62.456 0.038 7.42 1.35 9.44
6/8/2022 4:15:00 PM 16.87 62.366 0.038 7.41 1.28 9.42
6/8/2022 4:30:00 PM 16.8 62.24 0.038 7.39 1.46 9.41
6/8/2022 4:45:00 PM 16.72 62.096 0.038 7.38 1.38 9.41
6/8/2022 5:00:00 PM 16.67 62.006 0.038 7.38 1.38 9.42
6/8/2022 5:15:00 PM 16.57 61.826 0.038 7.37 1.4 9.39
6/8/2022 5:30:00 PM 16.5 61.7 0.038 7.35 1.44 9.36
6/8/2022 5:45:00 PM 16.45 61.61 0.038 7.34 1.38 9.35
6/8/2022 6:00:00 PM 16.42 61.556 0.038 7.32 1.32 9.35
6/8/2022 6:15:00 PM 16.39 61.502 0.038 7.33 1.62 9.36
6/8/2022 6:30:00 PM 16.32 61.376 0.039 7.32 1.36 9.35
6/8/2022 6:45:00 PM 16.28 61.304 0.038 7.31 1.32 9.33
6/8/2022 7:00:00 PM 16.23 61.214 0.038 7.3 1.31 9.31
6/8/2022 7:15:00 PM 16.19 61.142 0.038 7.29 1.49 9.33
6/8/2022 7:30:00 PM 16.15 61.07 0.038 7.29 1.38 9.32
6/8/2022 7:45:00 PM 16.1 60.98 0.038 7.27 1.31 9.3
6/8/2022 8:00:00 PM 16.05 60.89 0.038 7.26 1.46 9.28
6/8/2022 8:15:00 PM 16 60.8 0.038 7.25 1.65 9.25
6/8/2022 8:30:00 PM 15.95 60.71 0.039 7.23 1.47 9.24
6/8/2022 8:45:00 PM 15.89 60.602 0.039 7.22 1.62 9.22
6/8/2022 9:00:00 PM 15.83 60.494 0.039 7.21 1.33 9.23
6/8/2022 9:15:00 PM 15.77 60.386 0.038 7.21 1.34 9.21
6/8/2022 9:30:00 PM 15.71 60.278 0.039 7.21 1.29 9.22
6/8/2022 9:45:00 PM 15.65 60.17 0.039 7.21 1.89 9.23
6/8/2022 10:00:00 PM 15.59 60.062 0.039 7.21 1.53 9.23
6/8/2022 10:15:00 PM 15.54 59.972 0.039 7.2 1.49 9.24
6/8/2022 10:30:00 PM 15.49 59.882 0.039 7.2 1.43 9.25
6/8/2022 10:45:00 PM 15.45 59.81 0.039 7.19 1.53 9.25
6/8/2022 11:00:00 PM 15.4 59.72 0.039 7.19 1.48 9.26
6/8/2022 11:15:00 PM 15.36 59.648 0.039 7.19 1.36 9.27
6/8/2022 11:30:00 PM 15.31 59.558 0.039 7.2 1.35 9.28
6/8/2022 11:45:00 PM 15.27 59.486 0.039 7.19 1.35 9.28
6/9/2022 12:00:00 AM 15.23 59.414 0.038 7.18 1.44 9.28
6/9/2022 12:15:00 AM 15.2 59.36 0.038 7.18 1.51 9.3
6/9/2022 12:30:00 AM 15.17 59.306 0.038 7.19 1.64 9.29
6/9/2022 12:45:00 AM 15.13 59.234 0.038 7.18 1.55 9.26
6/9/2022 1:00:00 AM 15.1 59.18 0.038 7.17 1.62 9.26
6/9/2022 1:15:00 AM 15.06 59.108 0.038 7.18 1.61 9.28
6/9/2022 1:30:00 AM 15.03 59.054 0.038 7.19 1.64 9.27
6/9/2022 1:45:00 AM 14.99 58.982 0.039 7.19 1.68 9.28
6/9/2022 2:00:00 AM 14.96 58.928 0.038 7.19 1.98 9.27
6/9/2022 2:15:00 AM 14.92 58.856 0.038 7.18 1.72 9.28
6/9/2022 2:30:00 AM 14.89 58.802 0.039 7.16 1.83 9.3
6/9/2022 2:45:00 AM 14.86 58.748 0.039 7.16 1.8 9.31
6/9/2022 3:00:00 AM 14.84 58.712 0.038 7.14 1.75 9.33
6/9/2022 3:15:00 AM 14.81 58.658 0.038 7.15 3.1 9.34
6/9/2022 3:30:00 AM 14.79 58.622 0.038 7.17 2.25 9.37
6/9/2022 3:45:00 AM 14.76 58.568 0.038 7.18 2.57 9.38
6/9/2022 4:00:00 AM 14.74 58.532 0.038 7.19 2.57 9.39
6/9/2022 4:15:00 AM 14.72 58.496 0.038 7.18 2.42 9.4
6/9/2022 4:30:00 AM 14.7 58.46 0.038 7.19 2.59 9.4
6/9/2022 4:45:00 AM 14.68 58.424 0.038 7.16 2.75 9.4
6/9/2022 5:00:00 AM 14.66 58.388 0.038 7.18 2.68 9.42
6/9/2022 5:15:00 AM 14.63 58.334 0.038 7.17 2.56 9.43
6/9/2022 5:30:00 AM 14.62 58.316 0.038 7.21 2.4 9.42
6/9/2022 5:45:00 AM 14.6 58.28 0.038 7.2 2.62 9.44
6/9/2022 6:00:00 AM 14.58 58.244 0.038 7.17 2.69 9.45
6/9/2022 6:15:00 AM 14.57 58.226 0.038 7.23 2.85 9.46
6/9/2022 6:30:00 AM 14.56 58.208 0.038 7.23 2.93 9.49
6/9/2022 6:45:00 AM 14.55 58.19 0.038 7.21 2.89 9.49
6/9/2022 7:00:00 AM 14.54 58.172 0.038 7.18 2.94 9.51
6/9/2022 7:15:00 AM 14.53 58.154 0.038 7.23 3.23 9.53
6/9/2022 7:30:00 AM 14.53 58.154 0.038 7.21 2.97 9.57
6/9/2022 7:45:00 AM 14.52 58.136 0.037 7.19 2.78 9.59
6/9/2022 8:00:00 AM 14.52 58.136 0.037 7.23 2.8 9.59
6/9/2022 8:15:00 AM 14.51 58.118 0.037 7.23 2.9 9.6
6/9/2022 8:30:00 AM 14.51 58.118 0.037 7.24 2.48 9.62
6/9/2022 8:45:00 AM 14.52 58.136 0.037 7.21 2.2 9.66
6/9/2022 9:00:00 AM 14.55 58.19 0.037 7.22 2.17 9.71
6/9/2022 9:15:00 AM 14.57 58.226 0.037 7.23 2.32 9.73
6/9/2022 9:30:00 AM 14.6 58.28 0.037 7.25 2.02 9.75
6/9/2022 9:45:00 AM 14.66 58.388 0.037 7.27 1.93 9.77
6/9/2022 10:00:00 AM 14.73 58.514 0.036 7.27 1.91 9.79
6/9/2022 10:15:00 AM 14.78 58.604 0.036 7.28 1.8 9.78
6/9/2022 10:30:00 AM 14.82 58.676 0.036 7.28 1.87 9.78
6/9/2022 10:45:00 AM 14.85 58.73 0.036 7.29 2.09 9.77
6/9/2022 11:00:00 AM 14.88 58.784 0.036 7.29 1.98 9.78
6/9/2022 11:15:00 AM 14.89 58.802 0.036 7.3 1.99 9.78
6/9/2022 11:30:00 AM 14.93 58.874 0.036 7.31 1.95 9.81
6/9/2022 11:45:00 AM 14.95 58.91 0.036 7.31 1.85 9.8
6/9/2022 12:00:00 PM 15.03 59.054 0.036 7.32 1.9 9.82
6/9/2022 12:15:00 PM 15.02 59.036 0.036 7.32 1.87 9.77
6/9/2022 12:30:00 PM 15.01 59.018 0.036 7.31 2.01 9.77
6/9/2022 12:45:00 PM 15.07 59.126 0.036 7.31 1.89 9.76
6/9/2022 1:00:00 PM 14.99 58.982 0.036 7.3 2.08 9.73
6/9/2022 1:15:00 PM 14.96 58.928 0.036 7.28 2.1 9.71
6/9/2022 1:30:00 PM 14.96 58.928 0.036 7.28 1.84 9.73
6/9/2022 1:45:00 PM 15.01 59.018 0.036 7.29 1.81 9.76
6/9/2022 2:00:00 PM 15.06 59.108 0.036 7.3 1.8 9.79
6/9/2022 2:15:00 PM 15.09 59.162 0.036 7.3 1.83 9.79
6/9/2022 2:30:00 PM 15.1 59.18 0.036 7.31 1.75 9.76
6/9/2022 2:45:00 PM 15.07 59.126 0.036 7.3 2.08 9.74
6/9/2022 3:00:00 PM 15.1 59.18 0.036 7.31 1.66 9.75
6/9/2022 3:15:00 PM 15.08 59.144 0.036 7.31 1.7 9.75
6/9/2022 3:30:00 PM 15.06 59.108 0.036 7.31 1.59 9.74
6/9/2022 3:45:00 PM 15.05 59.09 0.036 7.3 1.52 9.74
6/9/2022 4:00:00 PM 15.09 59.162 0.036 7.31 1.81 9.77
6/9/2022 4:15:00 PM 15.08 59.144 0.036 7.32 1.75 9.75
6/9/2022 4:30:00 PM 15.05 59.09 0.036 7.3 1.61 9.71
6/9/2022 4:45:00 PM 15.03 59.054 0.036 7.29 1.66 9.71
6/9/2022 5:00:00 PM 15.05 59.09 0.036 7.29 1.6 9.73
6/9/2022 5:15:00 PM 15.06 59.108 0.036 7.3 1.6 9.75
6/9/2022 5:30:00 PM 15.1 59.18 0.036 7.33 1.63 9.75
6/9/2022 5:45:00 PM 15.1 59.18 0.036 7.3 1.56 9.72
6/9/2022 6:00:00 PM 15.13 59.234 0.036 7.31 1.55 9.72
6/9/2022 6:15:00 PM 15.13 59.234 0.036 7.29 1.51 9.67
6/9/2022 6:30:00 PM 15.1 59.18 0.036 7.28 1.57 9.65
6/9/2022 6:45:00 PM 15.05 59.09 0.036 7.28 2.16 9.62
6/9/2022 7:00:00 PM 15.01 59.018 0.036 7.26 1.47 9.6
6/9/2022 7:15:00 PM 14.95 58.91 0.036 7.25 1.55 9.61
6/9/2022 7:30:00 PM 14.91 58.838 0.036 7.25 1.51 9.6
6/9/2022 7:45:00 PM 14.88 58.784 0.037 7.24 1.46 9.59
6/9/2022 8:00:00 PM 14.85 58.73 0.037 7.24 1.48 9.58
6/9/2022 8:15:00 PM 14.81 58.658 0.037 7.22 1.47 9.56
6/9/2022 8:30:00 PM 14.76 58.568 0.037 7.21 1.49 9.54
6/9/2022 8:45:00 PM 14.71 58.478 0.037 7.22 1.5 9.55
6/9/2022 9:00:00 PM 14.65 58.37 0.037 7.2 1.59 9.54
6/9/2022 9:15:00 PM 14.59 58.262 0.037 7.19 1.65 9.52
6/9/2022 9:30:00 PM 14.53 58.154 0.037 7.2 1.56 9.55
6/9/2022 9:45:00 PM 14.47 58.046 0.037 7.18 1.54 9.53
6/9/2022 10:00:00 PM 14.4 57.92 0.037 7.19 1.56 9.57
6/9/2022 10:15:00 PM 14.34 57.812 0.037 7.19 1.46 9.58
6/9/2022 10:30:00 PM 14.28 57.704 0.037 7.21 1.78 9.6
6/9/2022 10:45:00 PM 14.22 57.596 0.037 7.2 1.51 9.62
6/9/2022 11:00:00 PM 14.15 57.47 0.037 7.19 1.57 9.61
6/9/2022 11:15:00 PM 14.09 57.362 0.037 7.19 1.43 9.65
6/9/2022 11:30:00 PM 14.03 57.254 0.037 7.18 1.48 9.65
6/9/2022 11:45:00 PM 13.97 57.146 0.037 7.18 1.49 9.66
6/10/2022 12:00:00 AM 13.91 57.038 0.037 7.18 1.45 9.68
6/10/2022 12:15:00 AM 13.85 56.93 0.037 7.19 1.54 9.7
6/10/2022 12:30:00 AM 13.78 56.804 0.037 7.17 1.52 9.71
6/10/2022 12:45:00 AM 13.73 56.714 0.037 7.17 1.55 9.72
6/10/2022 1:00:00 AM 13.68 56.624 0.037 7.16 1.46 9.72
6/10/2022 1:15:00 AM 13.62 56.516 0.037 7.19 1.45 9.76
6/10/2022 1:30:00 AM 13.58 56.444 0.037 7.19 1.52 9.76
6/10/2022 1:45:00 AM 13.54 56.372 0.037 7.16 1.53 9.75
6/10/2022 2:00:00 AM 13.5 56.3 0.037 7.18 1.49 9.78
6/10/2022 2:15:00 AM 13.46 56.228 0.037 7.16 1.48 9.78
6/10/2022 2:30:00 AM 13.41 56.138 0.037 7.17 1.54 9.8
6/10/2022 2:45:00 AM 13.35 56.03 0.038 7.17 1.62 9.81
6/10/2022 3:00:00 AM 13.3 55.94 0.038 7.17 1.44 9.81
6/10/2022 3:15:00 AM 13.26 55.868 0.038 7.16 1.48 9.82
6/10/2022 3:30:00 AM 13.22 55.796 0.038 7.16 1.45 9.84
6/10/2022 3:45:00 AM 13.18 55.724 0.037 7.16 1.45 9.85
6/10/2022 4:00:00 AM 13.14 55.652 0.037 7.17 1.46 9.85
6/10/2022 4:15:00 AM 13.1 55.58 0.037 7.17 1.53 9.87
6/10/2022 4:30:00 AM 13.06 55.508 0.038 7.17 1.49 9.87
6/10/2022 4:45:00 AM 13 55.4 0.038 7.17 1.58 9.89
6/10/2022 5:00:00 AM 12.95 55.31 0.038 7.17 1.44 9.9
6/10/2022 5:15:00 AM 12.9 55.22 0.038 7.16 1.48 9.91
6/10/2022 5:30:00 AM 12.84 55.112 0.038 7.15 1.48 9.92
6/10/2022 5:45:00 AM 12.78 55.004 0.038 7.15 1.51 9.94
6/10/2022 6:00:00 AM 12.73 54.914 0.038 7.17 1.48 9.96
6/10/2022 6:15:00 AM 12.69 54.842 0.039 7.16 1.35 9.98
6/10/2022 6:30:00 AM 12.66 54.788 0.039 7.21 1.46 10.02
6/10/2022 6:45:00 AM 12.63 54.734 0.039 7.16 1.41 10.05
6/10/2022 7:00:00 AM 12.6 54.68 0.038 7.16 1.48 10.07
6/10/2022 7:15:00 AM 12.59 54.662 0.038 7.18 1.46 10.1
6/10/2022 7:30:00 AM 12.59 54.662 0.038 7.2 1.42 10.15
6/10/2022 7:45:00 AM 12.59 54.662 0.039 7.2 1.51 10.16
6/10/2022 8:00:00 AM 12.6 54.68 0.039 7.21 1.41 10.19
6/10/2022 8:15:00 AM 12.6 54.68 0.038 7.22 1.43 10.18
6/10/2022 8:30:00 AM 12.6 54.68 0.038 7.24 1.4 10.18
6/10/2022 8:45:00 AM 12.62 54.716 0.038 7.23 1.36 10.17
6/10/2022 9:00:00 AM 12.66 54.788 0.038 7.23 1.4 10.18
6/10/2022 9:15:00 AM 12.72 54.896 0.038 7.24 1.45 10.17
6/10/2022 9:30:00 AM 12.8 55.04 0.038 7.23 1.38 10.18
6/10/2022 9:45:00 AM 12.92 55.256 0.038 7.25 1.34 10.18
6/10/2022 10:00:00 AM 13.07 55.526 0.038 7.26 1.31 10.19
6/10/2022 10:15:00 AM 13.21 55.778 0.038 7.3 1.27 10.19
6/10/2022 10:30:00 AM 13.34 56.012 0.038 7.32 1.28 10.18
6/10/2022 10:45:00 AM 13.41 56.138 0.038 7.35 1.33 10.16
6/10/2022 11:00:00 AM 13.54 56.372 0.038 7.3 1.34 10.15
6/10/2022 11:15:00 AM 13.66 56.588 0.038 7.3 1.37 10.13
6/10/2022 11:30:00 AM 13.78 56.804 0.038 7.32 1.31 10.1
6/10/2022 11:45:00 AM 13.91 57.038 0.039 7.31 1.25 10.08
6/10/2022 12:00:00 PM 14.11 57.398 0.038 7.33 1.4 10.08
6/10/2022 12:15:00 PM 14.35 57.83 0.038 7.33 1.27 10.04
6/10/2022 12:30:00 PM 14.56 58.208 0.038 7.34 1.26 10.01
6/10/2022 12:45:00 PM 14.84 58.712 0.038 7.34 1.28 9.97
6/10/2022 1:00:00 PM 15.03 59.054 0.038 7.34 1.23 9.94
6/10/2022 1:15:00 PM 15.03 59.054 0.038 7.35 1.37 9.9
6/10/2022 1:30:00 PM 15.18 59.324 0.038 7.35 1.32 9.9
6/10/2022 1:45:00 PM 15.18 59.324 0.038 7.34 1.3 9.87
6/10/2022 2:00:00 PM 15.25 59.45 0.038 7.34 1.65 9.88
6/10/2022 2:15:00 PM 15.46 59.828 0.039 7.35 1.47 9.86
6/10/2022 2:30:00 PM 15.56 60.008 0.038 7.35 1.35 9.81
6/10/2022 2:45:00 PM 15.66 60.188 0.038 7.35 1.31 9.79
6/10/2022 3:00:00 PM 15.85 60.53 0.039 7.34 1.27 9.8
6/10/2022 3:15:00 PM 15.92 60.656 0.039 7.34 1.31 9.75
6/10/2022 3:30:00 PM 15.92 60.656 0.039 7.35 1.49 9.73
6/10/2022 3:45:00 PM 15.88 60.584 0.038 7.35 1.26 9.7
6/10/2022 4:00:00 PM 15.83 60.494 0.038 7.35 1.28 9.67
6/10/2022 4:15:00 PM 15.82 60.476 0.038 7.33 1.34 9.66
6/10/2022 4:30:00 PM 15.86 60.548 0.038 7.33 1.3 9.65
6/10/2022 4:45:00 PM 15.83 60.494 0.039 7.34 1.2 9.65
6/10/2022 5:00:00 PM 15.83 60.494 0.039 7.34 1.31 9.65
6/10/2022 5:15:00 PM 15.81 60.458 0.038 7.32 1.21 9.63
6/10/2022 5:30:00 PM 15.74 60.332 0.038 7.32 1.26 9.59
6/10/2022 5:45:00 PM 15.71 60.278 0.038 7.3 1.32 9.57
6/10/2022 6:00:00 PM 15.67 60.206 0.038 7.28 1.33 9.53
6/10/2022 6:15:00 PM 15.63 60.134 0.038 7.29 1.39 9.54
6/10/2022 6:30:00 PM 15.59 60.062 0.038 7.28 1.31 9.52
6/10/2022 6:45:00 PM 15.57 60.026 0.039 7.27 1.3 9.52
6/10/2022 7:00:00 PM 15.54 59.972 0.038 7.25 1.28 9.51
6/10/2022 7:15:00 PM 15.5 59.9 0.039 7.26 1.3 9.49
6/10/2022 7:30:00 PM 15.47 59.846 0.038 7.24 1.34 9.47
6/10/2022 7:45:00 PM 15.42 59.756 0.038 7.24 1.38 9.47
6/10/2022 8:00:00 PM 15.36 59.648 0.038 7.22 1.27 9.45
6/10/2022 8:15:00 PM 15.3 59.54 0.038 7.22 1.36 9.46
6/10/2022 8:30:00 PM 15.24 59.432 0.038 7.21 1.45 9.43
6/10/2022 8:45:00 PM 15.17 59.306 0.038 7.2 1.25 9.42
6/10/2022 9:00:00 PM 15.09 59.162 0.039 7.19 1.33 9.41
6/10/2022 9:15:00 PM 15.02 59.036 0.038 7.19 1.31 9.4
6/10/2022 9:30:00 PM 14.93 58.874 0.038 7.2 1.37 9.42
6/10/2022 9:45:00 PM 14.86 58.748 0.038 7.19 1.32 9.42
6/10/2022 10:00:00 PM 14.77 58.586 0.038 7.18 1.34 9.44
6/10/2022 10:15:00 PM 14.68 58.424 0.038 7.19 1.39 9.48
6/10/2022 10:30:00 PM 14.6 58.28 0.038 7.17 1.39 9.48
6/10/2022 10:45:00 PM 14.52 58.136 0.038 7.17 1.49 9.49
6/10/2022 11:00:00 PM 14.43 57.974 0.039 7.17 1.4 9.52
6/10/2022 11:15:00 PM 14.34 57.812 0.038 7.16 1.48 9.55
6/10/2022 11:30:00 PM 14.25 57.65 0.038 7.17 1.36 9.55
6/10/2022 11:45:00 PM 14.17 57.506 0.038 7.18 1.29 9.58
6/11/2022 12:00:00 AM 14.09 57.362 0.038 7.16 1.43 9.61
6/11/2022 12:15:00 AM 14.01 57.218 0.038 7.17 1.33 9.61
6/11/2022 12:30:00 AM 13.94 57.092 0.038 7.16 1.28 9.64
6/11/2022 12:45:00 AM 13.86 56.948 0.038 7.16 1.31 9.64
6/11/2022 1:00:00 AM 13.79 56.822 0.038 7.16 1.35 9.66
6/11/2022 1:15:00 AM 13.72 56.696 0.038 7.17 1.37 9.69
6/11/2022 1:30:00 AM 13.65 56.57 0.038 7.16 1.31 9.69
6/11/2022 1:45:00 AM 13.58 56.444 0.038 7.17 1.3 9.71
6/11/2022 2:00:00 AM 13.5 56.3 0.038 7.15 1.33 9.72
6/11/2022 2:15:00 AM 13.43 56.174 0.038 7.16 1.44 9.73
6/11/2022 2:30:00 AM 13.36 56.048 0.038 7.18 1.3 9.76
6/11/2022 2:45:00 AM 13.29 55.922 0.038 7.19 1.33 9.76
6/11/2022 3:00:00 AM 13.22 55.796 0.038 7.2 1.45 9.81
6/11/2022 3:15:00 AM 13.15 55.67 0.038 7.21 1.51 9.81
6/11/2022 3:30:00 AM 13.08 55.544 0.038 7.24 1.54 9.83
6/11/2022 3:45:00 AM 13.02 55.436 0.038 7.22 1.36 9.85
6/11/2022 4:00:00 AM 12.96 55.328 0.038 7.2 1.4 9.85
6/11/2022 4:15:00 AM 12.89 55.202 0.038 7.2 1.34 9.88
6/11/2022 4:30:00 AM 12.83 55.094 0.038 7.14 1.39 9.9
6/11/2022 4:45:00 AM 12.77 54.986 0.038 7.19 1.59 9.9
6/11/2022 5:00:00 AM 12.71 54.878 0.039 7.22 1.47 9.94
6/11/2022 5:15:00 AM 12.67 54.806 0.039 7.19 1.47 9.94
6/11/2022 5:30:00 AM 12.61 54.698 0.039 7.21 1.4 9.96
6/11/2022 5:45:00 AM 12.56 54.608 0.039 7.19 1.29 9.96
6/11/2022 6:00:00 AM 12.51 54.518 0.039 7.25 1.31 9.99
6/11/2022 6:15:00 AM 12.46 54.428 0.04 7.2 1.39 10.01
6/11/2022 6:30:00 AM 12.42 54.356 0.039 7.2 1.37 10.05
6/11/2022 6:45:00 AM 12.39 54.302 0.039 7.25 1.35 10.08
6/11/2022 7:00:00 AM 12.37 54.266 0.039 7.2 1.25 10.11
6/11/2022 7:15:00 AM 12.35 54.23 0.039 7.22 1.27 10.13
6/11/2022 7:30:00 AM 12.35 54.23 0.039 7.21 1.33 10.18
6/11/2022 7:45:00 AM 12.37 54.266 0.039 7.23 1.23 10.23
6/11/2022 8:00:00 AM 12.39 54.302 0.039 7.26 1.39 10.26
6/11/2022 8:15:00 AM 12.42 54.356 0.039 7.25 1.34 10.29
6/11/2022 8:30:00 AM 12.43 54.374 0.039 7.23 1.27 10.28
6/11/2022 8:45:00 AM 12.44 54.392 0.039 7.23 1.26 10.28
6/11/2022 9:00:00 AM 12.46 54.428 0.039 7.24 1.28 10.26
6/11/2022 9:15:00 AM 12.48 54.464 0.039 7.24 1.25 10.27
6/11/2022 9:30:00 AM 12.51 54.518 0.039 7.25 1.2 10.28
6/11/2022 9:45:00 AM 12.57 54.626 0.039 7.27 1.33 10.31
6/11/2022 10:00:00 AM 12.65 54.77 0.039 7.26 1.25 10.31
6/11/2022 10:15:00 AM 12.77 54.986 0.039 7.31 1.23 10.34
6/11/2022 10:30:00 AM 12.88 55.184 0.039 7.32 1.26 10.34
6/11/2022 10:45:00 AM 13.02 55.436 0.039 7.29 1.29 10.34
6/11/2022 11:00:00 AM 13.14 55.652 0.039 7.31 1.22 10.32
6/11/2022 11:15:00 AM 13.26 55.868 0.039 7.32 1.31 10.3
6/11/2022 11:30:00 AM 13.39 56.102 0.039 7.4 2.35 10.26
6/11/2022 11:45:00 AM 13.56 56.408 0.039 7.42 1.28 10.27
6/11/2022 12:00:00 PM 13.76 56.768 0.039 7.34 1.27 10.24
6/11/2022 12:15:00 PM 14.07 57.326 0.04 7.35 1.29 10.19
6/11/2022 12:30:00 PM 14.29 57.722 0.04 7.34 1.24 10.13
6/11/2022 12:45:00 PM 14.58 58.244 0.04 7.33 1.36 10.05
6/11/2022 1:00:00 PM 14.88 58.784 0.041 7.33 1.61 9.98
6/11/2022 1:15:00 PM 15.11 59.198 0.041 7.35 1.21 9.91
6/11/2022 1:30:00 PM 15.46 59.828 0.041 7.33 1.23 9.88
6/11/2022 1:45:00 PM 15.64 60.152 0.041 7.35 1.26 9.85
6/11/2022 2:00:00 PM 15.58 60.044 0.041 7.36 1.28 9.77
6/11/2022 2:15:00 PM 15.43 59.774 0.04 7.34 1.26 9.68
6/11/2022 2:30:00 PM 15.28 59.504 0.04 7.3 1.24 9.63
6/11/2022 2:45:00 PM 15.16 59.288 0.041 7.33 1.24 9.68
6/11/2022 3:00:00 PM 15.07 59.126 0.04 7.33 1.34 9.72
6/11/2022 3:15:00 PM 15.25 59.45 0.04 7.34 1.55 9.8
6/11/2022 3:30:00 PM 15.32 59.576 0.04 7.33 1.23 9.8
6/11/2022 3:45:00 PM 15.36 59.648 0.04 7.37 1.37 9.77
6/11/2022 4:00:00 PM 15.46 59.828 0.04 7.34 1.24 9.73
6/11/2022 4:15:00 PM 15.55 59.99 0.04 7.35 1.21 9.71
6/11/2022 4:30:00 PM 15.46 59.828 0.04 7.31 1.29 9.67
6/11/2022 4:45:00 PM 15.35 59.63 0.04 7.27 1.38 9.61
6/11/2022 5:00:00 PM 15.26 59.468 0.04 7.28 1.51 9.64
6/11/2022 5:15:00 PM 15.26 59.468 0.04 7.28 1.2 9.69
6/11/2022 5:30:00 PM 15.24 59.432 0.04 7.29 1.32 9.72
6/11/2022 5:45:00 PM 15.2 59.36 0.04 7.29 1.26 9.69
6/11/2022 6:00:00 PM 15.16 59.288 0.04 7.28 1.21 9.65
6/11/2022 6:15:00 PM 15.16 59.288 0.04 7.27 1.17 9.61
6/11/2022 6:30:00 PM 15.16 59.288 0.04 7.26 1.18 9.57
6/11/2022 6:45:00 PM 15.16 59.288 0.04 7.25 1.2 9.56
6/11/2022 7:00:00 PM 15.13 59.234 0.041 7.26 1.19 9.55
6/11/2022 7:15:00 PM 15.08 59.144 0.041 7.24 1.21 9.53
6/11/2022 7:30:00 PM 15.03 59.054 0.04 7.24 1.27 9.53
6/11/2022 7:45:00 PM 14.97 58.946 0.04 7.24 1.24 9.5
6/11/2022 8:00:00 PM 14.9 58.82 0.04 7.24 1.28 9.51
6/11/2022 8:15:00 PM 14.84 58.712 0.04 7.22 1.17 9.49
6/11/2022 8:30:00 PM 14.78 58.604 0.04 7.22 1.27 9.49
6/11/2022 8:45:00 PM 14.72 58.496 0.04 7.19 1.39 9.49
6/11/2022 9:00:00 PM 14.66 58.388 0.04 7.19 1.29 9.49
6/11/2022 9:15:00 PM 14.61 58.298 0.041 7.19 1.23 9.48
6/11/2022 9:30:00 PM 14.55 58.19 0.04 7.18 1.24 9.48
6/11/2022 9:45:00 PM 14.5 58.1 0.04 7.18 1.19 9.49
6/11/2022 10:00:00 PM 14.45 58.01 0.04 7.19 1.37 9.51
6/11/2022 10:15:00 PM 14.4 57.92 0.04 7.18 1.28 9.51
6/11/2022 10:30:00 PM 14.34 57.812 0.04 7.18 1.4 9.53
6/11/2022 10:45:00 PM 14.29 57.722 0.04 7.17 1.28 9.56
6/11/2022 11:00:00 PM 14.25 57.65 0.04 7.19 1.26 9.55
6/11/2022 11:15:00 PM 14.19 57.542 0.04 7.16 1.25 9.57
6/11/2022 11:30:00 PM 14.14 57.452 0.04 7.17 1.23 9.58
6/11/2022 11:45:00 PM 14.09 57.362 0.04 7.17 1.24 9.6
6/12/2022 12:00:00 AM 14.05 57.29 0.04 7.18 1.2 9.6
6/12/2022 12:15:00 AM 14.01 57.218 0.04 7.17 1.3 9.6
6/12/2022 12:30:00 AM 13.95 57.11 0.04 7.17 1.29 9.63
6/12/2022 12:45:00 AM 13.91 57.038 0.04 7.17 1.32 9.64
6/12/2022 1:00:00 AM 13.87 56.966 0.04 7.17 1.25 9.64
6/12/2022 1:15:00 AM 13.82 56.876 0.04 7.19 1.28 9.66
6/12/2022 1:30:00 AM 13.77 56.786 0.041 7.18 1.25 9.69
6/12/2022 1:45:00 AM 13.74 56.732 0.041 7.17 1.41 9.67
6/12/2022 2:00:00 AM 13.69 56.642 0.041 7.17 1.29 9.7
6/12/2022 2:15:00 AM 13.66 56.588 0.04 7.17 1.29 9.68
6/12/2022 2:30:00 AM 13.62 56.516 0.041 7.16 1.31 9.7
6/12/2022 2:45:00 AM 13.58 56.444 0.04 7.17 1.26 9.71
6/12/2022 3:00:00 AM 13.55 56.39 0.04 7.17 1.26 9.71
6/12/2022 3:15:00 AM 13.52 56.336 0.04 7.17 1.31 9.72
6/12/2022 3:30:00 AM 13.49 56.282 0.041 7.17 1.26 9.74
6/12/2022 3:45:00 AM 13.45 56.21 0.041 7.16 1.34 9.74
6/12/2022 4:00:00 AM 13.42 56.156 0.041 7.18 1.43 9.75
6/12/2022 4:15:00 AM 13.39 56.102 0.041 7.16 1.35 9.75
6/12/2022 4:30:00 AM 13.35 56.03 0.041 7.17 1.49 9.76
6/12/2022 4:45:00 AM 13.31 55.958 0.041 7.17 1.39 9.76
6/12/2022 5:00:00 AM 13.28 55.904 0.041 7.17 1.27 9.79
6/12/2022 5:15:00 AM 13.24 55.832 0.041 7.17 1.3 9.78
6/12/2022 5:30:00 AM 13.21 55.778 0.041 7.17 1.33 9.79
6/12/2022 5:45:00 AM 13.18 55.724 0.041 7.17 1.26 9.8
6/12/2022 6:00:00 AM 13.15 55.67 0.041 7.17 1.78 9.81
6/12/2022 6:15:00 AM 13.13 55.634 0.041 7.17 1.27 9.82
6/12/2022 6:30:00 AM 13.11 55.598 0.041 7.18 1.31 9.87
6/12/2022 6:45:00 AM 13.11 55.598 0.041 7.18 2.38 9.87
6/12/2022 7:00:00 AM 13.11 55.598 0.041 7.18 1.32 9.88
6/12/2022 7:15:00 AM 13.11 55.598 0.041 7.2 1.36 9.94
6/12/2022 7:30:00 AM 13.12 55.616 0.041 7.2 1.22 9.96
6/12/2022 7:45:00 AM 13.13 55.634 0.041 7.23 1.2 9.98
6/12/2022 8:00:00 AM 13.16 55.688 0.041 7.22 1.25 10.02
6/12/2022 8:15:00 AM 13.19 55.742 0.041 7.23 1.26 10.04
6/12/2022 8:30:00 AM 13.24 55.832 0.041 7.25 1.17 10.06
6/12/2022 8:45:00 AM 13.31 55.958 0.041 7.25 1.23 10.09
6/12/2022 9:00:00 AM 13.36 56.048 0.041 7.28 1.25 10.1
6/12/2022 9:15:00 AM 13.4 56.12 0.04 7.27 1.19 10.08
6/12/2022 9:30:00 AM 13.46 56.228 0.041 7.28 1.17 10.09
6/12/2022 9:45:00 AM 13.54 56.372 0.041 7.32 1.2 10.08
6/12/2022 10:00:00 AM 13.63 56.534 0.041 7.34 1.22 10.07
6/12/2022 10:15:00 AM 13.75 56.75 0.041 7.31 1.22 10.07
6/12/2022 10:30:00 AM 13.9 57.02 0.041 7.31 1.22 10.07
6/12/2022 10:45:00 AM 14.05 57.29 0.041 7.31 1.38 10.08
6/12/2022 11:00:00 AM 14.21 57.578 0.042 7.32 1.34 10.06
6/12/2022 11:15:00 AM 14.33 57.794 0.041 7.34 1.25 10.04
6/12/2022 11:30:00 AM 14.44 57.992 0.041 7.35 1.19 10.04
6/12/2022 11:45:00 AM 14.54 58.172 0.041 7.35 1.26 10.01
6/12/2022 12:00:00 PM 14.62 58.316 0.041 7.35 1.2 10
6/12/2022 12:15:00 PM 14.69 58.442 0.041 7.35 1.22 9.98
6/12/2022 12:30:00 PM 14.71 58.478 0.041 7.34 1.19 9.94
6/12/2022 12:45:00 PM 14.71 58.478 0.041 7.35 1.22 9.92
6/12/2022 1:00:00 PM 14.69 58.442 0.041 7.36 1.35 9.85
6/12/2022 1:15:00 PM 14.71 58.478 0.041 7.3 1.2 9.86
6/12/2022 1:30:00 PM 14.71 58.478 0.041 7.32 1.17 9.84
6/12/2022 1:45:00 PM 14.69 58.442 0.041 7.31 1.17 9.81
6/12/2022 2:00:00 PM 14.66 58.388 0.041 7.3 1.38 9.77
6/12/2022 2:15:00 PM 14.64 58.352 0.041 7.28 1.2 9.74
6/12/2022 2:30:00 PM 14.64 58.352 0.041 7.29 1.17 9.74
6/12/2022 2:45:00 PM 14.63 58.334 0.041 7.32 1.24 9.72
6/12/2022 3:00:00 PM 14.65 58.37 0.041 7.26 1.33 9.73
6/12/2022 3:15:00 PM 14.87 58.766 0.041 7.27 1.53 9.78
6/12/2022 3:30:00 PM 14.99 58.982 0.041 7.29 1.24 9.79
6/12/2022 3:45:00 PM 15.13 59.234 0.041 7.31 1.3 9.82
6/12/2022 4:00:00 PM 15.19 59.342 0.041 7.31 1.19 9.78
6/12/2022 4:15:00 PM 15.25 59.45 0.041 7.32 1.21 9.77
6/12/2022 4:30:00 PM 15.28 59.504 0.041 7.32 1.61 9.74
6/12/2022 4:45:00 PM 15.31 59.558 0.041 7.35 1.18 9.74
6/12/2022 5:00:00 PM 15.31 59.558 0.041 7.31 1.21 9.73
6/12/2022 5:15:00 PM 15.31 59.558 0.041 7.32 1.22 9.72
6/12/2022 5:30:00 PM 15.34 59.612 0.042 7.33 1.28 9.72
6/12/2022 5:45:00 PM 15.32 59.576 0.041 7.29 1.22 9.66
6/12/2022 6:00:00 PM 15.29 59.522 0.041 7.3 1.45 9.63
6/12/2022 6:15:00 PM 15.29 59.522 0.041 7.3 1.2 9.61
6/12/2022 6:30:00 PM 15.29 59.522 0.041 7.28 1.28 9.59
6/12/2022 6:45:00 PM 15.26 59.468 0.042 7.27 1.29 9.57
6/12/2022 7:00:00 PM 15.23 59.414 0.042 7.26 1.26 9.55
6/12/2022 7:15:00 PM 15.19 59.342 0.042 7.26 1.29 9.54
6/12/2022 7:30:00 PM 15.16 59.288 0.042 7.25 1.33 9.52
6/12/2022 7:45:00 PM 15.13 59.234 0.042 7.24 1.39 9.5
6/12/2022 8:00:00 PM 15.1 59.18 0.042 7.23 1.38 9.47
6/12/2022 8:15:00 PM 15.09 59.162 0.042 7.21 1.35 9.46
6/12/2022 8:30:00 PM 15.06 59.108 0.042 7.21 1.37 9.46
6/12/2022 8:45:00 PM 15.03 59.054 0.042 7.19 1.24 9.44
6/12/2022 9:00:00 PM 14.99 58.982 0.042 7.21 1.27 9.43
6/12/2022 9:15:00 PM 14.96 58.928 0.042 7.19 1.26 9.42
6/12/2022 9:30:00 PM 14.93 58.874 0.042 7.16 1.42 9.4
6/12/2022 9:45:00 PM 14.9 58.82 0.042 7.18 1.43 9.41
6/12/2022 10:00:00 PM 14.87 58.766 0.042 7.2 1.39 9.41
6/12/2022 10:15:00 PM 14.84 58.712 0.043 7.14 1.29 9.41
6/12/2022 10:30:00 PM 14.82 58.676 0.043 7.12 1.42 9.4
6/12/2022 10:45:00 PM 14.79 58.622 0.043 7.13 1.66 9.42
6/12/2022 11:00:00 PM 14.76 58.568 0.043 7.12 1.48 9.42
6/12/2022 11:15:00 PM 14.74 58.532 0.043 7.13 1.43 9.42
6/12/2022 11:30:00 PM 14.71 58.478 0.043 7.12 1.51 9.44
6/12/2022 11:45:00 PM 14.69 58.442 0.043 7.12 1.29 9.45
6/13/2022 12:00:00 AM 14.68 58.424 0.043 7.12 1.34 9.45
6/13/2022 12:15:00 AM 14.66 58.388 0.043 7.12 2.95 9.43
6/13/2022 12:30:00 AM 14.65 58.37 0.043 7.14 1.47 9.46
6/13/2022 12:45:00 AM 14.63 58.334 0.043 7.16 1.41 9.47
6/13/2022 1:00:00 AM 14.62 58.316 0.043 7.17 1.38 9.46
6/13/2022 1:15:00 AM 14.61 58.298 0.043 7.18 1.3 9.48
6/13/2022 1:30:00 AM 14.6 58.28 0.043 7.24 1.51 9.48
6/13/2022 1:45:00 AM 14.58 58.244 0.043 7.14 1.37 9.48
6/13/2022 2:00:00 AM 14.57 58.226 0.043 7.16 1.34 9.48
6/13/2022 2:15:00 AM 14.56 58.208 0.042 7.15 1.33 9.5
6/13/2022 2:30:00 AM 14.55 58.19 0.042 7.14 1.26 9.48
6/13/2022 2:45:00 AM 14.54 58.172 0.042 7.14 1.3 9.48
6/13/2022 3:00:00 AM 14.52 58.136 0.043 7.14 1.31 9.5
6/13/2022 3:15:00 AM 14.51 58.118 0.043 7.14 1.25 9.49
6/13/2022 3:30:00 AM 14.5 58.1 0.043 7.13 1.28 9.51
6/13/2022 3:45:00 AM 14.48 58.064 0.043 7.13 1.35 9.52
6/13/2022 4:00:00 AM 14.47 58.046 0.043 7.13 1.41 9.51
6/13/2022 4:15:00 AM 14.46 58.028 0.043 7.14 1.43 9.51
6/13/2022 4:30:00 AM 14.45 58.01 0.043 7.13 1.36 9.51
6/13/2022 4:45:00 AM 14.44 57.992 0.043 7.15 1.33 9.51
6/13/2022 5:00:00 AM 14.42 57.956 0.043 7.15 1.68 9.52
6/13/2022 5:15:00 AM 14.41 57.938 0.043 7.13 2.68 9.52
6/13/2022 5:30:00 AM 14.4 57.92 0.043 7.14 1.31 9.53
6/13/2022 5:45:00 AM 14.39 57.902 0.043 7.14 1.62 9.53
6/13/2022 6:00:00 AM 14.38 57.884 0.043 7.15 1.3 9.54
6/13/2022 6:15:00 AM 14.38 57.884 0.042 7.16 1.33 9.56
6/13/2022 6:30:00 AM 14.37 57.866 0.042 7.16 1.24 9.56
6/13/2022 6:45:00 AM 14.37 57.866 0.043 7.16 1.84 9.55
6/13/2022 7:00:00 AM 14.37 57.866 0.043 7.17 1.27 9.61
6/13/2022 7:15:00 AM 14.38 57.884 0.043 7.17 1.4 9.63
6/13/2022 7:30:00 AM 14.38 57.884 0.043 7.17 1.31 9.65
6/13/2022 7:45:00 AM 14.4 57.92 0.043 7.17 1.59 9.62
6/13/2022 8:00:00 AM 14.41 57.938 0.043 7.2 1.56 9.68
6/13/2022 8:15:00 AM 14.44 57.992 0.043 7.2 1.52 9.75
6/13/2022 8:30:00 AM 14.48 58.064 0.043 7.22 1.85 9.74
6/13/2022 8:45:00 AM 14.52 58.136 0.042 7.24 5.12 9.8
6/13/2022 9:00:00 AM 14.55 58.19 0.042 7.25 2.08 9.77
6/13/2022 9:15:00 AM 14.61 58.298 0.042 7.25 1.28 9.81
6/13/2022 9:30:00 AM 14.68 58.424 0.042 7.27 2.78 9.84
6/13/2022 9:45:00 AM 14.74 58.532 0.042 7.29 1.28 9.88
6/13/2022 10:00:00 AM 14.85 58.73 0.042 7.32 1.18 9.89
6/13/2022 10:15:00 AM 14.97 58.946 0.042 7.32 1.11 9.88
6/13/2022 10:30:00 AM 15.05 59.09 0.042 7.32 1.79 9.84
6/13/2022 10:45:00 AM 15.15 59.27 0.042 7.3 1.17 9.82
6/13/2022 11:00:00 AM 15.26 59.468 0.042 7.31 2.31 9.77
6/13/2022 11:15:00 AM 15.39 59.702 0.042 7.31 1.15 9.77
6/13/2022 11:30:00 AM 15.54 59.972 0.042 7.33 1.13 9.75
6/13/2022 11:45:00 AM 15.72 60.296 0.042 7.32 2.88 9.72
6/13/2022 12:00:00 PM 15.9 60.62 0.042 7.33 1.25 9.71
6/13/2022 12:15:00 PM 16.08 60.944 0.042 7.33 1.62 9.7
6/13/2022 12:30:00 PM 16.14 61.052 0.042 7.34 1.25 9.63
6/13/2022 12:45:00 PM 16.33 61.394 0.042 7.33 1.15 9.62
6/13/2022 1:00:00 PM 16.51 61.718 0.042 7.33 1.9 9.58
6/13/2022 1:15:00 PM 16.75 62.15 0.043 7.33 1.7 9.55
6/13/2022 1:30:00 PM 16.93 62.474 0.042 7.35 1.82 9.55
6/13/2022 1:45:00 PM 17.26 63.068 0.043 7.36 1.34 9.52
6/13/2022 2:00:00 PM 17.57 63.626 0.043 7.35 1.14 9.45
6/13/2022 2:15:00 PM 17.79 64.022 0.043 7.35 1.08 9.4
6/13/2022 2:30:00 PM 17.98 64.364 0.043 7.36 1.13 9.35
6/13/2022 2:45:00 PM 18.22 64.796 0.043 7.36 1.09 9.32
6/13/2022 3:00:00 PM 18.34 65.012 0.043 7.36 1.13 9.29
6/13/2022 3:15:00 PM 18.45 65.21 0.044 7.35 1.15 9.27
6/13/2022 3:30:00 PM 18.43 65.174 0.043 7.36 1.14 9.25
6/13/2022 3:45:00 PM 18.38 65.084 0.043 7.36 1.23 9.2
6/13/2022 4:00:00 PM 18.37 65.066 0.043 7.33 1.13 9.16
6/13/2022 4:15:00 PM 18.33 64.994 0.043 7.3 1.08 9.13
6/13/2022 4:30:00 PM 18.28 64.904 0.043 7.32 1.17 9.11
6/13/2022 4:45:00 PM 18.19 64.742 0.043 7.32 1.14 9.1
6/13/2022 5:00:00 PM 18.13 64.634 0.043 7.31 1.1 9.11
6/13/2022 5:15:00 PM 18.02 64.436 0.042 7.3 1.39 9.09
6/13/2022 5:30:00 PM 17.89 64.202 0.042 7.28 1.39 9.08
6/13/2022 5:45:00 PM 17.81 64.058 0.042 7.26 1.23 9.04
6/13/2022 6:00:00 PM 17.75 63.95 0.042 7.27 1.08 9.03
6/13/2022 6:15:00 PM 17.68 63.824 0.042 7.26 1.17 9.01
6/13/2022 6:30:00 PM 17.63 63.734 0.042 7.26 1.2 9.02
6/13/2022 6:45:00 PM 17.57 63.626 0.042 7.25 1.13 9.02
6/13/2022 7:00:00 PM 17.52 63.536 0.042 7.23 1.13 9.01
6/13/2022 7:15:00 PM 17.46 63.428 0.042 7.23 1.1 9.01
6/13/2022 7:30:00 PM 17.4 63.32 0.042 7.22 1.16 9
6/13/2022 7:45:00 PM 17.33 63.194 0.043 7.23 1.22 9.02
6/13/2022 8:00:00 PM 17.27 63.086 0.042 7.22 1.1 9
6/13/2022 8:15:00 PM 17.2 62.96 0.042 7.21 1.13 8.99
6/13/2022 8:30:00 PM 17.13 62.834 0.042 7.2 1.37 8.98
6/13/2022 8:45:00 PM 17.06 62.708 0.043 7.24 6.49 8.93
6/13/2022 9:00:00 PM 17 62.6 0.043 7.2 3.99 8.95
6/13/2022 9:15:00 PM 16.94 62.492 0.043 7.21 2.43 8.95
6/13/2022 9:30:00 PM 16.88 62.384 0.043 7.2 2.04 8.97
6/13/2022 9:45:00 PM 16.82 62.276 0.043 7.17 1.18 8.99
6/13/2022 10:00:00 PM 16.76 62.168 0.043 7.17 1.32 8.98
6/13/2022 10:15:00 PM 16.69 62.042 0.042 7.28 1.24 9.01
6/13/2022 10:30:00 PM 16.62 61.916 0.043 7.15 1.96 9.02
6/13/2022 10:45:00 PM 16.55 61.79 0.042 7.15 1.31 9.02
6/13/2022 11:00:00 PM 16.48 61.664 0.043 7.16 1.21 9.04
6/13/2022 11:15:00 PM 16.41 61.538 0.043 7.17 1.21 9.05
6/13/2022 11:30:00 PM 16.35 61.43 0.043 7.19 1.26 9.07
6/13/2022 11:45:00 PM 16.3 61.34 0.042 7.16 1.2 9.08
6/14/2022 12:00:00 AM 16.24 61.232 0.043 7.16 1.53 9.09
6/14/2022 12:15:00 AM 16.19 61.142 0.042 7.16 1.14 9.1
6/14/2022 12:30:00 AM 16.13 61.034 0.042 7.16 1.25 9.13
6/14/2022 12:45:00 AM 16.08 60.944 0.042 7.19 1.38 9.12
6/14/2022 1:00:00 AM 16.03 60.854 0.043 7.17 1.15 9.14
6/14/2022 1:15:00 AM 15.98 60.764 0.043 7.19 1.23 9.16
6/14/2022 1:30:00 AM 15.93 60.674 0.043 7.18 1.28 9.16
6/14/2022 1:45:00 AM 15.88 60.584 0.043 7.19 1.25 9.18
6/14/2022 2:00:00 AM 15.84 60.512 0.043 7.17 1.32 9.19
6/14/2022 2:15:00 AM 15.8 60.44 0.043 7.17 1.15 9.19
6/14/2022 2:30:00 AM 15.75 60.35 0.043 7.17 1.32 9.21
6/14/2022 2:45:00 AM 15.71 60.278 0.043 7.16 1.34 9.22
6/14/2022 3:00:00 AM 15.67 60.206 0.043 7.17 1.23 9.22
6/14/2022 3:15:00 AM 15.63 60.134 0.043 7.17 1.27 9.23
6/14/2022 3:30:00 AM 15.59 60.062 0.043 7.18 1.2 9.24
6/14/2022 3:45:00 AM 15.55 59.99 0.043 7.19 6.05 9.24
6/14/2022 4:00:00 AM 15.5 59.9 0.043 7.17 1.3 9.24
6/14/2022 4:15:00 AM 15.46 59.828 0.042 7.18 1.27 9.25
6/14/2022 4:30:00 AM 15.42 59.756 0.042 7.17 1.4 9.26
6/14/2022 4:45:00 AM 15.38 59.684 0.042 7.18 1.34 9.26
6/14/2022 5:00:00 AM 15.35 59.63 0.042 7.19 1.2 9.26
6/14/2022 5:15:00 AM 15.31 59.558 0.042 7.18 1.22 9.28
6/14/2022 5:30:00 AM 15.28 59.504 0.042 7.18 1.28 9.28
6/14/2022 5:45:00 AM 15.25 59.45 0.042 7.16 1.97 9.31
6/14/2022 6:00:00 AM 15.22 59.396 0.042 7.18 1.14 9.32
6/14/2022 6:15:00 AM 15.2 59.36 0.042 7.17 1.31 9.31
6/14/2022 6:30:00 AM 15.17 59.306 0.043 7.18 1.35 9.34
6/14/2022 6:45:00 AM 15.15 59.27 0.042 7.18 1.54 9.33
6/14/2022 7:00:00 AM 15.13 59.234 0.043 7.17 1.5 9.36
6/14/2022 7:15:00 AM 15.12 59.216 0.043 7.19 1.17 9.39
6/14/2022 7:30:00 AM 15.1 59.18 0.043 7.2 1.19 9.39
6/14/2022 7:45:00 AM 15.08 59.144 0.043 7.18 1.2 9.4
6/14/2022 8:00:00 AM 15.07 59.126 0.043 7.19 1.18 9.41
6/14/2022 8:15:00 AM 15.07 59.126 0.042 7.2 1.25 9.43
6/14/2022 8:30:00 AM 15.08 59.144 0.042 7.22 1.24 9.51
6/14/2022 8:45:00 AM 15.07 59.126 0.042 7.23 1.25 9.49
6/14/2022 9:00:00 AM 15.06 59.108 0.042 7.21 1.19 9.51
6/14/2022 9:15:00 AM 15.07 59.126 0.042 7.24 1.6 9.51
6/14/2022 9:30:00 AM 15.08 59.144 0.042 7.22 1.22 9.55
6/14/2022 9:45:00 AM 15.15 59.27 0.042 7.25 1.25 9.62
6/14/2022 10:00:00 AM 15.23 59.414 0.042 7.28 1.28 9.65
6/14/2022 10:15:00 AM 15.3 59.54 0.042 7.29 1.21 9.68
6/14/2022 10:30:00 AM 15.37 59.666 0.042 7.3 1.17 9.71
6/14/2022 10:45:00 AM 15.47 59.846 0.042 7.32 1.19 9.71
6/14/2022 11:00:00 AM 15.56 60.008 0.041 7.33 1.22 9.71
6/14/2022 11:15:00 AM 15.71 60.278 0.042 7.33 1.17 9.7
6/14/2022 11:30:00 AM 15.85 60.53 0.042 7.33 1.27 9.67
6/14/2022 11:45:00 AM 15.99 60.782 0.042 7.32 1.43 9.64
6/14/2022 12:00:00 PM 16.22 61.196 0.042 7.34 1.21 9.59
6/14/2022 12:15:00 PM 16.46 61.628 0.042 7.32 1.13 9.57
6/14/2022 12:30:00 PM 16.67 62.006 0.043 7.33 1.23 9.51
6/14/2022 12:45:00 PM 16.96 62.528 0.043 7.34 1.3 9.47
6/14/2022 1:00:00 PM 17.22 62.996 0.043 7.33 1.16 9.41
6/14/2022 1:15:00 PM 17.59 63.662 0.043 7.34 1.11 9.38
6/14/2022 1:30:00 PM 17.86 64.148 0.044 7.31 1.17 9.31
6/14/2022 1:45:00 PM 18.13 64.634 0.044 7.32 1.23 9.29
6/14/2022 2:00:00 PM 18.39 65.102 0.044 7.35 1.18 9.27
6/14/2022 2:15:00 PM 18.67 65.606 0.044 7.32 1.16 9.23
6/14/2022 2:30:00 PM 18.89 66.002 0.044 7.31 1.1 9.19
6/14/2022 2:45:00 PM 19.1 66.38 0.045 7.33 1.12 9.15
6/14/2022 3:00:00 PM 19.21 66.578 0.045 7.33 1.23 9.11
6/14/2022 3:15:00 PM 19.29 66.722 0.045 7.32 1.26 9.07
6/14/2022 3:30:00 PM 19.26 66.668 0.045 7.32 1.18 9.03
6/14/2022 3:45:00 PM 19.15 66.47 0.044 7.33 1.15 8.99
6/14/2022 4:00:00 PM 19.11 66.398 0.044 7.31 1.97 8.97
6/14/2022 4:15:00 PM 19.03 66.254 0.044 7.3 1.13 8.96
6/14/2022 4:30:00 PM 18.94 66.092 0.045 7.29 1.17 8.95
6/14/2022 4:45:00 PM 18.84 65.912 0.044 7.27 1.03 8.92
6/14/2022 5:00:00 PM 18.73 65.714 0.044 7.29 1.19 8.95
6/14/2022 5:15:00 PM 18.58 65.444 0.044 7.28 1.08 8.94
6/14/2022 5:30:00 PM 18.44 65.192 0.044 7.25 1.18 8.93
6/14/2022 5:45:00 PM 18.32 64.976 0.044 7.25 1.14 8.91
6/14/2022 6:00:00 PM 18.22 64.796 0.045 7.25 1.26 8.91
6/14/2022 6:15:00 PM 18.15 64.67 0.044 7.22 1.12 8.9
6/14/2022 6:30:00 PM 18.08 64.544 0.044 7.22 1.32 8.9
6/14/2022 6:45:00 PM 18.01 64.418 0.044 7.21 1.13 8.88
6/14/2022 7:00:00 PM 17.95 64.31 0.044 7.22 1.08 8.89
6/14/2022 7:15:00 PM 17.87 64.166 0.044 7.2 1.17 8.89
6/14/2022 7:30:00 PM 17.79 64.022 0.044 7.21 1.14 8.89
6/14/2022 7:45:00 PM 17.72 63.896 0.044 7.19 1.28 8.89
6/14/2022 8:00:00 PM 17.64 63.752 0.044 7.17 1.12 8.88
6/14/2022 8:15:00 PM 17.56 63.608 0.044 7.19 1.12 8.89
6/14/2022 8:30:00 PM 17.48 63.464 0.044 7.18 1.18 8.88
6/14/2022 8:45:00 PM 17.4 63.32 0.044 7.17 1.46 8.9
6/14/2022 9:00:00 PM 17.34 63.212 0.043 7.18 1.17 8.88
6/14/2022 9:15:00 PM 17.27 63.086 0.044 7.16 1.42 8.87
6/14/2022 9:30:00 PM 17.21 62.978 0.044 7.16 1.32 8.89
6/14/2022 9:45:00 PM 17.14 62.852 0.044 7.16 1.34 8.9
6/14/2022 10:00:00 PM 17.08 62.744 0.044 7.16 1.83 8.91
6/14/2022 10:15:00 PM 17.01 62.618 0.043 7.16 1.17 8.92
6/14/2022 10:30:00 PM 16.94 62.492 0.044 7.15 1.32 8.94
6/14/2022 10:45:00 PM 16.87 62.366 0.043 7.15 1.24 8.96
6/14/2022 11:00:00 PM 16.79 62.222 0.043 7.16 1.19 8.96
6/14/2022 11:15:00 PM 16.72 62.096 0.043 7.16 1.29 8.98
6/14/2022 11:30:00 PM 16.64 61.952 0.043 7.16 1.3 9
6/14/2022 11:45:00 PM 16.56 61.808 0.043 7.17 1.19 9.03
6/15/2022 12:00:00 AM 16.48 61.664 0.044 7.17 1.28 9.05
6/15/2022 12:15:00 AM 16.4 61.52 0.043 7.15 1.18 9.04
6/15/2022 12:30:00 AM 16.32 61.376 0.043 7.16 1.24 9.07
6/15/2022 12:45:00 AM 16.25 61.25 0.043 7.15 1.27 9.08
6/15/2022 1:00:00 AM 16.18 61.124 0.043 7.16 1.24 9.1
6/15/2022 1:15:00 AM 16.1 60.98 0.043 7.17 1.83 9.11
6/15/2022 1:30:00 AM 16.02 60.836 0.043 7.16 1.26 9.13
6/15/2022 1:45:00 AM 15.94 60.692 0.043 7.16 1.22 9.16
6/15/2022 2:00:00 AM 15.86 60.548 0.043 7.16 1.42 9.17
6/15/2022 2:15:00 AM 15.79 60.422 0.043 7.15 1.42 9.19
6/15/2022 2:30:00 AM 15.71 60.278 0.043 7.18 1.44 9.21
6/15/2022 2:45:00 AM 15.64 60.152 0.043 7.19 1.37 9.21
6/15/2022 3:00:00 AM 15.57 60.026 0.043 7.21 1.25 9.26
6/15/2022 3:15:00 AM 15.49 59.882 0.043 7.23 1.28 9.27
6/15/2022 3:30:00 AM 15.43 59.774 0.043 7.15 1.2 9.28
6/15/2022 3:45:00 AM 15.37 59.666 0.043 7.14 1.16 9.28
6/15/2022 4:00:00 AM 15.3 59.54 0.043 7.14 1.28 9.29
6/15/2022 4:15:00 AM 15.23 59.414 0.043 7.14 1.27 9.32
6/15/2022 4:30:00 AM 15.16 59.288 0.043 7.13 1.26 9.33
6/15/2022 4:45:00 AM 15.1 59.18 0.043 7.14 1.3 9.35
6/15/2022 5:00:00 AM 15.04 59.072 0.043 7.15 1.32 9.36
6/15/2022 5:15:00 AM 14.98 58.964 0.043 7.15 1.54 9.38
6/15/2022 5:30:00 AM 14.92 58.856 0.043 7.16 1.21 9.39
6/15/2022 5:45:00 AM 14.87 58.766 0.042 7.15 1.37 9.38
6/15/2022 6:00:00 AM 14.82 58.676 0.043 7.17 1.25 9.42
6/15/2022 6:15:00 AM 14.77 58.586 0.043 7.15 1.45 9.46
6/15/2022 6:30:00 AM 14.72 58.496 0.043 7.17 1.4 9.43
6/15/2022 6:45:00 AM 14.68 58.424 0.043 7.16 3.08 9.48
6/15/2022 7:00:00 AM 14.64 58.352 0.043 7.18 1.76 9.51
6/15/2022 7:15:00 AM 14.62 58.316 0.043 7.17 1.48 9.54
6/15/2022 7:30:00 AM 14.61 58.298 0.043 7.17 1.26 9.57
6/15/2022 7:45:00 AM 14.62 58.316 0.043 7.17 1.57 9.56
6/15/2022 8:00:00 AM 14.66 58.388 0.043 7.19 1.77 9.62
6/15/2022 8:15:00 AM 14.69 58.442 0.042 7.21 1.3 9.68
6/15/2022 8:30:00 AM 14.71 58.478 0.043 7.22 1.96 9.67
6/15/2022 8:45:00 AM 14.75 58.55 0.043 7.22 1.69 9.67
6/15/2022 9:00:00 AM 14.79 58.622 0.043 7.22 1.15 9.63
6/15/2022 9:15:00 AM 14.86 58.748 0.043 7.23 1.55 9.66
6/15/2022 9:30:00 AM 14.93 58.874 0.043 7.24 1.26 9.64
6/15/2022 9:45:00 AM 15.04 59.072 0.043 7.24 1.9 9.67
6/15/2022 10:00:00 AM 15.17 59.306 0.043 7.25 5.07 9.68
6/15/2022 10:15:00 AM 15.29 59.522 0.043 7.26 2.68 9.69
6/15/2022 10:30:00 AM 15.42 59.756 0.043 7.25 2.17 9.64
6/15/2022 10:45:00 AM 15.56 60.008 0.043 7.26 1.24 9.65
6/15/2022 11:00:00 AM 15.7 60.26 0.043 7.27 2.32 9.63
6/15/2022 11:15:00 AM 15.87 60.566 0.043 7.28 1.47 9.63
6/15/2022 11:30:00 AM 16.02 60.836 0.043 7.27 5.75 9.52
6/15/2022 11:45:00 AM 16.26 61.268 0.043 7.28 8.42 9.57
6/15/2022 12:00:00 PM 16.5 61.7 0.044 7.27 9 9.5
6/15/2022 12:15:00 PM 16.79 62.222 0.044 7.31 2.06 9.52
6/15/2022 12:30:00 PM 17.07 62.726 0.044 7.3 20.27 9.47
6/15/2022 12:45:00 PM 17.33 63.194 0.044 7.29 1.52 9.41
6/15/2022 1:00:00 PM 17.64 63.752 0.045 7.33 1.19 9.43
6/15/2022 1:15:00 PM 17.84 64.112 0.044 7.33 1.06 9.39
6/15/2022 1:30:00 PM 18.03 64.454 0.044 7.33 1.23 9.36
6/15/2022 1:45:00 PM 18.32 64.976 0.045 7.34 1.14 9.33
6/15/2022 2:00:00 PM 18.62 65.516 0.045 7.33 1.09 9.3
6/15/2022 2:15:00 PM 18.86 65.948 0.045 7.34 1.15 9.25
6/15/2022 2:30:00 PM 19.01 66.218 0.045 7.34 1.1 9.23
6/15/2022 2:45:00 PM 19.21 66.578 0.045 7.36 1.51 9.2
6/15/2022 3:00:00 PM 19.35 66.83 0.045 7.36 1.01 9.17
6/15/2022 3:15:00 PM 19.45 67.01 0.045 7.36 1.13 9.14
6/15/2022 3:30:00 PM 19.49 67.082 0.045 7.35 1.03 9.11
6/15/2022 3:45:00 PM 19.46 67.028 0.045 7.34 1.02 9.06
6/15/2022 4:00:00 PM 19.45 67.01 0.045 7.33 1.07 9.03
6/15/2022 4:15:00 PM 19.45 67.01 0.045 7.34 1.15 9.03
6/15/2022 4:30:00 PM 19.43 66.974 0.045 7.32 1.06 9
6/15/2022 4:45:00 PM 19.41 66.938 0.045 7.32 1.14 8.99
6/15/2022 5:00:00 PM 19.37 66.866 0.044 7.32 1.07 8.96
6/15/2022 5:15:00 PM 19.27 66.686 0.044 7.31 1.15 8.93
6/15/2022 5:30:00 PM 19.16 66.488 0.044 7.29 1.13 8.89
6/15/2022 5:45:00 PM 19.07 66.326 0.044 7.27 1.09 8.85
6/15/2022 6:00:00 PM 19 66.2 0.044 7.26 1.03 8.83
6/15/2022 6:15:00 PM 18.94 66.092 0.045 7.26 1.29 8.8
6/15/2022 6:30:00 PM 18.9 66.02 0.044 7.24 1.06 8.79
6/15/2022 6:45:00 PM 18.87 65.966 0.044 7.24 1 8.78
6/15/2022 7:00:00 PM 18.84 65.912 0.045 7.23 1.03 8.78
6/15/2022 7:15:00 PM 18.8 65.84 0.044 7.22 1.03 8.74
6/15/2022 7:30:00 PM 18.72 65.696 0.044 7.22 1.07 8.73
6/15/2022 7:45:00 PM 18.67 65.606 0.044 7.2 1.09 8.73
6/15/2022 8:00:00 PM 18.63 65.534 0.044 7.19 1.09 8.71
6/15/2022 8:15:00 PM 18.57 65.426 0.045 7.17 1.68 8.7
6/15/2022 8:30:00 PM 18.51 65.318 0.045 7.17 1.61 8.69
6/15/2022 8:45:00 PM 18.44 65.192 0.045 7.16 1.04 8.67
6/15/2022 9:00:00 PM 18.38 65.084 0.045 7.14 1.14 8.66
6/15/2022 9:15:00 PM 18.33 64.994 0.045 7.13 1.12 8.65
6/15/2022 9:30:00 PM 18.28 64.904 0.045 7.12 1.15 8.64
6/15/2022 9:45:00 PM 18.24 64.832 0.045 7.1 1.21 8.63
6/15/2022 10:00:00 PM 18.19 64.742 0.045 7.1 1.49 8.64
6/15/2022 10:15:00 PM 18.15 64.67 0.046 7.09 1.15 8.66
6/15/2022 10:30:00 PM 18.11 64.598 0.046 7.09 1.18 8.65
6/15/2022 10:45:00 PM 18.08 64.544 0.046 7.09 1.17 8.66
6/15/2022 11:00:00 PM 18.05 64.49 0.046 7.09 1.04 8.66
6/15/2022 11:15:00 PM 18 64.4 0.046 7.08 1.08 8.68
6/15/2022 11:30:00 PM 17.96 64.328 0.046 7.08 1.18 8.69
6/15/2022 11:45:00 PM 17.92 64.256 0.046 7.07 1.15 8.69
6/16/2022 12:00:00 AM 17.88 64.184 0.046 7.08 1.2 8.7
6/16/2022 12:15:00 AM 17.84 64.112 0.046 7.07 1.44 8.64
6/16/2022 12:30:00 AM 17.8 64.04 0.046 7.07 1.31 8.71
6/16/2022 12:45:00 AM 17.76 63.968 0.046 7.06 1.29 8.73
6/16/2022 1:00:00 AM 17.71 63.878 0.046 7.06 1.32 8.74
6/16/2022 1:15:00 AM 17.68 63.824 0.046 7.05 1.27 8.72
6/16/2022 1:30:00 AM 17.64 63.752 0.046 7.06 1.18 8.75
6/16/2022 1:45:00 AM 17.6 63.68 0.046 7.06 1.54 8.77
6/16/2022 2:00:00 AM 17.56 63.608 0.046 7.06 1.09 8.77
6/16/2022 2:15:00 AM 17.53 63.554 0.046 7.05 1.32 8.76
6/16/2022 2:30:00 AM 17.49 63.482 0.046 7.05 1.29 8.79
6/16/2022 2:45:00 AM 17.46 63.428 0.046 7.06 1.21 8.8
6/16/2022 3:00:00 AM 17.43 63.374 0.046 7.06 1.14 8.79
6/16/2022 3:15:00 AM 17.39 63.302 0.046 7.07 1.14 8.8
6/16/2022 3:30:00 AM 17.36 63.248 0.046 7.05 1.17 8.8
6/16/2022 3:45:00 AM 17.34 63.212 0.046 7.06 1.25 8.81
6/16/2022 4:00:00 AM 17.32 63.176 0.046 7.06 1.41 8.82
6/16/2022 4:15:00 AM 17.29 63.122 0.046 7.06 1.2 8.82
6/16/2022 4:30:00 AM 17.26 63.068 0.046 7.07 1.19 8.83
6/16/2022 4:45:00 AM 17.23 63.014 0.046 7.08 1.15 8.85
6/16/2022 5:00:00 AM 17.21 62.978 0.046 7.07 11.3 8.84
6/16/2022 5:15:00 AM 17.18 62.924 0.046 7.05 1.34 8.84
6/16/2022 5:30:00 AM 17.15 62.87 0.046 7.05 1.43 8.86
6/16/2022 5:45:00 AM 17.13 62.834 0.046 7.05 1.36 8.85
6/16/2022 6:00:00 AM 17.09 62.762 0.046 7.05 1.22 8.88
6/16/2022 6:15:00 AM 17.07 62.726 0.047 7.05 1.16 8.9
6/16/2022 6:30:00 AM 17.04 62.672 0.046 7.05 1.09 8.9
6/16/2022 6:45:00 AM 17.02 62.636 0.046 7.04 1.23 8.92
6/16/2022 7:00:00 AM 17 62.6 0.046 7.04 1.4 8.93
6/16/2022 7:15:00 AM 16.99 62.582 0.046 7.04 1.11 8.97
6/16/2022 7:30:00 AM 17 62.6 0.046 7.04 1.09 9
6/16/2022 7:45:00 AM 17.01 62.618 0.046 7.06 1.15 9.06
6/16/2022 8:00:00 AM 17.02 62.636 0.046 7.06 1.07 9.09
6/16/2022 8:15:00 AM 17.03 62.654 0.046 7.09 1.09 9.1
6/16/2022 8:30:00 AM 17.07 62.726 0.046 7.09 1.28 9.14
6/16/2022 8:45:00 AM 17.12 62.816 0.046 7.14 1.17 9.16
6/16/2022 9:00:00 AM 17.16 62.888 0.046 7.12 1.16 9.16
6/16/2022 9:15:00 AM 17.22 62.996 0.046 7.12 1.1 9.18
6/16/2022 9:30:00 AM 17.28 63.104 0.046 7.15 1.05 9.17
6/16/2022 9:45:00 AM 17.38 63.284 0.045 7.17 1.06 9.19
6/16/2022 10:00:00 AM 17.51 63.518 0.046 7.23 1.16 9.23
6/16/2022 10:15:00 AM 17.64 63.752 0.046 7.2 1.1 9.22
6/16/2022 10:30:00 AM 17.79 64.022 0.045 7.23 1.06 9.23
6/16/2022 10:45:00 AM 17.97 64.346 0.045 7.25 1.21 9.22
6/16/2022 11:00:00 AM 18.12 64.616 0.045 7.26 1.17 9.22
6/16/2022 11:15:00 AM 18.31 64.958 0.045 7.28 1.1 9.18
6/16/2022 11:30:00 AM 18.45 65.21 0.045 7.31 1.14 9.16
6/16/2022 11:45:00 AM 18.65 65.57 0.045 7.32 1.14 9.16
6/16/2022 12:00:00 PM 18.75 65.75 0.045 7.32 1.18 9.13
6/16/2022 12:15:00 PM 18.93 66.074 0.044 7.35 1.13 9.12
6/16/2022 12:30:00 PM 19.09 66.362 0.045 7.34 1.11 9.11
6/16/2022 12:45:00 PM 19.28 66.704 0.045 7.33 1.62 9.07
6/16/2022 1:00:00 PM 19.44 66.992 0.045 7.34 1.17 9.06
6/16/2022 1:15:00 PM 19.58 67.244 0.045 7.35 1.27 9.05
6/16/2022 1:30:00 PM 19.77 67.586 0.045 7.35 1.22 9.01
6/16/2022 1:45:00 PM 19.96 67.92799 0.045 7.37 1.1 9
6/16/2022 2:00:00 PM 20.02 68.036 0.045 7.37 1.15 8.96
6/16/2022 2:15:00 PM 20.15 68.27 0.045 7.37 1.17 8.94
6/16/2022 2:30:00 PM 20.32 68.576 0.045 7.35 1.22 8.92
6/16/2022 2:45:00 PM 20.54 68.972 0.045 7.35 1.26 8.87
6/16/2022 3:00:00 PM 20.67 69.206 0.045 7.36 1.27 8.83
6/16/2022 3:15:00 PM 20.89 69.602 0.045 7.36 0.99 8.81
6/16/2022 3:30:00 PM 20.98 69.764 0.045 7.35 1.03 8.74
6/16/2022 3:45:00 PM 21.02 69.836 0.045 7.35 1.31 8.69
6/16/2022 4:00:00 PM 21.08 69.944 0.045 7.34 1.13 8.64
6/16/2022 4:15:00 PM 21.1 69.98 0.045 7.34 1.24 8.62
6/16/2022 4:30:00 PM 21.08 69.944 0.045 7.34 1.07 8.61
6/16/2022 4:45:00 PM 20.99 69.782 0.045 7.31 1.09 8.57
6/16/2022 5:00:00 PM 20.83 69.494 0.045 7.3 1.02 8.52
6/16/2022 5:15:00 PM 20.65 69.17 0.045 7.29 1.1 8.47
6/16/2022 5:30:00 PM 20.44 68.792 0.045 7.25 1.04 8.38
6/16/2022 5:45:00 PM 20.31 68.558 0.045 7.24 1.22 8.34
6/16/2022 6:00:00 PM 20.17 68.306 0.045 7.21 1.14 8.31
6/16/2022 6:15:00 PM 20.03 68.054 0.045 7.19 1.33 8.27
6/16/2022 6:30:00 PM 19.88 67.784 0.045 7.18 1.14 8.28
6/16/2022 6:45:00 PM 19.76 67.568 0.045 7.18 1.23 8.3
6/16/2022 7:00:00 PM 19.64 67.352 0.045 7.17 1.2 8.35
6/16/2022 7:15:00 PM 19.55 67.19 0.045 7.17 1.22 8.38
6/16/2022 7:30:00 PM 19.47 67.046 0.045 7.17 1.12 8.4
6/16/2022 7:45:00 PM 19.41 66.938 0.045 7.17 1.19 8.39
6/16/2022 8:00:00 PM 19.33 66.794 0.045 7.16 1.22 8.42
6/16/2022 8:15:00 PM 19.27 66.686 0.045 7.16 1.45 8.4
6/16/2022 8:30:00 PM 19.22 66.596 0.045 7.15 1.3 8.38
6/16/2022 8:45:00 PM 19.16 66.488 0.045 7.15 1.53 8.43
6/16/2022 9:00:00 PM 19.1 66.38 0.045 7.15 1.57 8.45
6/16/2022 9:15:00 PM 19.04 66.272 0.045 7.14 1.22 8.44
6/16/2022 9:30:00 PM 19 66.2 0.045 7.13 1.23 8.42
6/16/2022 9:45:00 PM 18.94 66.092 0.045 7.13 1.22 8.44
6/16/2022 10:00:00 PM 18.89 66.002 0.045 7.14 1.29 8.46
6/16/2022 10:15:00 PM 18.84 65.912 0.045 7.13 1.36 8.46
6/16/2022 10:30:00 PM 18.78 65.804 0.045 7.13 1.25 8.49
6/16/2022 10:45:00 PM 18.74 65.732 0.045 7.13 1.2 8.5
6/16/2022 11:00:00 PM 18.69 65.642 0.045 7.13 1.17 8.51
6/16/2022 11:15:00 PM 18.63 65.534 0.046 7.12 1.43 8.51
6/16/2022 11:30:00 PM 18.58 65.444 0.045 7.12 1.26 8.53
6/16/2022 11:45:00 PM 18.54 65.372 0.045 7.13 1.33 8.54
6/17/2022 12:00:00 AM 18.49 65.282 0.045 7.12 1.51 8.55
6/17/2022 12:15:00 AM 18.44 65.192 0.045 7.12 1.2 8.55
6/17/2022 12:30:00 AM 18.4 65.12 0.045 7.13 1.15 8.56
6/17/2022 12:45:00 AM 18.36 65.048 0.045 7.12 1.2 8.56
6/17/2022 1:00:00 AM 18.33 64.994 0.045 7.11 1.41 8.57
6/17/2022 1:15:00 AM 18.29 64.922 0.045 7.13 1.21 8.59
6/17/2022 1:30:00 AM 18.25 64.85 0.045 7.13 1.12 8.57
6/17/2022 1:45:00 AM 18.21 64.778 0.045 7.13 1.28 8.57
6/17/2022 2:00:00 AM 18.18 64.724 0.045 7.14 1.4 8.58
6/17/2022 2:15:00 AM 18.14 64.652 0.045 7.15 1.46 8.61
6/17/2022 2:30:00 AM 18.1 64.58 0.045 7.15 1.3 8.62
6/17/2022 2:45:00 AM 18.06 64.508 0.045 7.16 1.41 8.63
6/17/2022 3:00:00 AM 18.03 64.454 0.044 7.16 1.21 8.64
6/17/2022 3:15:00 AM 17.99 64.382 0.044 7.16 1.25 8.66
6/17/2022 3:30:00 AM 17.95 64.31 0.044 7.15 1.28 8.62
6/17/2022 3:45:00 AM 17.91 64.238 0.044 7.15 1.15 8.65
6/17/2022 4:00:00 AM 17.88 64.184 0.044 7.16 1.51 8.65
6/17/2022 4:15:00 AM 17.84 64.112 0.044 7.16 1.16 8.65
6/17/2022 4:30:00 AM 17.82 64.076 0.044 7.18 1.25 8.65
6/17/2022 4:45:00 AM 17.79 64.022 0.044 7.18 1.22 8.67
6/17/2022 5:00:00 AM 17.77 63.986 0.044 7.17 1.32 8.65
6/17/2022 5:15:00 AM 17.73 63.914 0.044 7.18 1.33 8.68
6/17/2022 5:30:00 AM 17.68 63.824 0.044 7.19 1.29 8.69
6/17/2022 5:45:00 AM 17.64 63.752 0.044 7.19 1.35 8.71
6/17/2022 6:00:00 AM 17.61 63.698 0.044 7.16 1.31 8.72
6/17/2022 6:15:00 AM 17.59 63.662 0.045 7.16 1.26 8.72
6/17/2022 6:30:00 AM 17.58 63.644 0.044 7.17 1.16 8.74
6/17/2022 6:45:00 AM 17.56 63.608 0.044 7.18 1.12 8.78
6/17/2022 7:00:00 AM 17.55 63.59 0.045 7.18 1.17 8.82
6/17/2022 7:15:00 AM 17.55 63.59 0.044 7.17 1.34 8.84
6/17/2022 7:30:00 AM 17.55 63.59 0.044 7.19 1.15 8.89
6/17/2022 7:45:00 AM 17.55 63.59 0.044 7.2 1.25 8.91
6/17/2022 8:00:00 AM 17.57 63.626 0.044 7.2 1.31 8.89
6/17/2022 8:15:00 AM 17.58 63.644 0.044 7.19 1.15 8.94
6/17/2022 8:30:00 AM 17.61 63.698 0.044 7.19 1.16 8.94
6/17/2022 8:45:00 AM 17.64 63.752 0.044 7.21 1.09 8.94
6/17/2022 9:00:00 AM 17.68 63.824 0.044 7.22 1.12 8.94
6/17/2022 9:15:00 AM 17.74 63.932 0.044 7.23 1.12 8.95
6/17/2022 9:30:00 AM 17.79 64.022 0.043 7.23 1.17 8.95
6/17/2022 9:45:00 AM 17.88 64.184 0.044 7.25 1.14 8.95
6/17/2022 10:00:00 AM 17.99 64.382 0.044 7.27 1.33 8.96
6/17/2022 10:15:00 AM 18.09 64.562 0.044 7.27 1.32 8.96
6/17/2022 10:30:00 AM 18.19 64.742 0.044 7.27 1.16 8.96
6/17/2022 10:45:00 AM 18.27 64.886 0.044 7.27 1.12 8.96
6/17/2022 11:00:00 AM 18.37 65.066 0.044 7.3 1.05 8.98
6/17/2022 11:15:00 AM 18.48 65.264 0.044 7.29 1.18 8.97
6/17/2022 11:30:00 AM 18.61 65.498 0.044 7.31 1.19 8.97
6/17/2022 11:45:00 AM 18.75 65.75 0.044 7.3 1.12 8.94
6/17/2022 12:00:00 PM 18.94 66.092 0.044 7.31 1.17 8.94
6/17/2022 12:15:00 PM 19.09 66.362 0.044 7.33 1.26 8.93
6/17/2022 12:30:00 PM 19.29 66.722 0.044 7.29 1.33 8.91
6/17/2022 12:45:00 PM 19.44 66.992 0.044 7.31 1.26 8.89
6/17/2022 1:00:00 PM 19.58 67.244 0.044 7.3 2.38 8.83
6/17/2022 1:15:00 PM 19.79 67.622 0.044 7.32 1.11 8.83
6/17/2022 1:30:00 PM 20.1 68.18 0.044 7.32 1.18 8.83
6/17/2022 1:45:00 PM 20.44 68.792 0.045 7.3 1.06 8.79
6/17/2022 2:00:00 PM 20.74 69.332 0.045 7.3 1.16 8.76
6/17/2022 2:15:00 PM 20.95 69.71 0.045 7.32 1.16 8.72
6/17/2022 2:30:00 PM 21.02 69.836 0.045 7.34 1.08 8.68
6/17/2022 2:45:00 PM 21.15 70.07 0.046 7.33 1.14 8.65
6/17/2022 3:00:00 PM 21.25 70.25 0.045 7.33 1.22 8.62
6/17/2022 3:15:00 PM 21.32 70.376 0.045 7.33 1.23 8.6
6/17/2022 3:30:00 PM 21.24 70.232 0.045 7.33 1.15 8.59
6/17/2022 3:45:00 PM 21.13 70.034 0.045 7.31 1.09 8.55
6/17/2022 4:00:00 PM 21.06 69.908 0.045 7.31 1.04 8.56
6/17/2022 4:15:00 PM 20.96 69.728 0.045 7.31 1.13 8.56
6/17/2022 4:30:00 PM 20.77 69.386 0.045 7.3 1.12 8.55
6/17/2022 4:45:00 PM 20.56 69.008 0.045 7.29 1.04 8.55
6/17/2022 5:00:00 PM 20.44 68.792 0.045 7.29 1.18 8.56
6/17/2022 5:15:00 PM 20.21 68.378 0.045 7.28 1.26 8.54
6/17/2022 5:30:00 PM 19.97 67.946 0.044 7.26 1.09 8.55
6/17/2022 5:45:00 PM 19.84 67.712 0.044 7.25 1.09 8.54
6/17/2022 6:00:00 PM 19.69 67.442 0.044 7.23 1.14 8.54
6/17/2022 6:15:00 PM 19.55 67.19 0.045 7.22 1.15 8.53
6/17/2022 6:30:00 PM 19.45 67.01 0.044 7.22 1.17 8.53
6/17/2022 6:45:00 PM 19.36 66.848 0.044 7.21 1.21 8.56
6/17/2022 7:00:00 PM 19.27 66.686 0.044 7.22 1.11 8.56
6/17/2022 7:15:00 PM 19.18 66.524 0.044 7.2 1.1 8.57
6/17/2022 7:30:00 PM 19.1 66.38 0.044 7.2 1.15 8.56
6/17/2022 7:45:00 PM 19 66.2 0.044 7.2 1.09 8.55
6/17/2022 8:00:00 PM 18.92 66.056 0.044 7.19 1.14 8.53
6/17/2022 8:15:00 PM 18.83 65.894 0.044 7.19 1.24 8.55
6/17/2022 8:30:00 PM 18.74 65.732 0.045 7.18 1.21 8.54
6/17/2022 8:45:00 PM 18.62 65.516 0.044 7.16 1.25 8.54
6/17/2022 9:00:00 PM 18.54 65.372 0.045 7.15 1.24 8.52
6/17/2022 9:15:00 PM 18.45 65.21 0.044 7.14 1.11 8.52
6/17/2022 9:30:00 PM 18.37 65.066 0.044 7.14 1.26 8.53
6/17/2022 9:45:00 PM 18.3 64.94 0.044 7.14 1.25 8.54
6/17/2022 10:00:00 PM 18.23 64.814 0.044 7.13 1.23 8.53
6/17/2022 10:15:00 PM 18.15 64.67 0.044 7.13 1.26 8.55
6/17/2022 10:30:00 PM 18.08 64.544 0.045 7.13 1.16 8.55
6/17/2022 10:45:00 PM 18.01 64.418 0.044 7.12 1.27 8.56
6/17/2022 11:00:00 PM 17.94 64.292 0.045 7.13 1.23 8.59
6/17/2022 11:15:00 PM 17.87 64.166 0.044 7.12 1.33 8.59
6/17/2022 11:30:00 PM 17.8 64.04 0.044 7.14 1.25 8.61
6/17/2022 11:45:00 PM 17.74 63.932 0.044 7.12 1.35 8.62
6/18/2022 12:00:00 AM 17.69 63.842 0.044 7.12 1.23 8.61
6/18/2022 12:15:00 AM 17.63 63.734 0.044 7.12 1.41 8.64
6/18/2022 12:30:00 AM 17.57 63.626 0.044 7.13 1.56 8.66
6/18/2022 12:45:00 AM 17.49 63.482 0.044 7.14 1.18 8.67
6/18/2022 1:00:00 AM 17.41 63.338 0.044 7.14 1.38 8.7
6/18/2022 1:15:00 AM 17.33 63.194 0.044 7.15 1.35 8.72
6/18/2022 1:30:00 AM 17.27 63.086 0.043 7.13 230.64 8.71
6/18/2022 1:45:00 AM 17.2 62.96 0.044 7.13 5.06 8.73
6/18/2022 2:00:00 AM 17.12 62.816 0.043 7.13 1.69 8.76
6/18/2022 2:15:00 AM 17.04 62.672 0.044 7.14 2.23 8.78
6/18/2022 2:30:00 AM 16.97 62.546 0.044 7.14 2.36 8.78
6/18/2022 2:45:00 AM 16.89 62.402 0.043 7.13 1.54 8.8
6/18/2022 3:00:00 AM 16.81 62.258 0.043 7.14 1.37 8.82
6/18/2022 3:15:00 AM 16.75 62.15 0.043 7.15 1.31 8.84
6/18/2022 3:30:00 AM 16.68 62.024 0.043 7.14 1.27 8.85
6/18/2022 3:45:00 AM 16.62 61.916 0.043 7.14 1.34 8.85
6/18/2022 4:00:00 AM 16.55 61.79 0.043 7.13 1.52 8.87
6/18/2022 4:15:00 AM 16.49 61.682 0.043 7.14 1.33 8.9
6/18/2022 4:30:00 AM 16.44 61.592 0.043 7.15 1.35 8.9
6/18/2022 4:45:00 AM 16.39 61.502 0.043 7.13 1.44 8.9
6/18/2022 5:00:00 AM 16.33 61.394 0.043 7.15 1.37 8.93
6/18/2022 5:15:00 AM 16.28 61.304 0.043 7.15 1.32 8.96
6/18/2022 5:30:00 AM 16.24 61.232 0.043 7.14 1.51 8.94
6/18/2022 5:45:00 AM 16.2 61.16 0.043 7.15 1.56 8.96
6/18/2022 6:00:00 AM 16.15 61.07 0.043 7.14 1.5 8.96
6/18/2022 6:15:00 AM 16.09 60.962 0.043 7.14 1.57 8.98
6/18/2022 6:30:00 AM 16.02 60.836 0.043 7.15 1.35 9.01
6/18/2022 6:45:00 AM 15.95 60.71 0.043 7.14 1.34 9.05
6/18/2022 7:00:00 AM 15.89 60.602 0.043 7.15 1.42 9.07
6/18/2022 7:15:00 AM 15.81 60.458 0.043 7.16 1.23 9.11
6/18/2022 7:30:00 AM 15.75 60.35 0.043 7.17 1.25 9.14
6/18/2022 7:45:00 AM 15.69 60.242 0.042 7.17 1.24 9.19
6/18/2022 8:00:00 AM 15.63 60.134 0.042 7.17 1.16 9.2
6/18/2022 8:15:00 AM 15.55 59.99 0.042 7.17 1.23 9.24
6/18/2022 8:30:00 AM 15.49 59.882 0.042 7.18 1.38 9.29
6/18/2022 8:45:00 AM 15.44 59.792 0.042 7.2 1.33 9.34
6/18/2022 9:00:00 AM 15.41 59.738 0.042 7.19 1.3 9.36
6/18/2022 9:15:00 AM 15.37 59.666 0.042 7.2 1.17 9.41
6/18/2022 9:30:00 AM 15.35 59.63 0.042 7.22 1.26 9.48
6/18/2022 9:45:00 AM 15.3 59.54 0.042 7.23 1.32 9.51
6/18/2022 10:00:00 AM 15.27 59.486 0.042 7.22 1.28 9.5
6/18/2022 10:15:00 AM 15.23 59.414 0.042 7.24 1.18 9.52
6/18/2022 10:30:00 AM 15.18 59.324 0.042 7.24 1.24 9.53
6/18/2022 10:45:00 AM 15.14 59.252 0.042 7.24 1.34 9.56
6/18/2022 11:00:00 AM 15.12 59.216 0.042 7.24 1.36 9.59
6/18/2022 11:15:00 AM 15.1 59.18 0.042 7.25 1.22 9.61
6/18/2022 11:30:00 AM 15.12 59.216 0.042 7.27 1.08 9.66
6/18/2022 11:45:00 AM 15.14 59.252 0.042 7.28 1.38 9.69
6/18/2022 12:00:00 PM 15.18 59.324 0.042 7.29 1.12 9.71
6/18/2022 12:15:00 PM 15.21 59.378 0.041 7.3 1.29 9.74
6/18/2022 12:30:00 PM 15.38 59.684 0.042 7.31 1.18 9.72
6/18/2022 12:45:00 PM 15.62 60.116 0.042 7.29 1.15 9.7
6/18/2022 1:00:00 PM 15.81 60.458 0.042 7.31 1.11 9.66
6/18/2022 1:15:00 PM 16.14 61.052 0.042 7.29 1.44 9.62
6/18/2022 1:30:00 PM 16.51 61.718 0.043 7.32 1.41 9.57
6/18/2022 1:45:00 PM 16.82 62.276 0.043 7.31 1.27 9.52
6/18/2022 2:00:00 PM 17.22 62.996 0.043 7.31 1.08 9.48
6/18/2022 2:15:00 PM 17.49 63.482 0.044 7.28 1.16 9.41
6/18/2022 2:30:00 PM 17.79 64.022 0.044 7.32 1.17 9.36
6/18/2022 2:45:00 PM 18.03 64.454 0.044 7.33 1.16 9.3
6/18/2022 3:00:00 PM 18.24 64.832 0.044 7.32 1.27 9.25
6/18/2022 3:15:00 PM 18.4 65.12 0.044 7.31 1.18 9.21
6/18/2022 3:30:00 PM 18.33 64.994 0.044 7.31 1.31 9.15
6/18/2022 3:45:00 PM 18.24 64.832 0.044 7.29 1.52 9.11
6/18/2022 4:00:00 PM 18.17 64.706 0.044 7.29 1.13 9.08
6/18/2022 4:15:00 PM 18.09 64.562 0.044 7.28 1.21 9.08
6/18/2022 4:30:00 PM 17.96 64.328 0.044 7.27 1.39 9.08
6/18/2022 4:45:00 PM 17.8 64.04 0.044 7.27 1.5 9.09
6/18/2022 5:00:00 PM 17.67 63.806 0.043 7.25 1.14 9.11
6/18/2022 5:15:00 PM 17.41 63.338 0.043 7.26 1.25 9.12
6/18/2022 5:30:00 PM 17.15 62.87 0.043 7.25 1.44 9.09
6/18/2022 5:45:00 PM 16.97 62.546 0.043 7.26 1.21 9.14
6/18/2022 6:00:00 PM 16.78 62.204 0.042 7.23 1.22 9.15
6/18/2022 6:15:00 PM 16.65 61.97 0.043 7.21 1.25 9.15
6/18/2022 6:30:00 PM 16.52 61.736 0.042 7.21 1.31 9.15
6/18/2022 6:45:00 PM 16.4 61.52 0.043 7.19 1.21 9.17
6/18/2022 7:00:00 PM 16.3 61.34 0.042 7.19 1.19 9.18
6/18/2022 7:15:00 PM 16.2 61.16 0.042 7.17 1.49 9.18
6/18/2022 7:30:00 PM 16.09 60.962 0.042 7.17 1.16 9.2
6/18/2022 7:45:00 PM 15.98 60.764 0.042 7.17 1.21 9.2
6/18/2022 8:00:00 PM 15.88 60.584 0.042 7.16 1.25 9.21
6/18/2022 8:15:00 PM 15.78 60.404 0.043 7.15 1.09 9.22
6/18/2022 8:30:00 PM 15.67 60.206 0.043 7.16 1.21 9.23
6/18/2022 8:45:00 PM 15.54 59.972 0.043 7.16 1.18 9.24
6/18/2022 9:00:00 PM 15.43 59.774 0.043 7.16 1.21 9.25
6/18/2022 9:15:00 PM 15.33 59.594 0.043 7.15 1.25 9.24
6/18/2022 9:30:00 PM 15.24 59.432 0.043 7.16 1.28 9.26
6/18/2022 9:45:00 PM 15.15 59.27 0.043 7.14 1.5 9.26
6/18/2022 10:00:00 PM 15.07 59.126 0.043 7.14 1.27 9.28
6/18/2022 10:15:00 PM 14.97 58.946 0.043 7.13 1.32 9.3
6/18/2022 10:30:00 PM 14.86 58.748 0.043 7.14 1.32 9.33
6/18/2022 10:45:00 PM 14.78 58.604 0.043 7.13 1.52 9.34
6/18/2022 11:00:00 PM 14.69 58.442 0.043 7.15 1.83 9.37
6/18/2022 11:15:00 PM 14.58 58.244 0.043 7.14 1.24 9.4
6/18/2022 11:30:00 PM 14.49 58.082 0.043 7.13 1.45 9.41
6/18/2022 11:45:00 PM 14.39 57.902 0.043 7.14 1.24 9.44
6/19/2022 12:00:00 AM 14.3 57.74 0.043 7.15 1.3 9.45
6/19/2022 12:15:00 AM 14.2 57.56 0.043 7.13 1.31 9.48
6/19/2022 12:30:00 AM 14.1 57.38 0.043 7.13 1.26 9.51
6/19/2022 12:45:00 AM 14 57.2 0.043 7.1 1.28 9.53
6/19/2022 1:00:00 AM 13.98 57.164 0.043 7.11 1.33 9.51
6/19/2022 1:15:00 AM 13.89 57.002 0.043 7.12 1.22 9.54
6/19/2022 1:30:00 AM 13.79 56.822 0.043 7.16 9.76 9.54
6/19/2022 1:45:00 AM 13.69 56.642 0.043 7.15 1.72 9.6
6/19/2022 2:00:00 AM 13.6 56.48 0.043 7.14 1.31 9.61
6/19/2022 2:15:00 AM 13.51 56.318 0.043 7.14 1.19 9.64
6/19/2022 2:30:00 AM 13.42 56.156 0.043 7.11 3.38 9.59
6/19/2022 2:45:00 AM 13.33 55.994 0.043 7.12 4.53 9.63
6/19/2022 3:00:00 AM 13.24 55.832 0.044 7.13 1.62 9.63
6/19/2022 3:15:00 AM 13.13 55.634 0.044 7.13 1.31 9.71
6/19/2022 3:30:00 AM 13.06 55.508 0.044 7.13 2.21 9.73
6/19/2022 3:45:00 AM 12.97 55.346 0.044 7.14 1.31 9.77
6/19/2022 4:00:00 AM 12.87 55.166 0.044 7.13 1.84 9.74
6/19/2022 4:15:00 AM 12.79 55.022 0.044 7.15 3.8 9.76
6/19/2022 4:30:00 AM 12.71 54.878 0.044 7.16 1.21 9.77
6/19/2022 4:45:00 AM 12.63 54.734 0.044 7.15 1.27 9.79
6/19/2022 5:00:00 AM 12.53 54.554 0.045 7.15 1.32 9.85
6/19/2022 5:15:00 AM 12.45 54.41 0.045 7.15 1.42 9.84
6/19/2022 5:30:00 AM 12.38 54.284 0.045 7.17 1.24 9.88
6/19/2022 5:45:00 AM 12.29 54.122 0.045 7.19 1.69 9.87
6/19/2022 6:00:00 AM 12.21 53.978 0.045 7.17 3.24 9.9
6/19/2022 6:15:00 AM 12.13 53.834 0.045 7.17 1.74 9.93
6/19/2022 6:30:00 AM 12.06 53.708 0.046 7.16 1.46 9.96
6/19/2022 6:45:00 AM 11.98 53.564 0.046 7.16 5.45 10.04
6/19/2022 7:00:00 AM 11.92 53.456 0.046 7.16 3 10.11
6/19/2022 7:15:00 AM 11.86 53.348 0.046 7.21 1.59 10.15
6/19/2022 7:30:00 AM 11.83 53.294 0.047 7.21 1.3 10.18
6/19/2022 7:45:00 AM 11.81 53.258 0.047 7.18 1.27 10.2
6/19/2022 8:00:00 AM 11.81 53.258 0.047 7.23 1.19 10.24
6/19/2022 8:15:00 AM 11.82 53.276 0.047 7.24 1.23 10.26
6/19/2022 8:30:00 AM 11.85 53.33 0.046 7.25 1.21 10.29
6/19/2022 8:45:00 AM 11.89 53.402 0.046 7.21 1.24 10.3
6/19/2022 9:00:00 AM 11.95 53.51 0.046 7.24 1.15 10.31
6/19/2022 9:15:00 AM 12.08 53.744 0.046 7.27 1.18 10.34
6/19/2022 9:30:00 AM 12.19 53.942 0.046 7.28 1.36 10.34
6/19/2022 9:45:00 AM 12.34 54.212 0.046 7.27 1.35 10.34
6/19/2022 10:00:00 AM 12.5 54.5 0.046 7.3 1.2 10.33
6/19/2022 10:15:00 AM 12.66 54.788 0.046 7.26 1.36 10.28
6/19/2022 10:30:00 AM 12.81 55.058 0.045 7.3 1.15 10.27
6/19/2022 10:45:00 AM 12.95 55.31 0.045 7.31 1.17 10.2
6/19/2022 11:00:00 AM 13.09 55.562 0.045 7.3 1.19 10.19
6/19/2022 11:15:00 AM 13.25 55.85 0.046 7.29 1.2 10.17
6/19/2022 11:30:00 AM 13.43 56.174 0.046 7.29 1.25 10.15
6/19/2022 11:45:00 AM 13.66 56.588 0.046 7.32 1.16 10.14
6/19/2022 12:00:00 PM 13.89 57.002 0.046 7.3 1.14 10.11
6/19/2022 12:15:00 PM 14.18 57.524 0.046 7.32 1.23 10.06
6/19/2022 12:30:00 PM 14.45 58.01 0.046 7.32 1.94 10
6/19/2022 12:45:00 PM 14.77 58.586 0.046 7.33 1.39 9.91
6/19/2022 1:00:00 PM 15.09 59.162 0.046 7.32 1.39 9.88
6/19/2022 1:15:00 PM 15.42 59.756 0.046 7.3 2.51 9.78
6/19/2022 1:30:00 PM 15.77 60.386 0.046 7.31 1.29 9.77
6/19/2022 1:45:00 PM 16.03 60.854 0.046 7.3 1.49 9.73
6/19/2022 2:00:00 PM 16.41 61.538 0.046 7.32 1.23 9.7
6/19/2022 2:15:00 PM 16.71 62.078 0.046 7.31 1.68 9.6
6/19/2022 2:30:00 PM 16.98 62.564 0.046 7.31 1.7 9.57
6/19/2022 2:45:00 PM 17.22 62.996 0.046 7.31 2.05 9.54
6/19/2022 3:00:00 PM 17.36 63.248 0.046 7.34 1.06 9.57
6/19/2022 3:15:00 PM 17.52 63.536 0.046 7.33 1.19 9.5
6/19/2022 3:30:00 PM 17.46 63.428 0.046 7.34 1.12 9.46
6/19/2022 3:45:00 PM 17.36 63.248 0.046 7.31 1.08 9.4
6/19/2022 4:00:00 PM 17.31 63.158 0.046 7.32 1.22 9.37
6/19/2022 4:15:00 PM 17.24 63.032 0.046 7.32 1.09 9.36
6/19/2022 4:30:00 PM 17.14 62.852 0.046 7.31 1.1 9.34
6/19/2022 4:45:00 PM 16.94 62.492 0.046 7.3 1.29 9.38
6/19/2022 5:00:00 PM 16.81 62.258 0.046 7.28 1.11 9.39
6/19/2022 5:15:00 PM 16.63 61.934 0.045 7.26 1.13 9.39
6/19/2022 5:30:00 PM 16.39 61.502 0.045 7.28 1.14 9.4
6/19/2022 5:45:00 PM 16.15 61.07 0.045 7.25 1.19 9.41
6/19/2022 6:00:00 PM 15.99 60.782 0.044 7.23 1.15 9.42
6/19/2022 6:15:00 PM 15.86 60.548 0.044 7.25 1.07 9.4
6/19/2022 6:30:00 PM 15.73 60.314 0.044 7.22 4.38 9.37
6/19/2022 6:45:00 PM 15.65 60.17 0.044 7.21 5.55 9.37
6/19/2022 7:00:00 PM 15.58 60.044 0.044 7.21 1.33 9.44
6/19/2022 7:15:00 PM 15.51 59.918 0.044 7.21 1.17 9.43
6/19/2022 7:30:00 PM 15.42 59.756 0.044 7.22 1.15 9.42
6/19/2022 7:45:00 PM 15.33 59.594 0.044 7.22 1.08 9.43
6/19/2022 8:00:00 PM 15.24 59.432 0.044 7.2 1.09 9.43
6/19/2022 8:15:00 PM 15.15 59.27 0.044 7.2 1.06 9.43
6/19/2022 8:30:00 PM 15.06 59.108 0.044 7.2 1.06 9.44
6/19/2022 8:45:00 PM 14.96 58.928 0.044 7.2 2.8 9.42
6/19/2022 9:00:00 PM 14.85 58.73 0.044 7.19 1.39 9.44
6/19/2022 9:15:00 PM 14.76 58.568 0.044 7.18 1.2 9.43
6/19/2022 9:30:00 PM 14.66 58.388 0.044 7.18 3.79 9.42
6/19/2022 9:45:00 PM 14.57 58.226 0.044 7.18 1.17 9.44
6/19/2022 10:00:00 PM 14.48 58.064 0.043 7.18 1.13 9.45
6/19/2022 10:15:00 PM 14.39 57.902 0.044 7.18 1.32 9.47
6/19/2022 10:30:00 PM 14.31 57.758 0.043 7.17 1.43 9.48
6/19/2022 10:45:00 PM 14.22 57.596 0.044 7.16 1.14 9.51
6/19/2022 11:00:00 PM 14.14 57.452 0.044 7.16 1.2 9.51
6/19/2022 11:15:00 PM 14.05 57.29 0.043 7.13 1.53 9.53
6/19/2022 11:30:00 PM 13.96 57.128 0.044 7.12 5.17 9.51
6/19/2022 11:45:00 PM 13.87 56.966 0.044 7.17 1.14 9.58
6/20/2022 12:00:00 AM 13.78 56.804 0.043 7.18 1.15 9.6
6/20/2022 12:15:00 AM 13.7 56.66 0.043 7.18 1.07 9.62
6/20/2022 12:30:00 AM 13.61 56.498 0.043 7.14 1.13 9.64
6/20/2022 12:45:00 AM 13.52 56.336 0.043 7.14 1.96 9.62
6/20/2022 1:00:00 AM 13.43 56.174 0.043 7.16 1.38 9.65
6/20/2022 1:15:00 AM 13.34 56.012 0.043 7.13 1.24 9.68
6/20/2022 1:30:00 AM 13.26 55.868 0.043 7.12 1.07 9.68
6/20/2022 1:45:00 AM 13.17 55.706 0.043 7.15 1.24 9.73
6/20/2022 2:00:00 AM 13.08 55.544 0.043 7.17 1.11 9.75
6/20/2022 2:15:00 AM 13 55.4 0.043 7.14 1.88 9.78
6/20/2022 2:30:00 AM 12.91 55.238 0.043 7.13 1.33 9.78
6/20/2022 2:45:00 AM 12.83 55.094 0.043 7.13 2.11 9.82
6/20/2022 3:00:00 AM 12.76 54.968 0.043 7.17 1.15 9.79
6/20/2022 3:15:00 AM 12.69 54.842 0.044 7.16 1.39 9.86
6/20/2022 3:30:00 AM 12.62 54.716 0.044 7.14 1.15 9.87
6/20/2022 3:45:00 AM 12.55 54.59 0.044 7.16 1.21 9.88
6/20/2022 4:00:00 AM 12.5 54.5 0.044 7.18 1.24 9.9
6/20/2022 4:15:00 AM 12.44 54.392 0.044 7.18 1.27 9.93
6/20/2022 4:30:00 AM 12.4 54.32 0.044 7.18 1.23 9.93
6/20/2022 4:45:00 AM 12.35 54.23 0.044 7.18 1.02 9.94
6/20/2022 5:00:00 AM 12.31 54.158 0.044 7.19 1.58 9.98
6/20/2022 5:15:00 AM 12.28 54.104 0.044 7.18 2.12 9.96
6/20/2022 5:30:00 AM 12.24 54.032 0.044 7.18 2.95 9.98
6/20/2022 5:45:00 AM 12.21 53.978 0.044 7.2 4.61 10
6/20/2022 6:00:00 AM 12.18 53.924 0.044 7.19 1.13 10.03
6/20/2022 6:15:00 AM 12.15 53.87 0.044 7.21 1.07 10.05
6/20/2022 6:30:00 AM 12.12 53.816 0.044 7.2 1.08 10.05
6/20/2022 6:45:00 AM 12.1 53.78 0.045 7.22 1.15 10.09
6/20/2022 7:00:00 AM 12.09 53.762 0.044 7.23 1.06 10.13
6/20/2022 7:15:00 AM 12.08 53.744 0.045 7.24 1.04 10.13
6/20/2022 7:30:00 AM 12.07 53.726 0.045 7.17 1.09 10.16
6/20/2022 7:45:00 AM 12.07 53.726 0.045 7.23 1.13 10.18
6/20/2022 8:00:00 AM 12.08 53.744 0.045 7.24 1.14 10.24
6/20/2022 8:15:00 AM 12.11 53.798 0.045 7.25 1.08 10.3
6/20/2022 8:30:00 AM 12.15 53.87 0.045 7.27 1.04 10.34
6/20/2022 8:45:00 AM 12.18 53.924 0.045 7.29 1.11 10.35
6/20/2022 9:00:00 AM 12.23 54.014 0.045 7.29 1.05 10.37
6/20/2022 9:15:00 AM 12.28 54.104 0.045 7.28 1.02 10.37
6/20/2022 9:30:00 AM 12.35 54.23 0.044 7.28 1.41 10.37
6/20/2022 9:45:00 AM 12.45 54.41 0.044 7.32 1.09 10.44
6/20/2022 10:00:00 AM 12.53 54.554 0.044 7.31 1.05 10.41
6/20/2022 10:15:00 AM 12.61 54.698 0.044 7.33 1.09 10.4
6/20/2022 10:30:00 AM 12.7 54.86 0.044 7.34 1.09 10.38
6/20/2022 10:45:00 AM 12.81 55.058 0.044 7.34 1.05 10.39
6/20/2022 11:00:00 AM 12.97 55.346 0.044 7.36 1.06 10.4
6/20/2022 11:15:00 AM 13.11 55.598 0.044 7.36 1.06 10.38
6/20/2022 11:30:00 AM 13.3 55.94 0.044 7.35 1.07 10.33
6/20/2022 11:45:00 AM 13.53 56.354 0.044 7.34 1.14 10.31
6/20/2022 12:00:00 PM 13.81 56.858 0.045 7.35 1.15 10.26
6/20/2022 12:15:00 PM 14.15 57.47 0.044 7.34 1.08 10.23
6/20/2022 12:30:00 PM 14.38 57.884 0.045 7.38 1.23 10.16
6/20/2022 12:45:00 PM 14.55 58.19 0.045 7.37 1.27 10.1
6/20/2022 1:00:00 PM 14.81 58.658 0.044 7.39 1.35 10.07
6/20/2022 1:15:00 PM 15.2 59.36 0.045 7.36 1.12 10.01
6/20/2022 1:30:00 PM 15.64 60.152 0.045 7.35 1.19 9.93
6/20/2022 1:45:00 PM 15.68 60.224 0.045 7.36 1.4 9.88
6/20/2022 2:00:00 PM 15.77 60.386 0.045 7.35 1.21 9.87
6/20/2022 2:15:00 PM 15.98 60.764 0.045 7.39 1.31 9.85
6/20/2022 2:30:00 PM 16.26 61.268 0.045 7.37 1.06 9.81
6/20/2022 2:45:00 PM 16.46 61.628 0.045 7.37 0.97 9.79
6/20/2022 3:00:00 PM 16.48 61.664 0.045 7.37 1.22 9.71
6/20/2022 3:15:00 PM 16.49 61.682 0.044 7.38 1.28 9.67
6/20/2022 3:30:00 PM 16.47 61.646 0.044 7.38 1.93 9.65
6/20/2022 3:45:00 PM 16.46 61.628 0.044 7.39 1.17 9.64
6/20/2022 4:00:00 PM 16.45 61.61 0.044 7.43 1 9.68
6/20/2022 4:15:00 PM 16.44 61.592 0.044 7.43 1.03 9.66
6/20/2022 4:30:00 PM 16.37 61.466 0.044 7.41 1.98 9.62
6/20/2022 4:45:00 PM 16.28 61.304 0.044 7.34 2.05 9.58
6/20/2022 5:00:00 PM 16.18 61.124 0.043 7.36 1.16 9.55
6/20/2022 5:15:00 PM 16.1 60.98 0.043 7.32 1.53 9.53
6/20/2022 5:30:00 PM 16.05 60.89 0.043 7.31 1.75 9.55
6/20/2022 5:45:00 PM 15.97 60.746 0.044 7.35 1.03 9.59
6/20/2022 6:00:00 PM 15.91 60.638 0.043 7.31 2.2 9.51
6/20/2022 6:15:00 PM 15.83 60.494 0.043 7.32 1.15 9.46
6/20/2022 6:30:00 PM 15.76 60.368 0.043 7.29 1.09 9.46
6/20/2022 6:45:00 PM 15.71 60.278 0.043 7.31 1.03 9.47
6/20/2022 7:00:00 PM 15.66 60.188 0.043 7.28 1.33 9.42
6/20/2022 7:15:00 PM 15.63 60.134 0.044 7.28 1 9.45
6/20/2022 7:30:00 PM 15.58 60.044 0.044 7.24 1.04 9.43
6/20/2022 7:45:00 PM 15.52 59.936 0.044 7.24 1.08 9.41
6/20/2022 8:00:00 PM 15.47 59.846 0.043 7.23 1.58 9.38
6/20/2022 8:15:00 PM 15.42 59.756 0.043 7.23 1.2 9.32
6/20/2022 8:30:00 PM 15.38 59.684 0.044 7.21 1.12 9.36
6/20/2022 8:45:00 PM 15.32 59.576 0.044 7.21 1.03 9.3
6/20/2022 9:00:00 PM 15.28 59.504 0.044 7.21 1.17 9.33
6/20/2022 9:15:00 PM 15.24 59.432 0.044 7.19 1.29 9.25
6/20/2022 9:30:00 PM 15.21 59.378 0.044 7.18 1.55 9.28
6/20/2022 9:45:00 PM 15.17 59.306 0.044 7.18 1.46 9.29
6/20/2022 10:00:00 PM 15.14 59.252 0.044 7.18 1.07 9.34
6/20/2022 10:15:00 PM 15.11 59.198 0.044 7.18 1.1 9.33
6/20/2022 10:30:00 PM 15.09 59.162 0.044 7.17 1.68 9.27
6/20/2022 10:45:00 PM 15.06 59.108 0.044 7.17 1.99 9.33
6/20/2022 11:00:00 PM 15.03 59.054 0.044 7.18 1.28 9.36
6/20/2022 11:15:00 PM 15.01 59.018 0.044 7.18 1.24 9.36
6/20/2022 11:30:00 PM 14.99 58.982 0.044 7.18 1.23 9.37
6/20/2022 11:45:00 PM 14.97 58.946 0.044 7.17 1.08 9.36
6/21/2022 12:00:00 AM 14.95 58.91 0.044 7.18 1.04 9.37
6/21/2022 12:15:00 AM 14.93 58.874 0.044 7.17 1.72 9.37
6/21/2022 12:30:00 AM 14.91 58.838 0.044 7.18 1.12 9.38
6/21/2022 12:45:00 AM 14.89 58.802 0.044 7.14 1.15 9.38
6/21/2022 1:00:00 AM 14.87 58.766 0.044 7.16 1.11 9.38
6/21/2022 1:15:00 AM 14.85 58.73 0.044 7.17 1.06 9.37
6/21/2022 1:30:00 AM 14.83 58.694 0.044 7.18 1.12 9.38
6/21/2022 1:45:00 AM 14.81 58.658 0.045 7.18 1.08 9.4
6/21/2022 2:00:00 AM 14.8 58.64 0.044 7.18 1.26 9.4
6/21/2022 2:15:00 AM 14.78 58.604 0.044 7.18 1.02 9.4
6/21/2022 2:30:00 AM 14.75 58.55 0.044 7.18 1.13 9.4
6/21/2022 2:45:00 AM 14.73 58.514 0.044 7.18 1.15 9.41
6/21/2022 3:00:00 AM 14.71 58.478 0.044 7.19 1.4 9.42
6/21/2022 3:15:00 AM 14.69 58.442 0.044 7.19 1.08 9.41
6/21/2022 3:30:00 AM 14.67 58.406 0.044 7.18 1.03 9.41
6/21/2022 3:45:00 AM 14.66 58.388 0.044 7.18 1.58 9.42
6/21/2022 4:00:00 AM 14.64 58.352 0.044 7.17 1.25 9.42
6/21/2022 4:15:00 AM 14.62 58.316 0.044 7.15 3.64 9.42
6/21/2022 4:30:00 AM 14.6 58.28 0.044 7.18 2.18 9.42
6/21/2022 4:45:00 AM 14.58 58.244 0.044 7.17 3.55 9.37
6/21/2022 5:00:00 AM 14.55 58.19 0.044 7.17 4.06 9.36
6/21/2022 5:15:00 AM 14.52 58.136 0.044 7.17 3.15 9.4
6/21/2022 5:30:00 AM 14.5 58.1 0.044 7.18 1.94 9.4
6/21/2022 5:45:00 AM 14.49 58.082 0.044 7.18 1.38 9.39
6/21/2022 6:00:00 AM 14.47 58.046 0.044 7.16 1.22 9.41
6/21/2022 6:15:00 AM 14.46 58.028 0.044 7.16 1.06 9.47
6/21/2022 6:30:00 AM 14.45 58.01 0.044 7.16 1.38 9.38
6/21/2022 6:45:00 AM 14.44 57.992 0.044 7.17 1.1 9.4
6/21/2022 7:00:00 AM 14.44 57.992 0.044 7.17 1.23 9.49
6/21/2022 7:15:00 AM 14.44 57.992 0.044 7.19 1.89 9.46
6/21/2022 7:30:00 AM 14.46 58.028 0.044 7.17 1.94 9.5
6/21/2022 7:45:00 AM 14.46 58.028 0.045 7.21 1.26 9.57
6/21/2022 8:00:00 AM 14.45 58.01 0.044 7.2 1.3 9.53
6/21/2022 8:15:00 AM 14.43 57.974 0.043 7.2 1.48 9.56
6/21/2022 8:30:00 AM 14.42 57.956 0.043 7.19 1.36 9.47
6/21/2022 8:45:00 AM 14.4 57.92 0.043 7.16 1.62 9.42
6/21/2022 9:00:00 AM 14.39 57.902 0.043 7.15 1.68 9.46
6/21/2022 9:15:00 AM 14.38 57.884 0.043 7.16 1.59 9.48
6/21/2022 9:30:00 AM 14.4 57.92 0.043 7.17 1.87 9.51
6/21/2022 9:45:00 AM 14.45 58.01 0.043 7.17 2.03 9.55
6/21/2022 10:00:00 AM 14.52 58.136 0.044 7.22 1.87 9.68
6/21/2022 10:15:00 AM 14.61 58.298 0.045 7.25 1.75 9.76
6/21/2022 10:30:00 AM 14.73 58.514 0.045 7.27 1.82 9.79
6/21/2022 10:45:00 AM 14.83 58.694 0.045 7.25 1.92 9.7
6/21/2022 11:00:00 AM 14.93 58.874 0.045 7.27 2.06 9.74
6/21/2022 11:15:00 AM 15.06 59.108 0.045 7.27 2.39 9.72
6/21/2022 11:30:00 AM 15.23 59.414 0.044 7.29 2.05 9.71
6/21/2022 11:45:00 AM 15.41 59.738 0.044 7.28 2.26 9.7
6/21/2022 12:00:00 PM 15.64 60.152 0.044 7.28 2.47 9.68
6/21/2022 12:15:00 PM 15.87 60.566 0.044 7.28 2.56 9.66
6/21/2022 12:30:00 PM 16.12 61.016 0.045 7.3 3.14 9.56
6/21/2022 12:45:00 PM 16.4 61.52 0.045 7.32 2.83 9.58
6/21/2022 1:00:00 PM 16.67 62.006 0.045 7.34 2.81 9.54
6/21/2022 1:15:00 PM 16.94 62.492 0.045 7.29 2.77 9.51
6/21/2022 1:30:00 PM 17.3 63.14 0.045 7.31 2.92 9.49
6/21/2022 1:45:00 PM 17.61 63.698 0.046 7.34 3.06 9.42
6/21/2022 2:00:00 PM 17.88 64.184 0.046 7.35 3.18 9.39
6/21/2022 2:15:00 PM 18.16 64.688 0.045 7.33 3.64 9.36
6/21/2022 2:30:00 PM 18.39 65.102 0.046 7.34 3.24 9.3
6/21/2022 2:45:00 PM 18.6 65.48 0.046 7.35 3.11 9.27
6/21/2022 3:00:00 PM 18.78 65.804 0.046 7.35 2.86 9.25
6/21/2022 3:15:00 PM 18.88 65.984 0.046 7.32 2.87 9.18
6/21/2022 3:30:00 PM 18.89 66.002 0.045 7.32 2.6 9.1
6/21/2022 3:45:00 PM 18.83 65.894 0.045 7.32 2.53 9.08
6/21/2022 4:00:00 PM 18.78 65.804 0.045 7.31 2.73 9.06
6/21/2022 4:15:00 PM 18.7 65.66 0.045 7.28 2.23 9.05
6/21/2022 4:30:00 PM 18.61 65.498 0.044 7.28 2.05 9.04
6/21/2022 4:45:00 PM 18.47 65.246 0.045 7.3 1.93 9.03
6/21/2022 5:00:00 PM 18.42 65.156 0.045 7.3 2.03 9.03
6/21/2022 5:15:00 PM 18.3 64.94 0.044 7.28 2.14 9.01
6/21/2022 5:30:00 PM 18.13 64.634 0.044 7.28 1.8 9.02
6/21/2022 5:45:00 PM 18.04 64.472 0.044 7.26 2.2 9.01
6/21/2022 6:00:00 PM 17.97 64.346 0.044 7.26 1.95 8.98
6/21/2022 6:15:00 PM 17.92 64.256 0.044 7.24 1.9 8.98
6/21/2022 6:30:00 PM 17.87 64.166 0.044 7.24 1.97 8.96
6/21/2022 6:45:00 PM 17.82 64.076 0.044 7.21 2.08 8.93
6/21/2022 7:00:00 PM 17.77 63.986 0.044 7.22 1.83 8.9
6/21/2022 7:15:00 PM 17.71 63.878 0.044 7.23 2.53 8.94
6/21/2022 7:30:00 PM 17.65 63.77 0.044 7.21 1.64 8.94
6/21/2022 7:45:00 PM 17.6 63.68 0.044 7.21 1.58 8.91
6/21/2022 8:00:00 PM 17.55 63.59 0.044 7.2 1.48 8.94
6/21/2022 8:15:00 PM 17.49 63.482 0.044 7.2 1.44 8.94
6/21/2022 8:30:00 PM 17.43 63.374 0.045 7.18 1.42 8.93
6/21/2022 8:45:00 PM 17.38 63.284 0.045 7.18 1.35 8.91
6/21/2022 9:00:00 PM 17.33 63.194 0.045 7.16 3.04 8.89
6/21/2022 9:15:00 PM 17.28 63.104 0.045 7.15 1.41 8.9
6/21/2022 9:30:00 PM 17.23 63.014 0.045 7.15 1.46 8.91
6/21/2022 9:45:00 PM 17.19 62.942 0.045 7.17 1.43 8.92
6/21/2022 10:00:00 PM 17.15 62.87 0.045 7.15 1.54 8.92
6/21/2022 10:15:00 PM 17.12 62.816 0.046 7.14 1.38 8.9
6/21/2022 10:30:00 PM 17.08 62.744 0.046 7.15 1.33 8.9
6/21/2022 10:45:00 PM 17.03 62.654 0.046 7.14 1.38 8.93
6/21/2022 11:00:00 PM 16.99 62.582 0.046 7.15 1.4 8.94
6/21/2022 11:15:00 PM 16.95 62.51 0.045 7.16 1.6 8.95
6/21/2022 11:30:00 PM 16.91 62.438 0.046 7.16 1.38 8.95
6/21/2022 11:45:00 PM 16.86 62.348 0.046 7.15 1.38 8.96
6/22/2022 12:00:00 AM 16.82 62.276 0.046 7.15 1.45 8.97
6/22/2022 12:15:00 AM 16.78 62.204 0.046 7.16 1.51 8.98
6/22/2022 12:30:00 AM 16.73 62.114 0.046 7.15 1.33 8.99
6/22/2022 12:45:00 AM 16.69 62.042 0.046 7.15 1.4 8.99
6/22/2022 1:00:00 AM 16.64 61.952 0.045 7.16 1.25 9.01
6/22/2022 1:15:00 AM 16.6 61.88 0.045 7.16 1.25 9.02
6/22/2022 1:30:00 AM 16.56 61.808 0.045 7.16 1.29 9.02
6/22/2022 1:45:00 AM 16.52 61.736 0.046 7.16 1.36 9.03
6/22/2022 2:00:00 AM 16.48 61.664 0.046 7.15 1.38 9
6/22/2022 2:15:00 AM 16.44 61.592 0.046 7.15 1.17 9.04
6/22/2022 2:30:00 AM 16.4 61.52 0.046 7.15 1.67 9.04
6/22/2022 2:45:00 AM 16.36 61.448 0.046 7.17 1.19 9.06
6/22/2022 3:00:00 AM 16.32 61.376 0.046 7.17 1.32 9.05
6/22/2022 3:15:00 AM 16.28 61.304 0.046 7.16 1.18 9.05
6/22/2022 3:30:00 AM 16.25 61.25 0.045 7.16 1.2 9.07
6/22/2022 3:45:00 AM 16.21 61.178 0.046 7.15 1.21 9.07
6/22/2022 4:00:00 AM 16.17 61.106 0.045 7.14 1.19 9.08
6/22/2022 4:15:00 AM 16.14 61.052 0.045 7.17 1.14 9.08
6/22/2022 4:30:00 AM 16.1 60.98 0.045 7.17 1.2 9.08
6/22/2022 4:45:00 AM 16.07 60.926 0.046 7.17 2.65 9.06
6/22/2022 5:00:00 AM 16.03 60.854 0.045 7.18 1.48 9.06
6/22/2022 5:15:00 AM 16 60.8 0.045 7.17 1.33 9.08
6/22/2022 5:30:00 AM 15.97 60.746 0.045 7.16 1.43 9.08
6/22/2022 5:45:00 AM 15.94 60.692 0.045 7.17 1.21 9.09
6/22/2022 6:00:00 AM 15.91 60.638 0.045 7.19 1.32 9.11
6/22/2022 6:15:00 AM 15.87 60.566 0.045 7.2 1.25 9.14
6/22/2022 6:30:00 AM 15.85 60.53 0.045 7.18 1.28 9.15
6/22/2022 6:45:00 AM 15.84 60.512 0.045 7.18 2.53 9.19
6/22/2022 7:00:00 AM 15.82 60.476 0.045 7.21 1.56 9.19
6/22/2022 7:15:00 AM 15.81 60.458 0.045 7.22 1.45 9.25
6/22/2022 7:30:00 AM 15.81 60.458 0.045 7.23 1.38 9.29
6/22/2022 7:45:00 AM 15.81 60.458 0.045 7.22 1.24 9.33
6/22/2022 8:00:00 AM 15.83 60.494 0.045 7.23 1.27 9.37
6/22/2022 8:15:00 AM 15.84 60.512 0.045 7.21 1.24 9.33
6/22/2022 8:30:00 AM 15.84 60.512 0.045 7.21 1.21 9.34
6/22/2022 8:45:00 AM 15.87 60.566 0.045 7.22 1.22 9.35
6/22/2022 9:00:00 AM 15.92 60.656 0.045 7.23 1.14 9.41
6/22/2022 9:15:00 AM 15.99 60.782 0.045 7.24 1.17 9.42
6/22/2022 9:30:00 AM 16.06 60.908 0.045 7.25 1.14 9.43
6/22/2022 9:45:00 AM 16.15 61.07 0.046 7.26 1.19 9.42
6/22/2022 10:00:00 AM 16.25 61.25 0.045 7.27 1.11 9.46
6/22/2022 10:15:00 AM 16.34 61.412 0.045 7.28 1.34 9.45
6/22/2022 10:30:00 AM 16.46 61.628 0.046 7.27 1.17 9.46
6/22/2022 10:45:00 AM 16.62 61.916 0.045 7.29 1.14 9.43
6/22/2022 11:00:00 AM 16.76 62.168 0.046 7.29 1.1 9.43
6/22/2022 11:15:00 AM 16.92 62.456 0.046 7.3 1.08 9.41
6/22/2022 11:30:00 AM 17.09 62.762 0.046 7.32 1.06 9.36
6/22/2022 11:45:00 AM 17.31 63.158 0.046 7.33 1.14 9.31
6/22/2022 12:00:00 PM 17.54 63.572 0.046 7.34 1.46 9.3
6/22/2022 12:15:00 PM 17.79 64.022 0.046 7.35 1.17 9.27
6/22/2022 12:30:00 PM 18.05 64.49 0.046 7.35 1.27 9.19
6/22/2022 12:45:00 PM 18.38 65.084 0.046 7.36 1.15 9.19
6/22/2022 1:00:00 PM 18.6 65.48 0.046 7.37 1.19 9.07
6/22/2022 1:15:00 PM 18.83 65.894 0.046 7.37 1.44 9.11
6/22/2022 1:30:00 PM 19 66.2 0.046 7.37 1.28 9.06
6/22/2022 1:45:00 PM 19.18 66.524 0.046 7.36 1.35 8.93
6/22/2022 2:00:00 PM 19.41 66.938 0.046 7.35 1.38 8.96
6/22/2022 2:15:00 PM 19.73 67.514 0.046 7.36 1.27 8.9
6/22/2022 2:30:00 PM 19.94 67.892 0.046 7.37 1.35 8.93
6/22/2022 2:45:00 PM 20.06 68.108 0.046 7.34 2.82 8.88
6/22/2022 3:00:00 PM 20.22 68.396 0.046 7.36 1.15 8.9
6/22/2022 3:15:00 PM 20.42 68.756 0.046 7.36 1.18 8.85
6/22/2022 3:30:00 PM 20.54 68.972 0.046 7.37 1.42 8.74
6/22/2022 3:45:00 PM 20.6 69.08 0.046 7.37 1.11 8.78
6/22/2022 4:00:00 PM 20.66 69.188 0.046 7.35 1.09 8.72
6/22/2022 4:15:00 PM 20.69 69.242 0.046 7.32 1.21 8.62
6/22/2022 4:30:00 PM 20.62 69.116 0.046 7.33 2.09 8.59
6/22/2022 4:45:00 PM 20.51 68.918 0.046 7.32 1.36 8.62
6/22/2022 5:00:00 PM 20.4 68.72 0.046 7.32 1.16 8.62
6/22/2022 5:15:00 PM 20.21 68.378 0.046 7.31 1.19 8.53
6/22/2022 5:30:00 PM 20.06 68.108 0.046 7.29 1.2 8.45
6/22/2022 5:45:00 PM 19.95 67.91 0.046 7.28 1.2 8.45
6/22/2022 6:00:00 PM 19.82 67.676 0.046 7.26 1.12 8.38
6/22/2022 6:15:00 PM 19.69 67.442 0.047 7.25 1.22 8.3
6/22/2022 6:30:00 PM 19.51 67.118 0.047 7.25 1.18 8.32
6/22/2022 6:45:00 PM 19.36 66.848 0.046 7.23 1.37 8.37
6/22/2022 7:00:00 PM 19.24 66.632 0.046 7.22 1.19 8.32
6/22/2022 7:15:00 PM 19.11 66.398 0.046 7.2 1.2 8.36
6/22/2022 7:30:00 PM 19.01 66.218 0.046 7.2 1.16 8.31
6/22/2022 7:45:00 PM 18.92 66.056 0.046 7.19 1.23 8.36
6/22/2022 8:00:00 PM 18.84 65.912 0.046 7.21 1.19 8.42
6/22/2022 8:15:00 PM 18.77 65.786 0.047 7.21 1.29 8.53
6/22/2022 8:30:00 PM 18.71 65.67799 0.046 7.21 1.09 8.58
6/22/2022 8:45:00 PM 18.65 65.57 0.046 7.21 1.11 8.58
6/22/2022 9:00:00 PM 18.6 65.48 0.046 7.2 1.11 8.57
6/22/2022 9:15:00 PM 18.54 65.372 0.046 7.19 1.64 8.56
6/22/2022 9:30:00 PM 18.5 65.3 0.047 7.19 1.63 8.57
6/22/2022 9:45:00 PM 18.45 65.21 0.047 7.19 1.79 8.6
6/22/2022 10:00:00 PM 18.41 65.138 0.047 7.18 1.88 8.6
6/22/2022 10:15:00 PM 18.36 65.048 0.047 7.16 1.38 8.6
6/22/2022 10:30:00 PM 18.31 64.958 0.047 7.16 1.35 8.62
6/22/2022 10:45:00 PM 18.25 64.85 0.048 7.16 1.44 8.64
6/22/2022 11:00:00 PM 18.19 64.742 0.047 7.14 1.92 8.64
6/22/2022 11:15:00 PM 18.12 64.616 0.047 7.14 2.42 8.68
6/22/2022 11:30:00 PM 18.07 64.526 0.047 7.13 2.63 8.68
6/22/2022 11:45:00 PM 18 64.4 0.046 7.13 2.12 8.72
6/23/2022 12:00:00 AM 17.94 64.292 0.046 7.12 1.94 8.73
6/23/2022 12:15:00 AM 17.87 64.166 0.045 7.1 4.27 8.74
6/23/2022 12:30:00 AM 17.79 64.022 0.044 7.1 2.34 8.78
6/23/2022 12:45:00 AM 17.72 63.896 0.044 7.08 2.08 8.8
6/23/2022 1:00:00 AM 17.67 63.806 0.043 7.08 1.83 8.81
6/23/2022 1:15:00 AM 17.63 63.734 0.043 7.08 1.83 8.82
6/23/2022 1:30:00 AM 17.59 63.662 0.044 7.08 2.29 8.8
6/23/2022 1:45:00 AM 17.55 63.59 0.043 7.09 2.37 8.85
6/23/2022 2:00:00 AM 17.51 63.518 0.043 7.09 2.34 8.85
6/23/2022 2:15:00 AM 17.48 63.464 0.043 7.08 2.4 8.85
6/23/2022 2:30:00 AM 17.46 63.428 0.043 7.08 3.47 8.8
6/23/2022 2:45:00 AM 17.43 63.374 0.044 7.08 2.67 8.85
6/23/2022 3:00:00 AM 17.41 63.338 0.043 7.07 2.51 8.79
6/23/2022 3:15:00 AM 17.38 63.284 0.044 7.08 3.36 8.84
6/23/2022 3:30:00 AM 17.36 63.248 0.044 7.08 2.58 8.83
6/23/2022 3:45:00 AM 17.34 63.212 0.044 7.09 2.31 8.82
6/23/2022 4:00:00 AM 17.32 63.176 0.044 7.09 2.52 8.82
6/23/2022 4:15:00 AM 17.29 63.122 0.045 7.09 2.07 8.85
6/23/2022 4:30:00 AM 17.27 63.086 0.044 7.1 1.85 8.84
6/23/2022 4:45:00 AM 17.25 63.05 0.045 7.1 2.55 8.85
6/23/2022 5:00:00 AM 17.22 62.996 0.045 7.12 2.26 8.83
6/23/2022 5:15:00 AM 17.18 62.924 0.045 7.12 2.03 8.84
6/23/2022 5:30:00 AM 17.15 62.87 0.044 7.1 1.72 8.84
6/23/2022 5:45:00 AM 17.12 62.816 0.044 7.11 1.67 8.79
6/23/2022 6:00:00 AM 17.08 62.744 0.044 7.12 2.09 8.88
6/23/2022 6:15:00 AM 17.06 62.708 0.044 7.13 2.05 8.75
6/23/2022 6:30:00 AM 17.04 62.672 0.044 7.15 1.54 8.88
6/23/2022 6:45:00 AM 17.02 62.636 0.044 7.16 1.6 8.88
6/23/2022 7:00:00 AM 17.01 62.618 0.044 7.17 1.48 8.93
6/23/2022 7:15:00 AM 17.01 62.618 0.044 7.18 1.66 8.95
6/23/2022 7:30:00 AM 16.99 62.582 0.044 7.2 1.52 9.05
6/23/2022 7:45:00 AM 17 62.6 0.044 7.21 1.6 9.06
6/23/2022 8:00:00 AM 17.02 62.636 0.044 7.22 1.51 9.12
6/23/2022 8:15:00 AM 17.04 62.672 0.044 7.21 1.53 9.11
6/23/2022 8:30:00 AM 17.07 62.726 0.043 7.22 1.58 9.05
6/23/2022 8:45:00 AM 17.1 62.78 0.044 7.23 1.54 9.1
6/23/2022 9:00:00 AM 17.14 62.852 0.043 7.22 1.42 8.98
6/23/2022 9:15:00 AM 17.2 62.96 0.043 7.23 1.47 9.07
6/23/2022 9:30:00 AM 17.26 63.068 0.043 7.24 1.4 9
6/23/2022 9:45:00 AM 17.34 63.212 0.044 7.24 1.64 9.08
6/23/2022 10:00:00 AM 17.46 63.428 0.044 7.27 1.32 9.13
6/23/2022 10:15:00 AM 17.58 63.644 0.044 7.27 1.61 9.16
6/23/2022 10:30:00 AM 17.68 63.824 0.044 7.27 1.49 8.98
6/23/2022 10:45:00 AM 17.76 63.968 0.044 7.28 1.48 9.05
6/23/2022 11:00:00 AM 17.84 64.112 0.044 7.29 1.32 8.95
6/23/2022 11:15:00 AM 17.92 64.256 0.044 7.3 1.2 9
6/23/2022 11:30:00 AM 18.05 64.49 0.045 7.29 1.29 8.92
6/23/2022 11:45:00 AM 18.2 64.76 0.045 7.3 1.36 8.98
6/23/2022 12:00:00 PM 18.39 65.102 0.045 7.3 1.64 8.96
6/23/2022 12:15:00 PM 18.62 65.516 0.045 7.31 1.31 8.93
6/23/2022 12:30:00 PM 18.81 65.858 0.046 7.3 1.52 8.86
6/23/2022 12:45:00 PM 19.08 66.344 0.046 7.31 1.16 8.9
6/23/2022 1:00:00 PM 19.29 66.722 0.046 7.31 1.26 8.89
6/23/2022 1:15:00 PM 19.55 67.19 0.046 7.31 1.35 8.85
6/23/2022 1:30:00 PM 19.82 67.676 0.045 7.32 1.36 8.81
6/23/2022 1:45:00 PM 20.12 68.216 0.045 7.32 1.65 8.78
6/23/2022 2:00:00 PM 20.4 68.72 0.045 7.32 1.28 8.78
6/23/2022 2:15:00 PM 20.51 68.918 0.045 7.34 1.47 8.7
6/23/2022 2:30:00 PM 20.51 68.918 0.045 7.35 1.76 8.76
6/23/2022 2:45:00 PM 20.73 69.314 0.045 7.34 1.35 8.74
6/23/2022 3:00:00 PM 20.89 69.602 0.045 7.36 1.51 8.74
6/23/2022 3:15:00 PM 21.05 69.89 0.045 7.34 2.31 8.7
6/23/2022 3:30:00 PM 21.06 69.908 0.045 7.35 2.22 8.69
6/23/2022 3:45:00 PM 20.99 69.782 0.045 7.34 2.3 8.63
6/23/2022 4:00:00 PM 20.9 69.62 0.045 7.33 3.1 8.59
6/23/2022 4:15:00 PM 20.83 69.494 0.045 7.31 1.32 8.58
6/23/2022 4:30:00 PM 20.78 69.404 0.045 7.31 1.28 8.58
6/23/2022 4:45:00 PM 20.7 69.26 0.045 7.32 1.41 8.61
6/23/2022 5:00:00 PM 20.58 69.044 0.045 7.31 1.27 8.61
6/23/2022 5:15:00 PM 20.34 68.612 0.045 7.31 1.29 8.6
6/23/2022 5:30:00 PM 20.14 68.252 0.045 7.28 1.28 8.56
6/23/2022 5:45:00 PM 19.95 67.91 0.045 7.25 1.4 8.54
6/23/2022 6:00:00 PM 19.78 67.604 0.045 7.23 1.19 8.49
6/23/2022 6:15:00 PM 19.64 67.352 0.045 7.22 1.59 8.51
6/23/2022 6:30:00 PM 19.5 67.1 0.045 7.22 1.44 8.49
6/23/2022 6:45:00 PM 19.41 66.938 0.045 7.2 1.55 8.53
6/23/2022 7:00:00 PM 19.32 66.776 0.046 7.21 1.24 8.39
6/23/2022 7:15:00 PM 19.23 66.614 0.045 7.21 1.11 8.55
6/23/2022 7:30:00 PM 19.14 66.452 0.045 7.2 1.18 8.53
6/23/2022 7:45:00 PM 19.06 66.308 0.045 7.19 1.26 8.36
6/23/2022 8:00:00 PM 18.98 66.164 0.045 7.2 1.09 8.55
6/23/2022 8:15:00 PM 18.91 66.038 0.046 7.19 1.17 8.53
6/23/2022 8:30:00 PM 18.83 65.894 0.046 7.18 1.55 8.47
6/23/2022 8:45:00 PM 18.73 65.714 0.046 7.18 1.52 8.52
6/23/2022 9:00:00 PM 18.65 65.57 0.046 7.17 1.3 8.53
6/23/2022 9:15:00 PM 18.58 65.444 0.046 7.16 1.33 8.52
6/23/2022 9:30:00 PM 18.51 65.318 0.046 7.16 1.64 8.52
6/23/2022 9:45:00 PM 18.45 65.21 0.046 7.18 1.24 8.58
6/23/2022 10:00:00 PM 18.41 65.138 0.046 7.16 1.41 8.53
6/23/2022 10:15:00 PM 18.36 65.048 0.046 7.15 1.48 8.53
6/23/2022 10:30:00 PM 18.32 64.976 0.046 7.17 1.38 8.56
6/23/2022 10:45:00 PM 18.27 64.886 0.046 7.15 1.58 8.54
6/23/2022 11:00:00 PM 18.21 64.778 0.046 7.15 1.44 8.6
6/23/2022 11:15:00 PM 18.17 64.706 0.046 7.16 1.43 8.61
6/23/2022 11:30:00 PM 18.12 64.616 0.046 7.15 1.3 8.62
6/23/2022 11:45:00 PM 18.08 64.544 0.046 7.16 1.13 8.65
6/24/2022 12:00:00 AM 18.04 64.472 0.046 7.17 1.68 8.63
6/24/2022 12:15:00 AM 18 64.4 0.046 7.15 4.36 8.63
6/24/2022 12:30:00 AM 17.94 64.292 0.046 7.15 1.19 8.68
6/24/2022 12:45:00 AM 17.89 64.202 0.046 7.16 1.38 8.69
6/24/2022 1:00:00 AM 17.84 64.112 0.046 7.15 1.3 8.68
6/24/2022 1:15:00 AM 17.78 64.004 0.046 7.16 1.33 8.7
6/24/2022 1:30:00 AM 17.73 63.914 0.046 7.16 1.19 8.72
6/24/2022 1:45:00 AM 17.68 63.824 0.046 7.16 1.59 8.71
6/24/2022 2:00:00 AM 17.62 63.716 0.046 7.15 1.34 8.73
6/24/2022 2:15:00 AM 17.56 63.608 0.046 7.15 1.46 8.73
6/24/2022 2:30:00 AM 17.51 63.518 0.047 7.16 1.38 8.76
6/24/2022 2:45:00 AM 17.45 63.41 0.047 7.15 1.58 8.74
6/24/2022 3:00:00 AM 17.4 63.32 0.047 7.17 1.36 8.78
6/24/2022 3:15:00 AM 17.35 63.23 0.047 7.15 1.17 8.79
6/24/2022 3:30:00 AM 17.3 63.14 0.047 7.16 1.2 8.79
6/24/2022 3:45:00 AM 17.26 63.068 0.047 7.17 1.53 8.81
6/24/2022 4:00:00 AM 17.21 62.978 0.046 7.17 3.37 8.78
6/24/2022 4:15:00 AM 17.17 62.906 0.046 7.18 1.68 8.81
6/24/2022 4:30:00 AM 17.13 62.834 0.047 7.17 1.42 8.8
6/24/2022 4:45:00 AM 17.1 62.78 0.046 7.16 2.19 8.77
6/24/2022 5:00:00 AM 17.06 62.708 0.046 7.16 1.66 8.8
6/24/2022 5:15:00 AM 17.03 62.654 0.046 7.2 1.76 8.79
6/24/2022 5:30:00 AM 17 62.6 0.046 7.16 2.24 8.83
6/24/2022 5:45:00 AM 16.97 62.546 0.046 7.17 1.69 8.82
6/24/2022 6:00:00 AM 16.94 62.492 0.046 7.16 1.33 8.81
6/24/2022 6:15:00 AM 16.92 62.456 0.046 7.17 1.39 8.82
6/24/2022 6:30:00 AM 16.9 62.42 0.046 7.17 1.88 8.87
6/24/2022 6:45:00 AM 16.88 62.384 0.046 7.17 1.23 8.9
6/24/2022 7:00:00 AM 16.88 62.384 0.047 7.17 1.38 8.85
6/24/2022 7:15:00 AM 16.87 62.366 0.047 7.18 1.33 8.94
6/24/2022 7:30:00 AM 16.86 62.348 0.047 7.18 1.08 9.02
6/24/2022 7:45:00 AM 16.87 62.366 0.047 7.18 2.15 8.94
6/24/2022 8:00:00 AM 16.87 62.366 0.047 7.2 1.84 9.08
6/24/2022 8:15:00 AM 16.88 62.384 0.047 7.2 1.19 9.06
6/24/2022 8:30:00 AM 16.89 62.402 0.046 7.22 1.17 9.07
6/24/2022 8:45:00 AM 16.91 62.438 0.047 7.21 1.04 9.06
6/24/2022 9:00:00 AM 16.93 62.474 0.047 7.23 1.12 9.18
6/24/2022 9:15:00 AM 16.96 62.528 0.047 7.23 1.71 9.17
6/24/2022 9:30:00 AM 16.98 62.564 0.047 7.24 1.3 9.22
6/24/2022 9:45:00 AM 17.01 62.618 0.047 7.25 1.29 9.23
6/24/2022 10:00:00 AM 17.04 62.672 0.047 7.26 1.07 9.21
6/24/2022 10:15:00 AM 17.07 62.726 0.047 7.26 1.09 9.23
6/24/2022 10:30:00 AM 17.12 62.816 0.047 7.27 1.49 9.27
6/24/2022 10:45:00 AM 17.2 62.96 0.047 7.27 1.18 9.3
6/24/2022 11:00:00 AM 17.29 63.122 0.047 7.28 1.46 9.27
6/24/2022 11:15:00 AM 17.43 63.374 0.047 7.3 2.15 9.33
6/24/2022 11:30:00 AM 17.53 63.554 0.047 7.32 1.14 9.35
6/24/2022 11:45:00 AM 17.69 63.842 0.047 7.32 1.04 9.29
6/24/2022 12:00:00 PM 17.91 64.238 0.047 7.32 1.04 9.25
6/24/2022 12:15:00 PM 18.18 64.724 0.047 7.32 1.08 9.2
6/24/2022 12:30:00 PM 18.5 65.3 0.047 7.31 1.42 9.14
6/24/2022 12:45:00 PM 18.77 65.786 0.047 7.31 1.06 9.04
6/24/2022 1:00:00 PM 19.11 66.398 0.047 7.33 1.49 9.02
6/24/2022 1:15:00 PM 19.46 67.028 0.047 7.32 1.04 8.89
6/24/2022 1:30:00 PM 19.7 67.46 0.047 7.33 1.26 8.91
6/24/2022 1:45:00 PM 20 68 0.047 7.32 1.58 8.89
6/24/2022 2:00:00 PM 20.36 68.648 0.047 7.33 1.22 8.85
6/24/2022 2:15:00 PM 20.71 69.278 0.047 7.34 1.05 8.83
6/24/2022 2:30:00 PM 20.89 69.602 0.047 7.32 1.57 8.77
6/24/2022 2:45:00 PM 20.91 69.638 0.047 7.33 2.64 8.74
6/24/2022 3:00:00 PM 21.08 69.944 0.047 7.34 1.05 8.72
6/24/2022 3:15:00 PM 21.15 70.07 0.047 7.34 1.58 8.62
6/24/2022 3:30:00 PM 21.02 69.836 0.047 7.32 1.08 8.6
6/24/2022 3:45:00 PM 20.95 69.71 0.047 7.32 1.7 8.59
6/24/2022 4:00:00 PM 20.92 69.656 0.047 7.32 1.12 8.54
6/24/2022 4:15:00 PM 20.84 69.512 0.047 7.29 2.24 8.54
6/24/2022 4:30:00 PM 20.72 69.296 0.047 7.3 1.17 8.51
6/24/2022 4:45:00 PM 20.53 68.954 0.047 7.29 1.66 8.51
6/24/2022 5:00:00 PM 20.38 68.684 0.047 7.27 2.1 8.56
6/24/2022 5:15:00 PM 20.28 68.504 0.047 7.26 1.69 8.54
6/24/2022 5:30:00 PM 20.09 68.162 0.047 7.25 1.24 8.53
6/24/2022 5:45:00 PM 19.89 67.802 0.047 7.25 1.1 8.57
6/24/2022 6:00:00 PM 19.79 67.622 0.047 7.23 1.17 8.55
6/24/2022 6:15:00 PM 19.69 67.442 0.047 7.23 1.4 8.51
6/24/2022 6:30:00 PM 19.61 67.298 0.047 7.21 1.23 8.54
6/24/2022 6:45:00 PM 19.54 67.172 0.047 7.2 1.63 8.47
6/24/2022 7:00:00 PM 19.48 67.064 0.047 7.21 1.38 8.52
6/24/2022 7:15:00 PM 19.41 66.938 0.047 7.19 1.45 8.55
6/24/2022 7:30:00 PM 19.34 66.812 0.047 7.19 1.16 8.56
6/24/2022 7:45:00 PM 19.26 66.668 0.047 7.19 2.41 8.55
6/24/2022 8:00:00 PM 19.18 66.524 0.047 7.19 1.25 8.54
6/24/2022 8:15:00 PM 19.1 66.38 0.047 7.17 1.15 8.47
6/24/2022 8:30:00 PM 19.01 66.218 0.047 7.16 1.22 8.45
6/24/2022 8:45:00 PM 18.92 66.056 0.048 7.16 1.31 8.49
6/24/2022 9:00:00 PM 18.82 65.876 0.048 7.16 1.75 8.53
6/24/2022 9:15:00 PM 18.73 65.714 0.048 7.16 1.27 8.54
6/24/2022 9:30:00 PM 18.65 65.57 0.048 7.16 1.42 8.54
6/24/2022 9:45:00 PM 18.58 65.444 0.048 7.14 1.26 8.53
6/24/2022 10:00:00 PM 18.49 65.282 0.048 7.15 1.07 8.56
6/24/2022 10:15:00 PM 18.42 65.156 0.048 7.14 1.25 8.57
6/24/2022 10:30:00 PM 18.35 65.03 0.048 7.14 1.44 8.58
6/24/2022 10:45:00 PM 18.29 64.922 0.048 7.14 1.47 8.55
6/24/2022 11:00:00 PM 18.23 64.814 0.048 7.13 1.58 8.55
6/24/2022 11:15:00 PM 18.16 64.688 0.048 7.13 1.79 8.54
6/24/2022 11:30:00 PM 18.09 64.562 0.048 7.13 1.31 8.56
6/24/2022 11:45:00 PM 18.04 64.472 0.048 7.14 1.51 8.59
6/25/2022 12:00:00 AM 17.98 64.364 0.048 7.13 1.08 8.53
6/25/2022 12:15:00 AM 17.91 64.238 0.048 7.13 1.27 8.6
6/25/2022 12:30:00 AM 17.85 64.13 0.048 7.14 1.53 8.62
6/25/2022 12:45:00 AM 17.79 64.022 0.048 7.13 1.61 8.63
6/25/2022 1:00:00 AM 17.72 63.896 0.048 7.13 2.61 8.63
6/25/2022 1:15:00 AM 17.65 63.77 0.048 7.13 1.22 8.71
6/25/2022 1:30:00 AM 17.58 63.644 0.048 7.14 3.16 8.72
6/25/2022 1:45:00 AM 17.51 63.518 0.048 7.13 1.27 8.69
6/25/2022 2:00:00 AM 17.44 63.392 0.048 7.13 1.46 8.72
6/25/2022 2:15:00 AM 17.37 63.266 0.048 7.13 1.24 8.69
6/25/2022 2:30:00 AM 17.3 63.14 0.048 7.13 1.37 8.73
6/25/2022 2:45:00 AM 17.22 62.996 0.048 7.13 2.29 8.75
6/25/2022 3:00:00 AM 17.15 62.87 0.048 7.12 1.07 8.72
6/25/2022 3:15:00 AM 17.07 62.726 0.048 7.12 1.26 8.8
6/25/2022 3:30:00 AM 17 62.6 0.048 7.13 1.63 8.86
6/25/2022 3:45:00 AM 16.93 62.474 0.048 7.13 2.17 8.8
6/25/2022 4:00:00 AM 16.86 62.348 0.048 7.14 1.39 8.89
6/25/2022 4:15:00 AM 16.78 62.204 0.048 7.14 1.55 8.91
6/25/2022 4:30:00 AM 16.7 62.06 0.048 7.14 1.13 8.93
6/25/2022 4:45:00 AM 16.64 61.952 0.048 7.13 1.17 8.93
6/25/2022 5:00:00 AM 16.56 61.808 0.048 7.13 1.9 8.92
6/25/2022 5:15:00 AM 16.49 61.682 0.048 7.12 1.44 8.92
6/25/2022 5:30:00 AM 16.42 61.556 0.049 7.12 1.64 8.92
6/25/2022 5:45:00 AM 16.36 61.448 0.048 7.13 1.5 8.93
6/25/2022 6:00:00 AM 16.29 61.322 0.048 7.12 1.09 8.92
6/25/2022 6:15:00 AM 16.23 61.214 0.049 7.13 1.12 8.99
6/25/2022 6:30:00 AM 16.18 61.124 0.048 7.14 2.53 9.02
6/25/2022 6:45:00 AM 16.13 61.034 0.048 7.15 1.11 9.03
6/25/2022 7:00:00 AM 16.09 60.962 0.048 7.16 1.55 9.15
6/25/2022 7:15:00 AM 16.06 60.908 0.048 7.16 1.12 9.13
6/25/2022 7:30:00 AM 16.04 60.872 0.048 7.17 1.6 9.19
6/25/2022 7:45:00 AM 16.03 60.854 0.048 7.19 1.97 9.23
6/25/2022 8:00:00 AM 16.01 60.818 0.048 7.2 2.55 9.23
6/25/2022 8:15:00 AM 15.99 60.782 0.048 7.19 1.31 9.24
6/25/2022 8:30:00 AM 16 60.8 0.048 7.21 1.12 9.3
6/25/2022 8:45:00 AM 16.01 60.818 0.048 7.21 1.04 9.27
6/25/2022 9:00:00 AM 16.05 60.89 0.048 7.23 1.02 9.27
6/25/2022 9:15:00 AM 16.1 60.98 0.048 7.21 1.05 9.24
6/25/2022 9:30:00 AM 16.17 61.106 0.048 7.23 1.01 9.25
6/25/2022 9:45:00 AM 16.27 61.286 0.048 7.23 1.45 9.28
6/25/2022 10:00:00 AM 16.39 61.502 0.048 7.23 1.05 9.22
6/25/2022 10:15:00 AM 16.54 61.772 0.048 7.26 1.41 9.26
6/25/2022 10:30:00 AM 16.69 62.042 0.048 7.26 1.15 9.24
6/25/2022 10:45:00 AM 16.84 62.312 0.048 7.26 0.99 9.22
6/25/2022 11:00:00 AM 16.98 62.564 0.048 7.27 1.22 9.22
6/25/2022 11:15:00 AM 17.16 62.888 0.048 7.27 1.14 9.23
6/25/2022 11:30:00 AM 17.36 63.248 0.048 7.26 1 9.17
6/25/2022 11:45:00 AM 17.57 63.626 0.047 7.26 1.11 9.17
6/25/2022 12:00:00 PM 17.85 64.13 0.048 7.28 1.15 9.16
6/25/2022 12:15:00 PM 18.14 64.652 0.048 7.29 1.19 9.06
6/25/2022 12:30:00 PM 18.48 65.264 0.047 7.3 1.13 9.11
6/25/2022 12:45:00 PM 18.8 65.84 0.047 7.31 1.38 9
6/25/2022 1:00:00 PM 19.12 66.416 0.047 7.29 1.11 9
6/25/2022 1:15:00 PM 19.49 67.082 0.047 7.3 1.12 8.94
6/25/2022 1:30:00 PM 19.82 67.676 0.047 7.31 1.22 8.96
6/25/2022 1:45:00 PM 20.18 68.324 0.047 7.31 1.23 8.94
6/25/2022 2:00:00 PM 20.51 68.918 0.048 7.32 1.4 8.94
6/25/2022 2:15:00 PM 20.82 69.476 0.048 7.32 1.07 8.9
6/25/2022 2:30:00 PM 21.08 69.944 0.048 7.32 1.19 8.84
6/25/2022 2:45:00 PM 21.33 70.394 0.048 7.33 1.62 8.77
6/25/2022 3:00:00 PM 21.51 70.718 0.047 7.33 1.12 8.74
6/25/2022 3:15:00 PM 21.7 71.06 0.048 7.34 1.72 8.71
6/25/2022 3:30:00 PM 21.71 71.078 0.047 7.34 1.21 8.68
6/25/2022 3:45:00 PM 21.67 71.006 0.048 7.31 1.08 8.57
6/25/2022 4:00:00 PM 21.62 70.916 0.048 7.31 1.03 8.56
6/25/2022 4:15:00 PM 21.6 70.88 0.048 7.32 1.17 8.54
6/25/2022 4:30:00 PM 21.5 70.7 0.048 7.31 1.1 8.53
6/25/2022 4:45:00 PM 21.36 70.448 0.048 7.31 1.05 8.55
6/25/2022 5:00:00 PM 21.25 70.25 0.048 7.31 1.21 8.57
6/25/2022 5:15:00 PM 21.07 69.926 0.048 7.3 1.59 8.56
6/25/2022 5:30:00 PM 20.87 69.566 0.048 7.28 1.05 8.52
6/25/2022 5:45:00 PM 20.69 69.242 0.048 7.27 1.05 8.53
6/25/2022 6:00:00 PM 20.53 68.954 0.048 7.22 1.39 8.48
6/25/2022 6:15:00 PM 20.38 68.684 0.047 7.21 3.05 8.42
6/25/2022 6:30:00 PM 20.27 68.486 0.048 7.18 1.18 8.39
6/25/2022 6:45:00 PM 20.16 68.288 0.047 7.18 1.46 8.41
6/25/2022 7:00:00 PM 20.07 68.126 0.048 7.16 2.19 8.41
6/25/2022 7:15:00 PM 19.96 67.92799 0.047 7.18 1.35 8.42
6/25/2022 7:30:00 PM 19.86 67.748 0.048 7.16 1.8 8.43
6/25/2022 7:45:00 PM 19.76 67.568 0.048 7.16 1.11 8.47
6/25/2022 8:00:00 PM 19.66 67.388 0.048 7.15 1.31 8.43
6/25/2022 8:15:00 PM 19.56 67.208 0.048 7.14 1.24 8.4
6/25/2022 8:30:00 PM 19.45 67.01 0.048 7.13 1.1 8.38
6/25/2022 8:45:00 PM 19.35 66.83 0.048 7.13 1.02 8.36
6/25/2022 9:00:00 PM 19.26 66.668 0.048 7.13 1.07 8.36
6/25/2022 9:15:00 PM 19.15 66.47 0.048 7.12 1.37 8.39
6/25/2022 9:30:00 PM 19.06 66.308 0.048 7.13 1.69 8.44
6/25/2022 9:45:00 PM 18.97 66.146 0.048 7.13 1.41 8.44
6/25/2022 10:00:00 PM 18.89 66.002 0.049 7.12 1.05 8.45
6/25/2022 10:15:00 PM 18.81 65.858 0.049 7.11 1.23 8.47
6/25/2022 10:30:00 PM 18.74 65.732 0.049 7.11 1.28 8.48
6/25/2022 10:45:00 PM 18.67 65.606 0.049 7.12 1.21 8.5
6/25/2022 11:00:00 PM 18.59 65.462 0.049 7.11 1.16 8.5
6/25/2022 11:15:00 PM 18.53 65.354 0.049 7.1 1.35 8.52
6/25/2022 11:30:00 PM 18.46 65.228 0.049 7.12 1.37 8.53
6/25/2022 11:45:00 PM 18.39 65.102 0.049 7.12 1.1 8.56
6/26/2022 12:00:00 AM 18.33 64.994 0.049 7.12 1.14 8.57
6/26/2022 12:15:00 AM 18.27 64.886 0.049 7.12 1.43 8.57
6/26/2022 12:30:00 AM 18.2 64.76 0.049 7.13 1.11 8.59
6/26/2022 12:45:00 AM 18.14 64.652 0.049 7.11 1.2 8.59
6/26/2022 1:00:00 AM 18.08 64.544 0.049 7.12 1.26 8.61
6/26/2022 1:15:00 AM 18.02 64.436 0.049 7.12 1.25 8.61
6/26/2022 1:30:00 AM 17.96 64.328 0.049 7.09 1.11 8.61
6/26/2022 1:45:00 AM 17.88 64.184 0.049 7.1 1.17 8.65
6/26/2022 2:00:00 AM 17.82 64.076 0.049 7.12 1.58 8.67
6/26/2022 2:15:00 AM 17.77 63.986 0.049 7.12 1.61 8.66
6/26/2022 2:30:00 AM 17.7 63.86 0.049 7.13 1.32 8.69
6/26/2022 2:45:00 AM 17.64 63.752 0.049 7.12 1.44 8.7
6/26/2022 3:00:00 AM 17.59 63.662 0.049 7.11 1.6 8.7
6/26/2022 3:15:00 AM 17.52 63.536 0.049 7.13 1.36 8.73
6/26/2022 3:30:00 AM 17.47 63.446 0.049 7.1 1.33 8.72
6/26/2022 3:45:00 AM 17.42 63.356 0.049 7.11 1.21 8.73
6/26/2022 4:00:00 AM 17.36 63.248 0.049 7.12 1.23 8.74
6/26/2022 4:15:00 AM 17.3 63.14 0.049 7.12 1.68 8.77
6/26/2022 4:30:00 AM 17.25 63.05 0.049 7.14 1.21 8.77
6/26/2022 4:45:00 AM 17.19 62.942 0.049 7.13 2.75 8.78
6/26/2022 5:00:00 AM 17.14 62.852 0.049 7.1 2.84 8.7
6/26/2022 5:15:00 AM 17.09 62.762 0.049 7.1 2.3 8.73
6/26/2022 5:30:00 AM 17.03 62.654 0.049 7.12 1.86 8.77
6/26/2022 5:45:00 AM 16.97 62.546 0.049 7.14 1.74 8.79
6/26/2022 6:00:00 AM 16.93 62.474 0.049 7.13 1.58 8.78
6/26/2022 6:15:00 AM 16.88 62.384 0.049 7.13 1.15 8.73
6/26/2022 6:30:00 AM 16.84 62.312 0.049 7.13 1.31 8.74
6/26/2022 6:45:00 AM 16.81 62.258 0.049 7.12 1.39 8.85
6/26/2022 7:00:00 AM 16.78 62.204 0.049 7.12 1.32 8.89
6/26/2022 7:15:00 AM 16.76 62.168 0.049 7.15 2.99 8.95
6/26/2022 7:30:00 AM 16.74 62.132 0.049 7.16 1.14 8.98
6/26/2022 7:45:00 AM 16.75 62.15 0.049 7.15 1.25 8.97
6/26/2022 8:00:00 AM 16.76 62.168 0.049 7.18 1.18 9.04
6/26/2022 8:15:00 AM 16.78 62.204 0.049 7.17 1.01 9.08
6/26/2022 8:30:00 AM 16.83 62.294 0.049 7.18 3.04 9.13
6/26/2022 8:45:00 AM 16.88 62.384 0.049 7.21 1.75 9.07
6/26/2022 9:00:00 AM 16.93 62.474 0.049 7.22 2.9 9.11
6/26/2022 9:15:00 AM 16.99 62.582 0.049 7.23 1.97 9
6/26/2022 9:30:00 AM 17.07 62.726 0.049 7.21 1.22 9.07
6/26/2022 9:45:00 AM 17.16 62.888 0.049 7.22 1.1 8.97
6/26/2022 10:00:00 AM 17.29 63.122 0.048 7.25 1.14 9.16
6/26/2022 10:15:00 AM 17.44 63.392 0.048 7.26 1.16 9.11
6/26/2022 10:30:00 AM 17.59 63.662 0.049 7.26 1.13 9.06
6/26/2022 10:45:00 AM 17.74 63.932 0.048 7.27 1.37 9.06
6/26/2022 11:00:00 AM 17.89 64.202 0.048 7.26 1.35 8.91
6/26/2022 11:15:00 AM 18.06 64.508 0.048 7.26 1.12 9.03
6/26/2022 11:30:00 AM 18.3 64.94 0.048 7.32 1.13 9.13
6/26/2022 11:45:00 AM 18.53 65.354 0.048 7.33 1.57 9.08
6/26/2022 12:00:00 PM 18.7 65.66 0.048 7.33 1.19 9.05
6/26/2022 12:15:00 PM 18.82 65.876 0.048 7.3 1.12 9.01
6/26/2022 12:30:00 PM 19.09 66.362 0.048 7.33 1.67 9.02
6/26/2022 12:45:00 PM 19.4 66.92 0.048 7.33 1.52 8.99
6/26/2022 1:00:00 PM 19.71 67.478 0.048 7.35 1.36 8.99
6/26/2022 1:15:00 PM 20.05 68.09 0.048 7.36 1.45 8.94
6/26/2022 1:30:00 PM 20.22 68.396 0.048 7.34 1.25 8.93
6/26/2022 1:45:00 PM 20.48 68.864 0.048 7.33 1.3 8.88
6/26/2022 2:00:00 PM 20.63 69.134 0.048 7.38 1.17 8.89
6/26/2022 2:15:00 PM 20.74 69.332 0.048 7.36 1.15 8.8
6/26/2022 2:30:00 PM 20.76 69.368 0.048 7.36 1.79 8.79
6/26/2022 2:45:00 PM 20.73 69.314 0.048 7.35 1.06 8.72
6/26/2022 3:00:00 PM 20.7 69.26 0.048 7.35 1.01 8.65
6/26/2022 3:15:00 PM 20.65 69.17 0.048 7.33 1.35 8.69
6/26/2022 3:30:00 PM 20.67 69.206 0.048 7.34 1.18 8.66
6/26/2022 3:45:00 PM 20.73 69.314 0.048 7.36 1.14 8.68
6/26/2022 4:00:00 PM 20.75 69.35 0.048 7.36 1.08 8.71
6/26/2022 4:15:00 PM 20.72 69.296 0.048 7.33 1.61 8.65
6/26/2022 4:30:00 PM 20.69 69.242 0.048 7.32 2.13 8.69
6/26/2022 4:45:00 PM 20.67 69.206 0.048 7.33 1.35 8.61
6/26/2022 5:00:00 PM 20.63 69.134 0.048 7.31 1.18 8.62
6/26/2022 5:15:00 PM 20.52 68.936 0.048 7.29 1.07 8.55
6/26/2022 5:30:00 PM 20.41 68.738 0.048 7.29 2.18 8.55
6/26/2022 5:45:00 PM 20.32 68.576 0.048 7.28 1.1 8.51
6/26/2022 6:00:00 PM 20.24 68.432 0.048 7.25 1.11 8.51
6/26/2022 6:15:00 PM 20.15 68.27 0.048 7.24 1 8.45
6/26/2022 6:30:00 PM 20.06 68.108 0.048 7.21 1.03 8.43
6/26/2022 6:45:00 PM 19.95 67.91 0.048 7.19 1.04 8.37
6/26/2022 7:00:00 PM 19.86 67.748 0.048 7.19 1.07 8.32
6/26/2022 7:15:00 PM 19.77 67.586 0.049 7.16 1.08 8.35
6/26/2022 7:30:00 PM 19.7 67.46 0.049 7.15 1.11 8.34
6/26/2022 7:45:00 PM 19.64 67.352 0.049 7.15 1.82 8.33
6/26/2022 8:00:00 PM 19.57 67.226 0.049 7.13 1.18 8.3
6/26/2022 8:15:00 PM 19.49 67.082 0.049 7.14 1.06 8.36
6/26/2022 8:30:00 PM 19.43 66.974 0.049 7.11 1.44 8.29
6/26/2022 8:45:00 PM 19.36 66.848 0.049 7.13 1.1 8.29
6/26/2022 9:00:00 PM 19.3 66.74 0.049 7.11 1.21 8.28
6/26/2022 9:15:00 PM 19.26 66.668 0.049 7.11 1.15 8.34
6/26/2022 9:30:00 PM 19.19 66.542 0.049 7.11 1.23 8.34
6/26/2022 9:45:00 PM 19.14 66.452 0.049 7.1 1.76 8.33
6/26/2022 10:00:00 PM 19.08 66.344 0.049 7.1 1.31 8.35
6/26/2022 10:15:00 PM 19.04 66.272 0.049 7.09 1.11 8.36
6/26/2022 10:30:00 PM 18.99 66.182 0.05 7.1 1.17 8.37
6/26/2022 10:45:00 PM 18.96 66.128 0.049 7.1 1.23 8.36
6/26/2022 11:00:00 PM 18.92 66.056 0.049 7.12 1.18 8.39
6/26/2022 11:15:00 PM 18.89 66.002 0.049 7.11 1.1 8.39
6/26/2022 11:30:00 PM 18.86 65.948 0.049 7.11 1.62 8.41
6/26/2022 11:45:00 PM 18.84 65.912 0.049 7.1 1.22 8.38
6/27/2022 12:00:00 AM 18.82 65.876 0.049 7.1 2.77 8.33
6/27/2022 12:15:00 AM 18.8 65.84 0.049 7.11 1.86 8.32
6/27/2022 12:30:00 AM 18.77 65.786 0.049 7.11 2.8 8.28
6/27/2022 12:45:00 AM 18.74 65.732 0.049 7.11 1.39 8.27
6/27/2022 1:00:00 AM 18.71 65.67799 0.049 7.11 1.49 8.33
6/27/2022 1:15:00 AM 18.68 65.624 0.049 7.12 1.19 8.36
6/27/2022 1:30:00 AM 18.66 65.588 0.05 7.11 1.41 8.38
6/27/2022 1:45:00 AM 18.63 65.534 0.049 7.12 1.22 8.4
6/27/2022 2:00:00 AM 18.61 65.498 0.05 7.11 1.25 8.4
6/27/2022 2:15:00 AM 18.58 65.444 0.05 7.11 1.3 8.4
6/27/2022 2:30:00 AM 18.56 65.408 0.05 7.1 1.28 8.39
6/27/2022 2:45:00 AM 18.54 65.372 0.05 7.09 1.5 8.38
6/27/2022 3:00:00 AM 18.51 65.318 0.05 7.11 1.38 8.38
6/27/2022 3:15:00 AM 18.48 65.264 0.05 7.11 1.26 8.38
6/27/2022 3:30:00 AM 18.45 65.21 0.05 7.11 1.13 8.42
6/27/2022 3:45:00 AM 18.42 65.156 0.05 7.09 1.17 8.43
6/27/2022 4:00:00 AM 18.39 65.102 0.05 7.09 1.4 8.45
6/27/2022 4:15:00 AM 18.36 65.048 0.05 7.09 1.24 8.47
6/27/2022 4:30:00 AM 18.34 65.012 0.05 7.09 1.29 8.48
6/27/2022 4:45:00 AM 18.31 64.958 0.05 7.08 1.35 8.49
6/27/2022 5:00:00 AM 18.28 64.904 0.049 7.07 2 8.45
6/27/2022 5:15:00 AM 18.25 64.85 0.049 7.06 1.83 8.47
6/27/2022 5:30:00 AM 18.22 64.796 0.049 7.05 1.66 8.48
6/27/2022 5:45:00 AM 18.18 64.724 0.049 7.06 1.57 8.51
6/27/2022 6:00:00 AM 18.15 64.67 0.049 7.05 1.6 8.51
6/27/2022 6:15:00 AM 18.12 64.616 0.049 7.07 1.43 8.62
6/27/2022 6:30:00 AM 18.09 64.562 0.049 7.09 1.4 8.65
6/27/2022 6:45:00 AM 18.06 64.508 0.049 7.1 1.38 8.64
6/27/2022 7:00:00 AM 18.02 64.436 0.048 7.1 1.89 8.63
6/27/2022 7:15:00 AM 17.98 64.364 0.048 7.12 1.7 8.72
6/27/2022 7:30:00 AM 17.93 64.274 0.047 7.13 1.36 8.75
6/27/2022 7:45:00 AM 17.9 64.22 0.048 7.15 1.37 8.81
6/27/2022 8:00:00 AM 17.87 64.166 0.047 7.16 1.57 8.85
6/27/2022 8:15:00 AM 17.85 64.13 0.047 7.17 3.82 8.78
6/27/2022 8:30:00 AM 17.84 64.112 0.047 7.19 1.39 8.86
6/27/2022 8:45:00 AM 17.84 64.112 0.047 7.19 1.71 8.91
6/27/2022 9:00:00 AM 17.85 64.13 0.047 7.21 1.66 8.94
6/27/2022 9:15:00 AM 17.9 64.22 0.047 7.23 1.89 9.01
6/27/2022 9:30:00 AM 17.93 64.274 0.047 7.24 1.69 9.02
6/27/2022 9:45:00 AM 17.97 64.346 0.048 7.28 1.58 9.08
6/27/2022 10:00:00 AM 18.02 64.436 0.048 7.28 1.65 9.1
6/27/2022 10:15:00 AM 18.09 64.562 0.048 7.29 2.06 9.09
6/27/2022 10:30:00 AM 18.14 64.652 0.048 7.3 1.67